Time,TemperatureF,DewpointF,PressureIn,WindDirection,WindDirectionDegrees,WindSpeedMPH,WindSpeedGustMPH,Humidity,HourlyPrecipIn,Conditions,Clouds,dailyrainin,SoftwareType,DateUTC
2013-07-13 00:00:00,66.1,0.0,30.18,NW,322,0.0,0.0,0,0.00,,---,0.00,VWS V14.00,2013-07-13 04:00:00,
2013-07-13 00:01:00,66.1,0.0,30.18,NW,322,0.0,0.0,0,0.00,,---,0.00,VWS V14.00,2013-07-13 04:01:00,
2013-07-13 00:02:00,66.1,0.0,30.18,NW,322,0.0,0.0,0,0.00,,---,0.00,VWS V14.00,2013-07-13 04:02:00,
2013-07-13 00:03:00,67.4,0.0,30.18,East,100,0.0,0.0,0,0.00,,---,0.00,VWS V14.00,2013-07-13 04:03:00,
2013-07-13 00:04:00,66.2,0.0,30.18,NW,322,0.0,0.0,0,0.00,,---,0.00,VWS V14.00,2013-07-13 04:04:00,
2013-07-13 00:05:00,66.2,0.0,30.18,NW,322,0.0,0.0,0,0.00,,---,0.00,VWS V14.00,2013-07-13 04:05:00,
2013-07-13 00:06:00,66.3,0.0,30.19,NW,322,0.0,0.0,0,0.00,,---,0.00,VWS V14.00,2013-07-13 04:06:00,
2013-07-13 00:07:00,66.2,0.0,30.18,NW,322,0.0,0.0,0,0.00,,---,0.00,VWS V14.00,2013-07-13 04:07:00,
2013-07-13 00:08:00,67.3,0.0,30.18,East,100,0.0,0.0,0,0.00,,---,0.00,VWS V14.00,2013-07-13 04:08:00,
2013-07-13 00:09:00,66.3,0.0,30.19,NW,322,0.0,0.0,0,0.00,,---,0.00,VWS V14.00,2013-07-13 04:09:00,
2013-07-13 00:10:00,66.3,0.0,30.19,NW,322,0.0,0.0,0,0.00,,---,0.00,VWS V14.00,2013-07-13 04:10:00,
2013-07-13 00:11:00,66.2,0.0,30.19,NW,322,0.0,0.0,0,0.00,,---,0.00,VWS V14.00,2013-07-13 04:11:00,
2013-07-13 00:12:00,66.2,0.0,30.19,NW,322,0.0,0.0,0,0.00,,---,0.00,VWS V14.00,2013-07-13 04:12:00,
2013-07-13 00:13:00,67.1,0.0,30.18,East,100,0.0,0.0,0,0.00,,---,0.00,VWS V14.00,2013-07-13 04:13:00,
2013-07-13 00:14:00,66.3,0.0,30.19,NW,322,0.0,0.0,0,0.00,,---,0.00,VWS V14.00,2013-07-13 04:14:00,
2013-07-13 00:15:00,66.3,0.0,30.19,NW,322,0.0,0.0,0,0.00,,---,0.00,VWS V14.00,2013-07-13 04:15:00,
2013-07-13 00:16:00,66.3,0.0,30.19,NW,322,0.0,0.0,0,0.00,,---,0.00,VWS V14.00,2013-07-13 04:16:00,
2013-07-13 00:17:00,66.3,0.0,30.19,NW,322,0.0,0.0,0,0.00,,---,0.00,VWS V14.00,2013-07-13 04:17:00,
2013-07-13 00:18:00,67.3,0.0,30.18,East,100,0.0,0.0,0,0.00,,---,0.00,VWS V14.00,2013-07-13 04:18:00,
2013-07-13 00:19:00,66.3,0.0,30.19,NW,322,0.0,0.0,0,0.00,,---,0.00,VWS V14.00,2013-07-13 04:19:00,
2013-07-13 00:20:00,66.3,0.0,30.19,NW,322,0.0,0.0,0,0.00,,---,0.00,VWS V14.00,2013-07-13 04:20:00,
2013-07-13 00:21:00,66.4,0.0,30.19,NW,322,0.0,0.0,0,0.00,,---,0.00,VWS V14.00,2013-07-13 04:21:00,
2013-07-13 00:22:00,66.3,0.0,30.19,NW,322,0.0,0.0,0,0.00,,---,0.00,VWS V14.00,2013-07-13 04:22:00,
2013-07-13 00:23:00,67.2,0.0,30.18,East,100,0.0,0.0,0,0.00,,---,0.00,VWS V14.00,2013-07-13 04:23:00,
2013-07-13 00:24:00,66.2,0.0,30.19,NW,322,0.0,0.0,0,0.00,,---,0.00,VWS V14.00,2013-07-13 04:24:00,
2013-07-13 00:25:00,66.2,0.0,30.19,NW,322,0.0,2.0,0,0.00,,---,0.00,VWS V14.00,2013-07-13 04:25:00,
2013-07-13 00:26:00,66.2,0.0,30.19,NW,322,0.0,2.0,0,0.00,,---,0.00,VWS V14.00,2013-07-13 04:26:00,
2013-07-13 00:27:00,66.0,0.0,30.19,North,359,0.0,2.0,0,0.00,,---,0.00,VWS V14.00,2013-07-13 04:27:00,
2013-07-13 00:28:00,66.7,0.0,30.18,East,100,0.0,0.0,0,0.00,,---,0.00,VWS V14.00,2013-07-13 04:28:00,
2013-07-13 00:29:00,65.9,0.0,30.19,North,359,0.0,2.0,0,0.00,,---,0.00,VWS V14.00,2013-07-13 04:29:00,
2013-07-13 00:30:00,65.8,0.0,30.19,North,359,0.0,3.1,0,0.00,,---,0.00,VWS V14.00,2013-07-13 04:30:00,
2013-07-13 00:31:00,65.8,0.0,30.19,North,359,0.0,3.1,0,0.00,,---,0.00,VWS V14.00,2013-07-13 04:31:00,
2013-07-13 00:32:00,65.8,0.0,30.19,North,359,0.0,3.1,0,0.00,,---,0.00,VWS V14.00,2013-07-13 04:32:00,
2013-07-13 00:33:00,66.4,0.0,30.19,NW,322,0.0,0.0,0,0.00,,---,0.00,VWS V14.00,2013-07-13 04:33:00,
2013-07-13 00:34:00,65.8,0.0,30.19,North,359,0.0,3.1,0,0.00,,---,0.00,VWS V14.00,2013-07-13 04:34:00,
2013-07-13 00:35:00,65.8,0.0,30.19,North,359,0.0,0.0,0,0.00,,---,0.00,VWS V14.00,2013-07-13 04:35:00,
2013-07-13 00:36:00,65.9,0.0,30.19,North,359,0.0,0.0,0,0.00,,---,0.00,VWS V14.00,2013-07-13 04:36:00,
2013-07-13 00:37:00,65.9,0.0,30.19,North,359,0.0,0.0,0,0.00,,---,0.00,VWS V14.00,2013-07-13 04:37:00,
2013-07-13 00:38:00,66.2,0.0,30.18,NW,322,0.0,4.5,0,0.00,,---,0.00,VWS V14.00,2013-07-13 04:38:00,
2013-07-13 00:39:00,65.7,0.0,30.19,North,359,0.0,0.0,0,0.00,,---,0.00,VWS V14.00,2013-07-13 04:39:00,
2013-07-13 00:40:00,65.8,0.0,30.19,North,359,0.0,0.0,0,0.00,,---,0.00,VWS V14.00,2013-07-13 04:40:00,
2013-07-13 00:41:00,65.9,0.0,30.19,North,359,0.0,0.0,0,0.00,,---,0.00,VWS V14.00,2013-07-13 04:41:00,
2013-07-13 00:42:00,65.8,0.0,30.19,North,359,0.0,0.0,0,0.00,,---,0.00,VWS V14.00,2013-07-13 04:42:00,
2013-07-13 00:43:00,66.1,0.0,30.18,NW,322,0.0,0.0,0,0.00,,---,0.00,VWS V14.00,2013-07-13 04:43:00,
2013-07-13 00:44:00,65.6,0.0,30.19,North,359,0.0,0.0,0,0.00,,---,0.00,VWS V14.00,2013-07-13 04:44:00,
2013-07-13 00:45:00,65.7,0.0,30.19,North,359,0.0,0.0,0,0.00,,---,0.00,VWS V14.00,2013-07-13 04:45:00,
2013-07-13 00:46:00,65.8,0.0,30.19,North,359,0.0,0.0,0,0.00,,---,0.00,VWS V14.00,2013-07-13 04:46:00,
2013-07-13 00:47:00,65.8,0.0,30.19,North,359,0.0,0.0,0,0.00,,---,0.00,VWS V14.00,2013-07-13 04:47:00,
2013-07-13 00:48:00,66.1,0.0,30.18,NW,322,0.0,0.0,0,0.00,,---,0.00,VWS V14.00,2013-07-13 04:48:00,
2013-07-13 00:49:00,65.7,0.0,30.19,North,359,0.0,0.0,0,0.00,,---,0.00,VWS V14.00,2013-07-13 04:49:00,
2013-07-13 00:50:00,65.7,0.0,30.19,North,359,0.0,0.0,0,0.00,,---,0.00,VWS V14.00,2013-07-13 04:50:00,
2013-07-13 00:51:00,65.7,0.0,30.19,North,359,0.0,0.0,0,0.00,,---,0.00,VWS V14.00,2013-07-13 04:51:00,
2013-07-13 00:52:00,65.8,0.0,30.19,North,359,0.0,0.0,0,0.00,,---,0.00,VWS V14.00,2013-07-13 04:52:00,
2013-07-13 00:53:00,65.8,0.0,30.19,North,359,0.0,0.0,0,0.00,,---,0.00,VWS V14.00,2013-07-13 04:53:00,
2013-07-13 00:54:00,65.9,0.0,30.19,North,359,0.0,0.0,0,0.00,,---,0.00,VWS V14.00,2013-07-13 04:54:00,
2013-07-13 00:55:00,66.0,0.0,30.19,North,359,0.0,0.0,0,0.00,,---,0.00,VWS V14.00,2013-07-13 04:55:00,
2013-07-13 00:56:00,66.0,0.0,30.19,North,359,0.0,0.0,0,0.00,,---,0.00,VWS V14.00,2013-07-13 04:56:00,
2013-07-13 00:57:00,65.9,0.0,30.19,North,359,0.0,0.0,0,0.00,,---,0.00,VWS V14.00,2013-07-13 04:57:00,
2013-07-13 00:58:00,65.9,0.0,30.19,North,359,0.0,0.0,0,0.00,,---,0.00,VWS V14.00,2013-07-13 04:58:00,
2013-07-13 00:59:00,65.9,0.0,30.19,North,359,0.0,0.0,0,0.00,,---,0.00,VWS V14.00,2013-07-13 04:59:00,
2013-07-13 01:00:00,65.9,0.0,30.19,North,359,0.0,0.0,0,0.00,,---,0.00,VWS V14.00,2013-07-13 05:00:00,
2013-07-13 01:01:00,65.9,0.0,30.19,North,359,0.0,0.0,0,0.00,,---,0.00,VWS V14.00,2013-07-13 05:01:00,
2013-07-13 01:02:00,66.0,0.0,30.20,North,359,0.0,0.0,0,0.00,,---,0.00,VWS V14.00,2013-07-13 05:02:00,
2013-07-13 01:03:00,66.0,0.0,30.20,North,359,0.0,0.0,0,0.00,,---,0.00,VWS V14.00,2013-07-13 05:03:00,
2013-07-13 01:04:00,65.9,0.0,30.20,North,359,0.0,0.0,0,0.00,,---,0.00,VWS V14.00,2013-07-13 05:04:00,
2013-07-13 01:05:00,65.9,0.0,30.20,North,359,0.0,0.0,0,0.00,,---,0.00,VWS V14.00,2013-07-13 05:05:00,
2013-07-13 01:06:00,65.9,0.0,30.20,North,359,0.0,0.0,0,0.00,,---,0.00,VWS V14.00,2013-07-13 05:06:00,
2013-07-13 01:07:00,65.9,0.0,30.20,North,359,0.0,0.0,0,0.00,,---,0.00,VWS V14.00,2013-07-13 05:07:00,
2013-07-13 01:08:00,66.0,0.0,30.20,North,359,0.0,0.0,0,0.00,,---,0.00,VWS V14.00,2013-07-13 05:08:00,
2013-07-13 01:09:00,66.1,0.0,30.20,North,359,0.0,0.0,0,0.00,,---,0.00,VWS V14.00,2013-07-13 05:09:00,
2013-07-13 01:10:00,66.1,0.0,30.20,North,359,0.0,0.0,0,0.00,,---,0.00,VWS V14.00,2013-07-13 05:10:00,
2013-07-13 01:11:00,66.1,0.0,30.20,North,359,0.0,0.0,0,0.00,,---,0.00,VWS V14.00,2013-07-13 05:11:00,
2013-07-13 01:12:00,66.1,0.0,30.20,North,359,0.0,0.0,0,0.00,,---,0.00,VWS V14.00,2013-07-13 05:12:00,
2013-07-13 01:13:00,66.0,0.0,30.20,North,359,0.0,0.0,0,0.00,,---,0.00,VWS V14.00,2013-07-13 05:13:00,
2013-07-13 01:14:00,66.1,0.0,30.20,North,359,0.0,0.0,0,0.00,,---,0.00,VWS V14.00,2013-07-13 05:14:00,
2013-07-13 01:15:00,66.0,0.0,30.20,North,359,0.0,0.0,0,0.00,,---,0.00,VWS V14.00,2013-07-13 05:15:00,
2013-07-13 01:16:00,66.0,0.0,30.20,North,359,0.0,0.0,0,0.00,,---,0.00,VWS V14.00,2013-07-13 05:16:00,
2013-07-13 01:17:00,66.0,0.0,30.20,North,359,0.0,0.0,0,0.00,,---,0.00,VWS V14.00,2013-07-13 05:17:00,
2013-07-13 01:18:00,66.0,0.0,30.20,North,359,0.0,0.0,0,0.00,,---,0.00,VWS V14.00,2013-07-13 05:18:00,
2013-07-13 01:19:00,66.0,0.0,30.20,North,359,0.0,0.0,0,0.00,,---,0.00,VWS V14.00,2013-07-13 05:19:00,
2013-07-13 01:20:00,65.9,0.0,30.20,North,359,0.0,0.0,0,0.00,,---,0.00,VWS V14.00,2013-07-13 05:20:00,
2013-07-13 01:21:00,65.9,0.0,30.20,North,359,0.0,0.0,0,0.00,,---,0.00,VWS V14.00,2013-07-13 05:21:00,
2013-07-13 01:22:00,65.9,0.0,30.20,North,359,0.0,0.0,0,0.00,,---,0.00,VWS V14.00,2013-07-13 05:22:00,
2013-07-13 01:23:00,65.9,0.0,30.20,North,359,0.0,0.0,0,0.00,,---,0.00,VWS V14.00,2013-07-13 05:23:00,
2013-07-13 01:24:00,66.0,0.0,30.20,North,359,0.0,0.0,0,0.00,,---,0.00,VWS V14.00,2013-07-13 05:24:00,
2013-07-13 01:25:00,66.0,0.0,30.20,North,359,0.0,2.4,0,0.00,,---,0.00,VWS V14.00,2013-07-13 05:25:00,
2013-07-13 01:26:00,65.9,0.0,30.20,North,359,0.0,2.4,0,0.00,,---,0.00,VWS V14.00,2013-07-13 05:26:00,
2013-07-13 01:27:00,65.9,0.0,30.20,North,359,0.0,2.4,0,0.00,,---,0.00,VWS V14.00,2013-07-13 05:27:00,
2013-07-13 01:28:00,65.9,0.0,30.20,North,359,0.0,2.4,0,0.00,,---,0.00,VWS V14.00,2013-07-13 05:28:00,
2013-07-13 01:29:00,65.9,0.0,30.20,North,359,0.0,2.4,0,0.00,,---,0.00,VWS V14.00,2013-07-13 05:29:00,
2013-07-13 01:30:00,65.9,0.0,30.20,North,359,0.0,0.0,0,0.00,,---,0.00,VWS V14.00,2013-07-13 05:30:00,
2013-07-13 01:31:00,65.9,0.0,30.20,North,359,0.0,0.0,0,0.00,,---,0.00,VWS V14.00,2013-07-13 05:31:00,
2013-07-13 01:32:00,66.0,0.0,30.20,North,359,0.0,0.0,0,0.00,,---,0.00,VWS V14.00,2013-07-13 05:32:00,
2013-07-13 01:33:00,66.0,0.0,30.20,North,359,0.0,0.0,0,0.00,,---,0.00,VWS V14.00,2013-07-13 05:33:00,
2013-07-13 01:34:00,66.0,0.0,30.20,North,359,0.0,0.0,0,0.00,,---,0.00,VWS V14.00,2013-07-13 05:34:00,
2013-07-13 01:35:00,66.0,0.0,30.20,North,359,0.0,0.0,0,0.00,,---,0.00,VWS V14.00,2013-07-13 05:35:00,
2013-07-13 01:36:00,66.0,0.0,30.20,North,359,0.0,0.0,0,0.00,,---,0.00,VWS V14.00,2013-07-13 05:36:00,
2013-07-13 01:37:00,66.0,0.0,30.20,North,359,0.0,0.0,0,0.00,,---,0.00,VWS V14.00,2013-07-13 05:37:00,
2013-07-13 01:38:00,66.1,0.0,30.20,North,359,0.0,0.0,0,0.00,,---,0.00,VWS V14.00,2013-07-13 05:38:00,
2013-07-13 01:39:00,66.0,0.0,30.20,North,359,0.0,0.0,0,0.00,,---,0.00,VWS V14.00,2013-07-13 05:39:00,
2013-07-13 01:40:00,66.1,0.0,30.20,North,359,0.0,0.0,0,0.00,,---,0.00,VWS V14.00,2013-07-13 05:40:00,
2013-07-13 01:41:00,66.1,0.0,30.20,North,359,0.0,0.0,0,0.00,,---,0.00,VWS V14.00,2013-07-13 05:41:00,
2013-07-13 01:42:00,66.1,0.0,30.20,North,359,0.0,0.0,0,0.00,,---,0.00,VWS V14.00,2013-07-13 05:42:00,
2013-07-13 01:43:00,66.2,0.0,30.20,North,359,0.0,0.0,0,0.00,,---,0.00,VWS V14.00,2013-07-13 05:43:00,
2013-07-13 01:44:00,66.1,0.0,30.20,North,359,0.0,0.0,0,0.00,,---,0.00,VWS V14.00,2013-07-13 05:44:00,
2013-07-13 01:45:00,66.1,0.0,30.20,North,359,0.0,0.0,0,0.00,,---,0.00,VWS V14.00,2013-07-13 05:45:00,
2013-07-13 01:46:00,66.1,0.0,30.20,North,359,0.0,0.0,0,0.00,,---,0.00,VWS V14.00,2013-07-13 05:46:00,
2013-07-13 01:47:00,66.0,0.0,30.20,North,359,0.0,0.0,0,0.00,,---,0.00,VWS V14.00,2013-07-13 05:47:00,
2013-07-13 01:48:00,66.0,0.0,30.20,North,359,0.0,0.0,0,0.00,,---,0.00,VWS V14.00,2013-07-13 05:48:00,
2013-07-13 01:49:00,66.0,0.0,30.20,North,359,0.0,0.0,0,0.00,,---,0.00,VWS V14.00,2013-07-13 05:49:00,
2013-07-13 01:50:00,66.0,0.0,30.20,North,359,0.0,0.0,0,0.00,,---,0.00,VWS V14.00,2013-07-13 05:50:00,
2013-07-13 01:51:00,66.0,0.0,30.20,North,359,0.0,0.0,0,0.00,,---,0.00,VWS V14.00,2013-07-13 05:51:00,
2013-07-13 01:52:00,66.0,0.0,30.20,North,359,0.0,0.0,0,0.00,,---,0.00,VWS V14.00,2013-07-13 05:52:00,
2013-07-13 01:53:00,66.0,0.0,30.20,North,359,0.0,0.0,0,0.00,,---,0.00,VWS V14.00,2013-07-13 05:53:00,
2013-07-13 01:54:00,66.0,0.0,30.20,North,359,0.0,0.0,0,0.00,,---,0.00,VWS V14.00,2013-07-13 05:54:00,
2013-07-13 01:55:00,65.9,0.0,30.20,North,359,0.0,0.0,0,0.00,,---,0.00,VWS V14.00,2013-07-13 05:55:00,
2013-07-13 01:56:00,65.9,0.0,30.20,North,359,0.0,0.0,0,0.00,,---,0.00,VWS V14.00,2013-07-13 05:56:00,
2013-07-13 01:57:00,65.9,0.0,30.20,North,359,0.0,0.0,0,0.00,,---,0.00,VWS V14.00,2013-07-13 05:57:00,
2013-07-13 01:58:00,65.9,0.0,30.20,North,359,0.0,0.0,0,0.00,,---,0.00,VWS V14.00,2013-07-13 05:58:00,
2013-07-13 01:59:00,65.9,0.0,30.20,North,359,0.0,0.0,0,0.00,,---,0.00,VWS V14.00,2013-07-13 05:59:00,
2013-07-13 02:00:00,65.9,0.0,30.20,North,359,0.0,0.0,0,0.00,,---,0.00,VWS V14.00,2013-07-13 06:00:00,
2013-07-13 02:01:00,65.9,0.0,30.20,North,359,0.0,0.0,0,0.00,,---,0.00,VWS V14.00,2013-07-13 06:01:00,
2013-07-13 02:02:00,65.8,0.0,30.20,North,359,0.0,0.0,0,0.00,,---,0.00,VWS V14.00,2013-07-13 06:02:00,
2013-07-13 02:03:00,65.7,0.0,30.20,North,359,0.0,0.0,0,0.00,,---,0.00,VWS V14.00,2013-07-13 06:03:00,
2013-07-13 02:04:00,65.5,0.0,30.20,North,359,0.0,0.0,0,0.00,,---,0.00,VWS V14.00,2013-07-13 06:04:00,
2013-07-13 02:05:00,65.5,0.0,30.20,North,359,0.0,0.0,0,0.00,,---,0.00,VWS V14.00,2013-07-13 06:05:00,
2013-07-13 02:06:00,65.4,0.0,30.20,North,359,0.0,0.0,0,0.00,,---,0.00,VWS V14.00,2013-07-13 06:06:00,
2013-07-13 02:07:00,65.4,0.0,30.20,North,359,0.0,0.0,0,0.00,,---,0.00,VWS V14.00,2013-07-13 06:07:00,
2013-07-13 02:08:00,65.4,0.0,30.20,North,359,0.0,0.0,0,0.00,,---,0.00,VWS V14.00,2013-07-13 06:08:00,
2013-07-13 02:09:00,65.4,0.0,30.20,North,359,0.0,0.0,0,0.00,,---,0.00,VWS V14.00,2013-07-13 06:09:00,
2013-07-13 02:10:00,65.4,0.0,30.20,North,359,0.0,0.0,0,0.00,,---,0.00,VWS V14.00,2013-07-13 06:10:00,
2013-07-13 02:11:00,65.4,0.0,30.21,North,359,0.0,0.0,0,0.00,,---,0.00,VWS V14.00,2013-07-13 06:11:00,
2013-07-13 02:12:00,65.4,0.0,30.21,North,359,0.0,0.0,0,0.00,,---,0.00,VWS V14.00,2013-07-13 06:12:00,
2013-07-13 02:13:00,65.3,0.0,30.20,North,359,0.0,0.0,0,0.00,,---,0.00,VWS V14.00,2013-07-13 06:13:00,
2013-07-13 02:14:00,65.4,0.0,30.20,North,359,0.0,0.0,0,0.00,,---,0.00,VWS V14.00,2013-07-13 06:14:00,
2013-07-13 02:15:00,65.4,0.0,30.20,North,359,0.0,0.0,0,0.00,,---,0.00,VWS V14.00,2013-07-13 06:15:00,
2013-07-13 02:16:00,65.4,0.0,30.20,North,359,0.0,0.0,0,0.00,,---,0.00,VWS V14.00,2013-07-13 06:16:00,
2013-07-13 02:17:00,65.4,0.0,30.20,North,359,0.0,0.0,0,0.00,,---,0.00,VWS V14.00,2013-07-13 06:17:00,
2013-07-13 02:18:00,65.4,0.0,30.20,North,359,0.0,0.0,0,0.00,,---,0.00,VWS V14.00,2013-07-13 06:18:00,
2013-07-13 02:19:00,65.4,0.0,30.20,North,359,0.0,0.0,0,0.00,,---,0.00,VWS V14.00,2013-07-13 06:19:00,
2013-07-13 02:20:00,65.4,0.0,30.20,North,359,0.0,1.7,0,0.00,,---,0.00,VWS V14.00,2013-07-13 06:20:00,
2013-07-13 02:21:00,65.5,0.0,30.20,North,359,0.0,1.7,0,0.00,,---,0.00,VWS V14.00,2013-07-13 06:21:00,
2013-07-13 02:22:00,65.5,0.0,30.20,North,359,0.0,1.7,0,0.00,,---,0.00,VWS V14.00,2013-07-13 06:22:00,
2013-07-13 02:23:00,65.6,0.0,30.20,North,359,0.0,1.7,0,0.00,,---,0.00,VWS V14.00,2013-07-13 06:23:00,
2013-07-13 02:24:00,65.7,0.0,30.20,North,359,0.0,1.7,0,0.00,,---,0.00,VWS V14.00,2013-07-13 06:24:00,
2013-07-13 02:25:00,65.8,0.0,30.20,North,359,0.0,0.0,0,0.00,,---,0.00,VWS V14.00,2013-07-13 06:25:00,
2013-07-13 02:26:00,65.8,0.0,30.20,North,359,0.0,0.0,0,0.00,,---,0.00,VWS V14.00,2013-07-13 06:26:00,
2013-07-13 02:27:00,65.8,0.0,30.20,North,359,0.0,0.0,0,0.00,,---,0.00,VWS V14.00,2013-07-13 06:27:00,
2013-07-13 02:28:00,65.9,0.0,30.21,North,359,0.0,0.0,0,0.00,,---,0.00,VWS V14.00,2013-07-13 06:28:00,
2013-07-13 02:29:00,65.9,0.0,30.20,North,359,0.0,0.0,0,0.00,,---,0.00,VWS V14.00,2013-07-13 06:29:00,
2013-07-13 02:30:00,66.0,0.0,30.20,North,359,0.0,2.3,0,0.00,,---,0.00,VWS V14.00,2013-07-13 06:30:00,
2013-07-13 02:31:00,66.0,0.0,30.20,North,359,0.0,2.3,0,0.00,,---,0.00,VWS V14.00,2013-07-13 06:31:00,
2013-07-13 02:32:00,66.1,0.0,30.21,NNE,15,0.0,2.3,0,0.00,,---,0.00,VWS V14.00,2013-07-13 06:32:00,
2013-07-13 02:33:00,66.1,0.0,30.21,NNE,15,0.0,2.3,0,0.00,,---,0.00,VWS V14.00,2013-07-13 06:33:00,
2013-07-13 02:34:00,66.0,0.0,30.21,NNE,15,0.0,2.3,0,0.00,,---,0.00,VWS V14.00,2013-07-13 06:34:00,
2013-07-13 02:35:00,66.0,0.0,30.21,NNE,15,0.0,1.1,0,0.00,,---,0.00,VWS V14.00,2013-07-13 06:35:00,
2013-07-13 02:36:00,66.0,0.0,30.21,NNE,15,0.0,1.1,0,0.00,,---,0.00,VWS V14.00,2013-07-13 06:36:00,
2013-07-13 02:37:00,66.0,0.0,30.21,NNE,15,0.0,1.1,0,0.00,,---,0.00,VWS V14.00,2013-07-13 06:37:00,
2013-07-13 02:38:00,66.0,0.0,30.21,NNE,15,0.0,1.1,0,0.00,,---,0.00,VWS V14.00,2013-07-13 06:38:00,
2013-07-13 02:39:00,66.0,0.0,30.21,NNE,15,0.0,1.1,0,0.00,,---,0.00,VWS V14.00,2013-07-13 06:39:00,
2013-07-13 02:40:00,66.1,0.0,30.21,NNE,15,0.0,0.0,0,0.00,,---,0.00,VWS V14.00,2013-07-13 06:40:00,
2013-07-13 02:41:00,66.1,0.0,30.21,NNE,15,0.0,0.0,0,0.00,,---,0.00,VWS V14.00,2013-07-13 06:41:00,
2013-07-13 02:42:00,66.1,0.0,30.21,NNE,15,0.0,0.0,0,0.00,,---,0.00,VWS V14.00,2013-07-13 06:42:00,
2013-07-13 02:43:00,66.2,0.0,30.21,NNE,15,0.0,0.0,0,0.00,,---,0.00,VWS V14.00,2013-07-13 06:43:00,
2013-07-13 02:44:00,66.1,0.0,30.21,NNE,15,0.0,0.0,0,0.00,,---,0.00,VWS V14.00,2013-07-13 06:44:00,
2013-07-13 02:45:00,66.1,0.0,30.21,NNE,15,0.0,0.0,0,0.00,,---,0.00,VWS V14.00,2013-07-13 06:45:00,
2013-07-13 02:46:00,66.0,0.0,30.21,NNE,15,0.0,0.0,0,0.00,,---,0.00,VWS V14.00,2013-07-13 06:46:00,
2013-07-13 02:47:00,65.9,0.0,30.21,NNE,15,0.0,0.0,0,0.00,,---,0.00,VWS V14.00,2013-07-13 06:47:00,
2013-07-13 02:48:00,65.9,0.0,30.22,NNE,15,0.0,0.0,0,0.00,,---,0.00,VWS V14.00,2013-07-13 06:48:00,
2013-07-13 02:49:00,65.8,0.0,30.21,NNE,15,0.0,0.0,0,0.00,,---,0.00,VWS V14.00,2013-07-13 06:49:00,
2013-07-13 02:50:00,65.8,0.0,30.22,NNE,15,0.0,0.0,0,0.00,,---,0.00,VWS V14.00,2013-07-13 06:50:00,
2013-07-13 02:51:00,65.8,0.0,30.22,NNE,15,0.0,0.0,0,0.00,,---,0.00,VWS V14.00,2013-07-13 06:51:00,
2013-07-13 02:52:00,65.7,0.0,30.22,NNE,15,0.0,0.0,0,0.00,,---,0.00,VWS V14.00,2013-07-13 06:52:00,
2013-07-13 02:53:00,65.7,0.0,30.22,NNE,15,0.0,0.0,0,0.00,,---,0.00,VWS V14.00,2013-07-13 06:53:00,
2013-07-13 02:54:00,65.7,0.0,30.22,NNE,15,0.0,0.0,0,0.00,,---,0.00,VWS V14.00,2013-07-13 06:54:00,
2013-07-13 02:55:00,65.7,0.0,30.22,NNE,15,0.0,0.0,0,0.00,,---,0.00,VWS V14.00,2013-07-13 06:55:00,
2013-07-13 02:56:00,65.6,0.0,30.22,NNE,15,0.0,0.0,0,0.00,,---,0.00,VWS V14.00,2013-07-13 06:56:00,
2013-07-13 02:57:00,65.6,0.0,30.22,NNE,15,0.0,0.0,0,0.00,,---,0.00,VWS V14.00,2013-07-13 06:57:00,
2013-07-13 02:58:00,65.6,0.0,30.22,NNE,15,0.0,0.0,0,0.00,,---,0.00,VWS V14.00,2013-07-13 06:58:00,
2013-07-13 02:59:00,65.5,0.0,30.22,NNE,15,0.0,0.0,0,0.00,,---,0.00,VWS V14.00,2013-07-13 06:59:00,
2013-07-13 03:00:00,65.4,0.0,30.22,NNE,15,0.0,0.0,0,0.00,,---,0.00,VWS V14.00,2013-07-13 07:00:00,
2013-07-13 03:01:00,65.4,0.0,30.22,NNE,15,0.0,0.0,0,0.00,,---,0.00,VWS V14.00,2013-07-13 07:01:00,
2013-07-13 03:02:00,65.4,0.0,30.22,NNE,15,0.0,0.0,0,0.00,,---,0.00,VWS V14.00,2013-07-13 07:02:00,
2013-07-13 03:03:00,65.4,0.0,30.22,NNE,15,0.0,0.0,0,0.00,,---,0.00,VWS V14.00,2013-07-13 07:03:00,
2013-07-13 03:04:00,65.4,0.0,30.22,NNE,15,0.0,0.0,0,0.00,,---,0.00,VWS V14.00,2013-07-13 07:04:00,
2013-07-13 03:05:00,65.4,0.0,30.22,NNE,15,0.0,3.4,0,0.00,,---,0.00,VWS V14.00,2013-07-13 07:05:00,
2013-07-13 03:06:00,65.3,0.0,30.22,WNW,287,4.4,4.4,0,0.00,,---,0.00,VWS V14.00,2013-07-13 07:06:00,
2013-07-13 03:07:00,65.3,0.0,30.22,West,270,0.0,3.4,0,0.00,,---,0.00,VWS V14.00,2013-07-13 07:07:00,
2013-07-13 03:08:00,65.4,0.0,30.22,NNW,340,0.0,3.4,0,0.00,,---,0.00,VWS V14.00,2013-07-13 07:08:00,
2013-07-13 03:09:00,65.3,0.0,30.22,NNW,340,0.0,3.4,0,0.00,,---,0.00,VWS V14.00,2013-07-13 07:09:00,
2013-07-13 03:10:00,65.3,0.0,30.22,NNW,340,0.0,4.4,0,0.00,,---,0.00,VWS V14.00,2013-07-13 07:10:00,
2013-07-13 03:11:00,65.3,0.0,30.22,NNW,340,0.0,4.4,0,0.00,,---,0.00,VWS V14.00,2013-07-13 07:11:00,
2013-07-13 03:12:00,65.3,0.0,30.22,NNW,340,0.0,4.4,0,0.00,,---,0.00,VWS V14.00,2013-07-13 07:12:00,
2013-07-13 03:13:00,65.3,0.0,30.22,NNW,340,0.0,4.4,0,0.00,,---,0.00,VWS V14.00,2013-07-13 07:13:00,
2013-07-13 03:14:00,65.3,0.0,30.22,NNW,340,0.0,4.4,0,0.00,,---,0.00,VWS V14.00,2013-07-13 07:14:00,
2013-07-13 03:15:00,65.3,0.0,30.22,NNW,340,0.0,0.0,0,0.00,,---,0.00,VWS V14.00,2013-07-13 07:15:00,
2013-07-13 03:16:00,65.3,0.0,30.22,NNW,340,0.0,0.0,0,0.00,,---,0.00,VWS V14.00,2013-07-13 07:16:00,
2013-07-13 03:17:00,65.3,0.0,30.22,NNW,340,0.0,0.0,0,0.00,,---,0.00,VWS V14.00,2013-07-13 07:17:00,
2013-07-13 03:18:00,65.2,0.0,30.22,NW,311,0.0,0.0,0,0.00,,---,0.00,VWS V14.00,2013-07-13 07:18:00,
2013-07-13 03:19:00,65.2,0.0,30.22,NW,311,0.0,0.0,0,0.00,,---,0.00,VWS V14.00,2013-07-13 07:19:00,
2013-07-13 03:20:00,65.2,0.0,30.22,NW,311,0.0,3.4,0,0.00,,---,0.00,VWS V14.00,2013-07-13 07:20:00,
2013-07-13 03:21:00,65.3,0.0,30.22,NW,311,0.0,3.4,0,0.00,,---,0.00,VWS V14.00,2013-07-13 07:21:00,
2013-07-13 03:22:00,65.3,0.0,30.22,NW,311,0.0,3.4,0,0.00,,---,0.00,VWS V14.00,2013-07-13 07:22:00,
2013-07-13 03:23:00,65.3,0.0,30.22,NW,311,0.0,3.4,0,0.00,,---,0.00,VWS V14.00,2013-07-13 07:23:00,
2013-07-13 03:24:00,65.4,0.0,30.22,NW,311,0.0,3.4,0,0.00,,---,0.00,VWS V14.00,2013-07-13 07:24:00,
2013-07-13 03:25:00,65.4,0.0,30.22,NW,311,0.0,0.0,0,0.00,,---,0.00,VWS V14.00,2013-07-13 07:25:00,
2013-07-13 03:26:00,65.5,0.0,30.22,NW,311,0.0,0.0,0,0.00,,---,0.00,VWS V14.00,2013-07-13 07:26:00,
2013-07-13 03:27:00,65.6,0.0,30.22,NW,311,0.0,0.0,0,0.00,,---,0.00,VWS V14.00,2013-07-13 07:27:00,
2013-07-13 03:28:00,65.6,0.0,30.22,NW,311,0.0,0.0,0,0.00,,---,0.00,VWS V14.00,2013-07-13 07:28:00,
2013-07-13 03:29:00,65.6,0.0,30.22,NW,311,0.0,0.0,0,0.00,,---,0.00,VWS V14.00,2013-07-13 07:29:00,
2013-07-13 03:30:00,65.7,0.0,30.22,NW,311,0.0,0.0,0,0.00,,---,0.00,VWS V14.00,2013-07-13 07:30:00,
2013-07-13 03:31:00,65.6,0.0,30.22,NW,311,0.0,0.0,0,0.00,,---,0.00,VWS V14.00,2013-07-13 07:31:00,
2013-07-13 03:32:00,65.5,0.0,30.23,NW,311,0.0,0.0,0,0.00,,---,0.00,VWS V14.00,2013-07-13 07:32:00,
2013-07-13 03:33:00,65.5,0.0,30.22,NW,311,0.0,0.0,0,0.00,,---,0.00,VWS V14.00,2013-07-13 07:33:00,
2013-07-13 03:34:00,65.4,0.0,30.23,NW,311,1.2,0.0,0,0.00,,---,0.00,VWS V14.00,2013-07-13 07:34:00,
2013-07-13 03:35:00,65.3,0.0,30.23,NW,323,0.0,5.8,0,0.00,,---,0.00,VWS V14.00,2013-07-13 07:35:00,
2013-07-13 03:36:00,65.2,0.0,30.22,NW,326,0.0,5.8,0,0.00,,---,0.00,VWS V14.00,2013-07-13 07:36:00,
2013-07-13 03:37:00,65.2,0.0,30.22,NNW,332,2.9,5.8,0,0.00,,---,0.00,VWS V14.00,2013-07-13 07:37:00,
2013-07-13 03:38:00,65.2,0.0,30.22,NNW,332,0.0,5.8,0,0.00,,---,0.00,VWS V14.00,2013-07-13 07:38:00,
2013-07-13 03:39:00,65.2,0.0,30.22,NNW,332,0.0,5.8,0,0.00,,---,0.00,VWS V14.00,2013-07-13 07:39:00,
2013-07-13 03:40:00,65.2,0.0,30.22,NNW,332,0.0,4.9,0,0.00,,---,0.00,VWS V14.00,2013-07-13 07:40:00,
2013-07-13 03:41:00,65.2,0.0,30.22,NNW,332,0.0,4.9,0,0.00,,---,0.00,VWS V14.00,2013-07-13 07:41:00,
2013-07-13 03:42:00,65.2,0.0,30.22,NNW,332,0.0,4.9,0,0.00,,---,0.00,VWS V14.00,2013-07-13 07:42:00,
2013-07-13 03:43:00,65.3,0.0,30.22,NNW,332,0.0,4.9,0,0.00,,---,0.00,VWS V14.00,2013-07-13 07:43:00,
2013-07-13 03:44:00,65.4,0.0,30.22,NNW,332,0.0,4.9,0,0.00,,---,0.00,VWS V14.00,2013-07-13 07:44:00,
2013-07-13 03:45:00,65.4,0.0,30.22,NNW,332,0.0,0.0,0,0.00,,---,0.00,VWS V14.00,2013-07-13 07:45:00,
2013-07-13 03:46:00,65.4,0.0,30.22,NNW,332,0.0,0.0,0,0.00,,---,0.00,VWS V14.00,2013-07-13 07:46:00,
2013-07-13 03:47:00,65.4,0.0,30.22,NNW,332,0.0,0.0,0,0.00,,---,0.00,VWS V14.00,2013-07-13 07:47:00,
2013-07-13 03:48:00,65.5,0.0,30.22,NNW,332,0.0,0.0,0,0.00,,---,0.00,VWS V14.00,2013-07-13 07:48:00,
2013-07-13 03:49:00,65.6,0.0,30.22,NNW,332,0.0,0.0,0,0.00,,---,0.00,VWS V14.00,2013-07-13 07:49:00,
2013-07-13 03:50:00,65.6,0.0,30.22,NNW,332,0.0,0.0,0,0.00,,---,0.00,VWS V14.00,2013-07-13 07:50:00,
2013-07-13 03:51:00,65.6,0.0,30.22,NNW,332,0.0,0.0,0,0.00,,---,0.00,VWS V14.00,2013-07-13 07:51:00,
2013-07-13 03:52:00,65.6,0.0,30.23,NNW,332,0.0,0.0,0,0.00,,---,0.00,VWS V14.00,2013-07-13 07:52:00,
2013-07-13 03:53:00,65.6,0.0,30.23,NNW,332,0.0,0.0,0,0.00,,---,0.00,VWS V14.00,2013-07-13 07:53:00,
2013-07-13 03:54:00,65.5,0.0,30.23,NNW,332,0.0,0.0,0,0.00,,---,0.00,VWS V14.00,2013-07-13 07:54:00,
2013-07-13 03:55:00,65.4,0.0,30.22,NNW,332,0.0,0.0,0,0.00,,---,0.00,VWS V14.00,2013-07-13 07:55:00,
2013-07-13 03:56:00,65.4,0.0,30.22,NNW,332,0.0,0.0,0,0.00,,---,0.00,VWS V14.00,2013-07-13 07:56:00,
2013-07-13 03:57:00,65.5,0.0,30.22,NNW,332,0.0,0.0,0,0.00,,---,0.00,VWS V14.00,2013-07-13 07:57:00,
2013-07-13 03:58:00,65.5,0.0,30.22,NNW,332,0.0,0.0,0,0.00,,---,0.00,VWS V14.00,2013-07-13 07:58:00,
2013-07-13 03:59:00,65.6,0.0,30.22,NNW,332,0.0,0.0,0,0.00,,---,0.00,VWS V14.00,2013-07-13 07:59:00,
2013-07-13 04:00:00,65.5,0.0,30.22,NNW,332,0.0,0.0,0,0.00,,---,0.00,VWS V14.00,2013-07-13 08:00:00,
2013-07-13 04:01:00,65.6,0.0,30.22,NNW,332,0.0,0.0,0,0.00,,---,0.00,VWS V14.00,2013-07-13 08:01:00,
2013-07-13 04:02:00,65.6,0.0,30.22,NNW,332,0.0,0.0,0,0.00,,---,0.00,VWS V14.00,2013-07-13 08:02:00,
2013-07-13 04:03:00,65.6,0.0,30.22,NNW,332,0.0,0.0,0,0.00,,---,0.00,VWS V14.00,2013-07-13 08:03:00,
2013-07-13 04:04:00,65.6,0.0,30.22,NNW,332,0.0,0.0,0,0.00,,---,0.00,VWS V14.00,2013-07-13 08:04:00,
2013-07-13 04:05:00,65.7,0.0,30.22,NNW,332,0.0,0.0,0,0.00,,---,0.00,VWS V14.00,2013-07-13 08:05:00,
2013-07-13 04:06:00,65.6,0.0,30.22,NNW,332,0.0,0.0,0,0.00,,---,0.00,VWS V14.00,2013-07-13 08:06:00,
2013-07-13 04:07:00,65.7,0.0,30.22,NE,44,0.0,0.0,0,0.00,,---,0.00,VWS V14.00,2013-07-13 08:07:00,
2013-07-13 04:08:00,65.7,0.0,30.22,NE,44,3.3,0.0,0,0.00,,---,0.00,VWS V14.00,2013-07-13 08:08:00,
2013-07-13 04:09:00,65.7,0.0,30.22,North,359,0.0,0.0,0,0.00,,---,0.00,VWS V14.00,2013-07-13 08:09:00,
2013-07-13 04:10:00,65.7,0.0,30.22,North,359,0.0,6.3,0,0.00,,---,0.00,VWS V14.00,2013-07-13 08:10:00,
2013-07-13 04:11:00,65.7,0.0,30.22,North,359,0.0,6.3,0,0.00,,---,0.00,VWS V14.00,2013-07-13 08:11:00,
2013-07-13 04:12:00,65.6,0.0,30.22,NE,49,0.0,6.3,0,0.00,,---,0.00,VWS V14.00,2013-07-13 08:12:00,
2013-07-13 04:13:00,65.6,0.0,30.22,NE,49,0.0,6.3,0,0.00,,---,0.00,VWS V14.00,2013-07-13 08:13:00,
2013-07-13 04:14:00,65.6,0.0,30.22,ENE,76,4.4,6.3,0,0.00,,---,0.00,VWS V14.00,2013-07-13 08:14:00,
2013-07-13 04:15:00,65.6,0.0,30.22,NNE,15,0.0,4.5,0,0.00,,---,0.00,VWS V14.00,2013-07-13 08:15:00,
2013-07-13 04:16:00,65.6,0.0,30.22,NNE,15,0.0,4.5,0,0.00,,---,0.00,VWS V14.00,2013-07-13 08:16:00,
2013-07-13 04:17:00,65.5,0.0,30.22,NNE,15,0.0,4.5,0,0.00,,---,0.00,VWS V14.00,2013-07-13 08:17:00,
2013-07-13 04:18:00,65.5,0.0,30.22,NNE,15,0.0,4.5,0,0.00,,---,0.00,VWS V14.00,2013-07-13 08:18:00,
2013-07-13 04:19:00,65.4,0.0,30.22,NNE,15,0.0,4.5,0,0.00,,---,0.00,VWS V14.00,2013-07-13 08:19:00,
2013-07-13 04:20:00,65.5,0.0,30.22,NNE,15,0.0,0.0,0,0.00,,---,0.00,VWS V14.00,2013-07-13 08:20:00,
2013-07-13 04:21:00,65.6,0.0,30.22,NNE,15,0.0,0.0,0,0.00,,---,0.00,VWS V14.00,2013-07-13 08:21:00,
2013-07-13 04:22:00,65.7,0.0,30.23,NNE,15,0.0,0.0,0,0.00,,---,0.00,VWS V14.00,2013-07-13 08:22:00,
2013-07-13 04:23:00,65.7,0.0,30.23,North,11,0.0,0.0,0,0.00,,---,0.00,VWS V14.00,2013-07-13 08:23:00,
2013-07-13 04:24:00,65.7,0.0,30.23,North,11,0.0,0.0,0,0.00,,---,0.00,VWS V14.00,2013-07-13 08:24:00,
2013-07-13 04:25:00,65.7,0.0,30.23,North,11,0.0,3.4,0,0.00,,---,0.00,VWS V14.00,2013-07-13 08:25:00,
2013-07-13 04:26:00,65.7,0.0,30.23,North,11,0.0,3.4,0,0.00,,---,0.00,VWS V14.00,2013-07-13 08:26:00,
2013-07-13 04:27:00,65.7,0.0,30.23,North,11,0.0,3.4,0,0.00,,---,0.00,VWS V14.00,2013-07-13 08:27:00,
2013-07-13 04:28:00,65.7,0.0,30.23,North,11,0.0,3.4,0,0.00,,---,0.00,VWS V14.00,2013-07-13 08:28:00,
2013-07-13 04:29:00,65.7,0.0,30.23,North,11,0.0,3.4,0,0.00,,---,0.00,VWS V14.00,2013-07-13 08:29:00,
2013-07-13 04:30:00,65.7,0.0,30.23,North,11,0.0,0.0,0,0.00,,---,0.00,VWS V14.00,2013-07-13 08:30:00,
2013-07-13 04:31:00,65.7,0.0,30.23,North,11,0.0,0.0,0,0.00,,---,0.00,VWS V14.00,2013-07-13 08:31:00,
2013-07-13 04:32:00,65.8,0.0,30.23,North,11,0.0,0.0,0,0.00,,---,0.00,VWS V14.00,2013-07-13 08:32:00,
2013-07-13 04:33:00,65.7,0.0,30.23,NNE,18,0.0,0.0,0,0.00,,---,0.00,VWS V14.00,2013-07-13 08:33:00,
2013-07-13 04:34:00,65.7,0.0,30.23,NNE,27,4.5,0.0,0,0.00,,---,0.00,VWS V14.00,2013-07-13 08:34:00,
2013-07-13 04:35:00,65.8,0.0,30.23,North,4,0.0,5.8,0,0.00,,---,0.00,VWS V14.00,2013-07-13 08:35:00,
2013-07-13 04:36:00,65.8,0.0,30.23,North,4,0.0,5.8,0,0.00,,---,0.00,VWS V14.00,2013-07-13 08:36:00,
2013-07-13 04:37:00,65.8,0.0,30.23,NNE,32,0.0,5.8,0,0.00,,---,0.00,VWS V14.00,2013-07-13 08:37:00,
2013-07-13 04:38:00,65.8,0.0,30.23,NE,53,4.5,5.8,0,0.00,,---,0.00,VWS V14.00,2013-07-13 08:38:00,
2013-07-13 04:39:00,65.8,0.0,30.23,NNE,30,2.9,5.8,0,0.00,,---,0.00,VWS V14.00,2013-07-13 08:39:00,
2013-07-13 04:40:00,65.8,0.0,30.23,North,359,3.0,5.7,0,0.00,,---,0.00,VWS V14.00,2013-07-13 08:40:00,
2013-07-13 04:41:00,65.8,0.0,30.23,North,359,0.0,5.7,0,0.00,,---,0.00,VWS V14.00,2013-07-13 08:41:00,
2013-07-13 04:42:00,65.8,0.0,30.23,NE,52,5.1,5.7,0,0.00,,---,0.00,VWS V14.00,2013-07-13 08:42:00,
2013-07-13 04:43:00,65.8,0.0,30.23,NE,34,0.0,5.7,0,0.00,,---,0.00,VWS V14.00,2013-07-13 08:43:00,
2013-07-13 04:44:00,65.8,0.0,30.23,NE,34,0.0,5.7,0,0.00,,---,0.00,VWS V14.00,2013-07-13 08:44:00,
2013-07-13 04:45:00,65.9,0.0,30.24,ENE,76,0.0,5.1,0,0.00,,---,0.00,VWS V14.00,2013-07-13 08:45:00,
2013-07-13 04:46:00,65.8,0.0,30.24,ENE,76,0.0,5.1,0,0.00,,---,0.00,VWS V14.00,2013-07-13 08:46:00,
2013-07-13 04:47:00,65.9,0.0,30.24,NNE,13,3.5,5.1,0,0.00,,---,0.00,VWS V14.00,2013-07-13 08:47:00,
2013-07-13 04:48:00,65.9,0.0,30.24,NE,44,0.0,5.1,0,0.00,,---,0.00,VWS V14.00,2013-07-13 08:48:00,
2013-07-13 04:49:00,65.9,0.0,30.24,NE,44,0.0,5.1,0,0.00,,---,0.00,VWS V14.00,2013-07-13 08:49:00,
2013-07-13 04:50:00,65.9,0.0,30.24,NE,44,0.0,5.9,0,0.00,,---,0.00,VWS V14.00,2013-07-13 08:50:00,
2013-07-13 04:51:00,65.9,0.0,30.24,NE,44,0.0,5.9,0,0.00,,---,0.00,VWS V14.00,2013-07-13 08:51:00,
2013-07-13 04:52:00,65.8,0.0,30.24,NE,44,0.0,5.9,0,0.00,,---,0.00,VWS V14.00,2013-07-13 08:52:00,
2013-07-13 04:53:00,65.8,0.0,30.24,NE,34,4.9,5.9,0,0.00,,---,0.00,VWS V14.00,2013-07-13 08:53:00,
2013-07-13 04:54:00,65.9,0.0,30.24,North,6,0.0,5.9,0,0.00,,---,0.00,VWS V14.00,2013-07-13 08:54:00,
2013-07-13 04:55:00,65.9,0.0,30.24,North,6,0.0,5.9,0,0.00,,---,0.00,VWS V14.00,2013-07-13 08:55:00,
2013-07-13 04:56:00,65.9,0.0,30.24,NE,39,5.5,5.5,0,0.00,,---,0.00,VWS V14.00,2013-07-13 08:56:00,
2013-07-13 04:57:00,65.9,0.0,30.24,North,7,0.0,4.9,0,0.00,,---,0.00,VWS V14.00,2013-07-13 08:57:00,
2013-07-13 04:58:00,66.0,0.0,30.24,NE,37,4.7,4.9,0,0.00,,---,0.00,VWS V14.00,2013-07-13 08:58:00,
2013-07-13 04:59:00,65.9,0.0,30.24,NNE,27,3.1,4.9,0,0.00,,---,0.00,VWS V14.00,2013-07-13 08:59:00,
2013-07-13 05:00:00,66.0,0.0,30.24,ENE,76,0.0,4.9,0,0.00,,---,0.00,VWS V14.00,2013-07-13 09:00:00,
2013-07-13 05:01:00,65.9,0.0,30.24,ENE,76,0.0,6.2,0,0.00,,---,0.00,VWS V14.00,2013-07-13 09:01:00,
2013-07-13 05:02:00,65.9,0.0,30.24,ENE,76,0.0,6.2,0,0.00,,---,0.00,VWS V14.00,2013-07-13 09:02:00,
2013-07-13 05:03:00,65.9,0.0,30.23,NNE,17,3.4,6.2,0,0.00,,---,0.00,VWS V14.00,2013-07-13 09:03:00,
2013-07-13 05:04:00,66.0,0.0,30.24,NNE,17,0.0,6.2,0,0.00,,---,0.00,VWS V14.00,2013-07-13 09:04:00,
2013-07-13 05:05:00,65.9,0.0,30.24,North,349,1.6,6.8,0,0.00,,---,0.00,VWS V14.00,2013-07-13 09:05:00,
2013-07-13 05:06:00,66.0,0.0,30.24,ENE,70,3.2,6.8,0,0.00,,---,0.00,VWS V14.00,2013-07-13 09:06:00,
2013-07-13 05:07:00,66.0,0.0,30.24,North,0,0.0,6.8,0,0.00,,---,0.00,VWS V14.00,2013-07-13 09:07:00,
2013-07-13 05:08:00,66.1,0.0,30.24,NE,45,5.1,6.8,0,0.00,,---,0.00,VWS V14.00,2013-07-13 09:08:00,
2013-07-13 05:09:00,66.1,0.0,30.24,NNE,18,2.8,6.8,0,0.00,,---,0.00,VWS V14.00,2013-07-13 09:09:00,
2013-07-13 05:10:00,66.1,0.0,30.24,East,83,1.2,7.1,0,0.00,,---,0.00,VWS V14.00,2013-07-13 09:10:00,
2013-07-13 05:11:00,66.2,0.0,30.24,NE,34,6.2,7.1,0,0.00,,---,0.00,VWS V14.00,2013-07-13 09:11:00,
2013-07-13 05:12:00,66.1,0.0,30.24,ENE,59,6.6,7.1,0,0.00,,---,0.00,VWS V14.00,2013-07-13 09:12:00,
2013-07-13 05:13:00,66.2,0.0,30.24,ENE,60,5.0,7.1,0,0.00,,---,0.00,VWS V14.00,2013-07-13 09:13:00,
2013-07-13 05:14:00,66.3,0.0,30.24,NE,34,6.6,7.1,0,0.00,,---,0.00,VWS V14.00,2013-07-13 09:14:00,
2013-07-13 05:15:00,66.2,0.0,30.24,NE,46,5.7,7.1,0,0.00,,---,0.00,VWS V14.00,2013-07-13 09:15:00,
2013-07-13 05:16:00,66.3,0.0,30.24,NE,53,7.3,7.3,0,0.00,,---,0.00,VWS V14.00,2013-07-13 09:16:00,
2013-07-13 05:17:00,66.3,0.0,30.24,NNE,21,4.9,7.1,0,0.00,,---,0.00,VWS V14.00,2013-07-13 09:17:00,
2013-07-13 05:18:00,66.3,0.0,30.24,NNE,24,4.4,7.1,0,0.00,,---,0.00,VWS V14.00,2013-07-13 09:18:00,
2013-07-13 05:19:00,66.3,0.0,30.24,NNE,31,6.2,7.1,0,0.00,,---,0.00,VWS V14.00,2013-07-13 09:19:00,
2013-07-13 05:20:00,66.4,0.0,30.24,NE,34,5.4,8.5,0,0.00,,---,0.00,VWS V14.00,2013-07-13 09:20:00,
2013-07-13 05:21:00,66.4,0.0,30.24,ENE,58,6.8,8.5,0,0.00,,---,0.00,VWS V14.00,2013-07-13 09:21:00,
2013-07-13 05:22:00,66.4,0.0,30.24,NNE,24,4.9,8.5,0,0.00,,---,0.00,VWS V14.00,2013-07-13 09:22:00,
2013-07-13 05:23:00,66.5,0.0,30.24,NE,38,4.8,8.5,0,0.00,,---,0.00,VWS V14.00,2013-07-13 09:23:00,
2013-07-13 05:24:00,66.5,0.0,30.24,NE,37,5.6,8.5,0,0.00,,---,0.00,VWS V14.00,2013-07-13 09:24:00,
2013-07-13 05:25:00,66.5,0.0,30.24,NE,35,6.6,7.1,0,0.00,,---,0.00,VWS V14.00,2013-07-13 09:25:00,
2013-07-13 05:26:00,66.5,0.0,30.24,NNE,28,5.2,7.1,0,0.00,,---,0.00,VWS V14.00,2013-07-13 09:26:00,
2013-07-13 05:27:00,66.6,0.0,30.24,NE,35,8.3,8.3,0,0.00,,---,0.00,VWS V14.00,2013-07-13 09:27:00,
2013-07-13 05:28:00,66.6,0.0,30.24,NE,39,6.4,7.1,0,0.00,,---,0.00,VWS V14.00,2013-07-13 09:28:00,
2013-07-13 05:29:00,66.7,0.0,30.24,NE,41,6.5,7.1,0,0.00,,---,0.00,VWS V14.00,2013-07-13 09:29:00,
2013-07-13 05:30:00,66.7,0.0,30.24,NE,45,4.3,8.3,0,0.00,,---,0.00,VWS V14.00,2013-07-13 09:30:00,
2013-07-13 05:31:00,66.8,0.0,30.24,ENE,62,0.0,8.3,0,0.00,,---,0.00,VWS V14.00,2013-07-13 09:31:00,
2013-07-13 05:32:00,66.8,0.0,30.25,NNE,13,0.0,8.3,0,0.00,,---,0.00,VWS V14.00,2013-07-13 09:32:00,
2013-07-13 05:33:00,66.8,0.0,30.25,NE,46,0.0,8.3,0,0.00,,---,0.00,VWS V14.00,2013-07-13 09:33:00,
2013-07-13 05:34:00,66.8,0.0,30.25,North,359,0.0,8.3,0,0.00,,---,0.00,VWS V14.00,2013-07-13 09:34:00,
2013-07-13 05:35:00,66.7,0.0,30.25,North,359,0.0,5.3,0,0.00,,---,0.00,VWS V14.00,2013-07-13 09:35:00,
2013-07-13 05:36:00,66.8,0.0,30.25,NNE,18,4.2,5.3,0,0.00,,---,0.00,VWS V14.00,2013-07-13 09:36:00,
2013-07-13 05:37:00,66.7,0.0,30.25,NNE,31,4.2,5.3,0,0.00,,---,0.00,VWS V14.00,2013-07-13 09:37:00,
2013-07-13 05:38:00,66.7,0.0,30.25,NNE,32,7.0,7.0,0,0.00,,---,0.00,VWS V14.00,2013-07-13 09:38:00,
2013-07-13 05:39:00,66.7,0.0,30.25,NNE,21,0.0,5.3,0,0.00,,---,0.00,VWS V14.00,2013-07-13 09:39:00,
2013-07-13 05:40:00,66.7,0.0,30.25,NE,37,2.6,7.1,0,0.00,,---,0.00,VWS V14.00,2013-07-13 09:40:00,
2013-07-13 05:41:00,66.8,0.0,30.25,North,3,0.0,7.1,0,0.00,,---,0.00,VWS V14.00,2013-07-13 09:41:00,
2013-07-13 05:42:00,66.8,0.0,30.25,NNW,340,0.0,7.1,0,0.00,,---,0.00,VWS V14.00,2013-07-13 09:42:00,
2013-07-13 05:43:00,66.9,0.0,30.25,NNW,340,0.0,7.1,0,0.00,,---,0.00,VWS V14.00,2013-07-13 09:43:00,
2013-07-13 05:44:00,66.8,0.0,30.25,NE,46,4.5,7.1,0,0.00,,---,0.00,VWS V14.00,2013-07-13 09:44:00,
2013-07-13 05:45:00,66.8,0.0,30.25,NNE,31,3.2,7.7,0,0.00,,---,0.00,VWS V14.00,2013-07-13 09:45:00,
2013-07-13 05:46:00,66.9,0.0,30.25,North,359,5.1,7.7,0,0.00,,---,0.00,VWS V14.00,2013-07-13 09:46:00,
2013-07-13 05:47:00,66.9,0.0,30.25,NNE,21,5.0,7.7,0,0.00,,---,0.00,VWS V14.00,2013-07-13 09:47:00,
2013-07-13 05:48:00,67.0,0.0,30.25,East,83,4.3,7.7,0,0.00,,---,0.00,VWS V14.00,2013-07-13 09:48:00,
2013-07-13 05:49:00,67.0,0.0,30.25,NE,42,0.0,7.7,0,0.00,,---,0.00,VWS V14.00,2013-07-13 09:49:00,
2013-07-13 05:50:00,67.0,0.0,30.24,NE,44,3.2,6.0,0,0.00,,---,0.00,VWS V14.00,2013-07-13 09:50:00,
2013-07-13 05:51:00,67.0,0.0,30.25,NNE,15,3.4,6.0,0,0.00,,---,0.00,VWS V14.00,2013-07-13 09:51:00,
2013-07-13 05:52:00,67.1,0.0,30.24,NNE,18,2.9,6.0,0,0.00,,---,0.00,VWS V14.00,2013-07-13 09:52:00,
2013-07-13 05:53:00,67.1,0.0,30.24,ENE,65,3.4,6.0,0,0.00,,---,0.00,VWS V14.00,2013-07-13 09:53:00,
2013-07-13 05:54:00,67.2,0.0,30.24,NE,46,3.5,6.0,0,0.00,,---,0.00,VWS V14.00,2013-07-13 09:54:00,
2013-07-13 05:55:00,67.3,0.0,30.25,ENE,63,4.4,8.0,0,0.00,,---,0.00,VWS V14.00,2013-07-13 09:55:00,
2013-07-13 05:56:00,67.3,0.0,30.25,NE,48,3.5,8.0,0,0.00,,---,0.00,VWS V14.00,2013-07-13 09:56:00,
2013-07-13 05:57:00,67.3,0.0,30.25,NNE,14,0.0,8.0,0,0.00,,---,0.00,VWS V14.00,2013-07-13 09:57:00,
2013-07-13 05:58:00,67.3,0.0,30.25,NE,42,0.0,8.0,0,0.00,,---,0.00,VWS V14.00,2013-07-13 09:58:00,
2013-07-13 05:59:00,67.3,0.0,30.25,NE,42,0.0,8.0,0,0.00,,---,0.00,VWS V14.00,2013-07-13 09:59:00,
2013-07-13 06:00:00,67.2,0.0,30.25,NE,48,4.8,8.0,0,0.00,,---,0.00,VWS V14.00,2013-07-13 10:00:00,
2013-07-13 06:01:00,67.1,0.0,30.24,NNE,28,5.8,5.8,0,0.00,,---,0.00,VWS V14.00,2013-07-13 10:01:00,
2013-07-13 06:02:00,67.1,0.0,30.25,NNE,30,5.5,5.5,0,0.00,,---,0.00,VWS V14.00,2013-07-13 10:02:00,
2013-07-13 06:03:00,67.1,0.0,30.25,NE,46,4.3,5.3,0,0.00,,---,0.00,VWS V14.00,2013-07-13 10:03:00,
2013-07-13 06:04:00,67.2,0.0,30.24,NNE,31,0.0,5.3,0,0.00,,---,0.00,VWS V14.00,2013-07-13 10:04:00,
2013-07-13 06:05:00,67.2,0.0,30.25,NNE,31,3.4,5.3,0,0.00,,---,0.00,VWS V14.00,2013-07-13 10:05:00,
2013-07-13 06:06:00,67.2,0.0,30.25,NE,56,3.5,8.5,0,0.00,,---,0.00,VWS V14.00,2013-07-13 10:06:00,
2013-07-13 06:07:00,67.2,0.0,30.25,ENE,60,4.4,8.5,0,0.00,,---,0.00,VWS V14.00,2013-07-13 10:07:00,
2013-07-13 06:08:00,67.3,0.0,30.25,NE,42,0.0,8.5,0,0.00,,---,0.00,VWS V14.00,2013-07-13 10:08:00,
2013-07-13 06:09:00,67.3,0.0,30.25,NNE,32,5.2,8.5,0,0.00,,---,0.00,VWS V14.00,2013-07-13 10:09:00,
2013-07-13 06:10:00,67.3,0.0,30.25,NE,35,4.9,7.0,0,0.00,,---,0.00,VWS V14.00,2013-07-13 10:10:00,
2013-07-13 06:11:00,67.4,0.0,30.25,NNE,25,2.1,7.0,0,0.00,,---,0.00,VWS V14.00,2013-07-13 10:11:00,
2013-07-13 06:12:00,67.4,0.0,30.25,ENE,65,0.0,7.0,0,0.00,,---,0.00,VWS V14.00,2013-07-13 10:12:00,
2013-07-13 06:13:00,67.4,0.0,30.25,NNE,15,4.6,7.0,0,0.00,,---,0.00,VWS V14.00,2013-07-13 10:13:00,
2013-07-13 06:14:00,67.7,0.0,30.25,NNE,31,3.4,7.0,0,0.00,,---,0.00,VWS V14.00,2013-07-13 10:14:00,
2013-07-13 06:15:00,67.7,0.0,30.25,NNE,21,0.0,6.9,0,0.00,,---,0.00,VWS V14.00,2013-07-13 10:15:00,
2013-07-13 06:16:00,67.8,0.0,30.25,NNE,18,0.0,6.9,0,0.00,,---,0.00,VWS V14.00,2013-07-13 10:16:00,
2013-07-13 06:17:00,67.8,0.0,30.25,East,90,4.2,6.9,0,0.00,,---,0.00,VWS V14.00,2013-07-13 10:17:00,
2013-07-13 06:18:00,67.9,0.0,30.25,NE,51,6.2,6.9,0,0.00,,---,0.00,VWS V14.00,2013-07-13 10:18:00,
2013-07-13 06:19:00,68.0,0.0,30.25,NE,53,7.4,7.4,0,0.00,,---,0.00,VWS V14.00,2013-07-13 10:19:00,
2013-07-13 06:20:00,68.1,0.0,30.25,ENE,72,6.4,7.8,0,0.00,,---,0.00,VWS V14.00,2013-07-13 10:20:00,
2013-07-13 06:21:00,68.0,0.0,30.25,NNE,15,5.2,7.8,0,0.00,,---,0.00,VWS V14.00,2013-07-13 10:21:00,
2013-07-13 06:22:00,68.1,0.0,30.25,NE,51,5.3,7.8,0,0.00,,---,0.00,VWS V14.00,2013-07-13 10:22:00,
2013-07-13 06:23:00,68.1,0.0,30.25,NNE,18,4.8,7.8,0,0.00,,---,0.00,VWS V14.00,2013-07-13 10:23:00,
2013-07-13 06:24:00,68.1,0.0,30.25,NNE,18,5.4,7.8,0,0.00,,---,0.00,VWS V14.00,2013-07-13 10:24:00,
2013-07-13 06:25:00,68.2,0.0,30.25,NNE,18,5.2,7.1,0,0.00,,---,0.00,VWS V14.00,2013-07-13 10:25:00,
2013-07-13 06:26:00,68.3,0.0,30.25,NE,48,2.9,7.1,0,0.00,,---,0.00,VWS V14.00,2013-07-13 10:26:00,
2013-07-13 06:27:00,68.4,0.0,30.25,NE,41,3.5,7.1,0,0.00,,---,0.00,VWS V14.00,2013-07-13 10:27:00,
2013-07-13 06:28:00,68.5,0.0,30.25,NE,48,3.0,7.1,0,0.00,,---,0.00,VWS V14.00,2013-07-13 10:28:00,
2013-07-13 06:29:00,68.5,0.0,30.25,North,11,0.0,7.1,0,0.00,,---,0.00,VWS V14.00,2013-07-13 10:29:00,
2013-07-13 06:30:00,68.7,0.0,30.25,North,11,0.0,6.2,0,0.00,,---,0.00,VWS V14.00,2013-07-13 10:30:00,
2013-07-13 06:31:00,68.9,0.0,30.25,NNE,32,3.2,6.2,0,0.00,,---,0.00,VWS V14.00,2013-07-13 10:31:00,
2013-07-13 06:32:00,69.1,0.0,30.25,NE,55,0.0,6.2,0,0.00,,---,0.00,VWS V14.00,2013-07-13 10:32:00,
2013-07-13 06:33:00,69.3,0.0,30.25,NNE,32,3.2,6.2,0,0.00,,---,0.00,VWS V14.00,2013-07-13 10:33:00,
2013-07-13 06:34:00,69.3,0.0,30.25,NE,41,4.2,6.2,0,0.00,,---,0.00,VWS V14.00,2013-07-13 10:34:00,
2013-07-13 06:35:00,69.3,0.0,30.26,NE,42,6.8,7.6,0,0.00,,---,0.00,VWS V14.00,2013-07-13 10:35:00,
2013-07-13 06:36:00,69.4,0.0,30.26,NE,45,6.0,7.6,0,0.00,,---,0.00,VWS V14.00,2013-07-13 10:36:00,
2013-07-13 06:37:00,69.5,0.0,30.26,NE,46,5.2,7.6,0,0.00,,---,0.00,VWS V14.00,2013-07-13 10:37:00,
2013-07-13 06:38:00,69.4,0.0,30.26,NNE,18,6.5,7.6,0,0.00,,---,0.00,VWS V14.00,2013-07-13 10:38:00,
2013-07-13 06:39:00,69.5,0.0,30.26,NNE,18,7.0,7.6,0,0.00,,---,0.00,VWS V14.00,2013-07-13 10:39:00,
2013-07-13 06:40:00,69.5,0.0,30.26,NE,39,5.0,8.5,0,0.00,,---,0.00,VWS V14.00,2013-07-13 10:40:00,
2013-07-13 06:41:00,69.6,0.0,30.26,NE,37,5.6,8.5,0,0.00,,---,0.00,VWS V14.00,2013-07-13 10:41:00,
2013-07-13 06:42:00,69.7,0.0,30.25,NNE,14,5.5,8.5,0,0.00,,---,0.00,VWS V14.00,2013-07-13 10:42:00,
2013-07-13 06:43:00,69.9,0.0,30.26,NE,38,5.2,8.5,0,0.00,,---,0.00,VWS V14.00,2013-07-13 10:43:00,
2013-07-13 06:44:00,69.8,0.0,30.26,NNE,27,3.4,8.5,0,0.00,,---,0.00,VWS V14.00,2013-07-13 10:44:00,
2013-07-13 06:45:00,70.0,0.0,30.26,ENE,72,5.2,6.8,0,0.00,,---,0.00,VWS V14.00,2013-07-13 10:45:00,
2013-07-13 06:46:00,70.1,0.0,30.26,NNE,21,5.6,6.8,0,0.00,,---,0.00,VWS V14.00,2013-07-13 10:46:00,
2013-07-13 06:47:00,70.3,0.0,30.26,NNE,24,6.2,6.8,0,0.00,,---,0.00,VWS V14.00,2013-07-13 10:47:00,
2013-07-13 06:48:00,70.7,0.0,30.26,NE,37,5.0,6.8,0,0.00,,---,0.00,VWS V14.00,2013-07-13 10:48:00,
2013-07-13 06:49:00,70.8,0.0,30.26,NNE,22,5.5,6.8,0,0.00,,---,0.00,VWS V14.00,2013-07-13 10:49:00,
2013-07-13 06:50:00,70.8,0.0,30.26,NE,42,4.7,7.4,0,0.00,,---,0.00,VWS V14.00,2013-07-13 10:50:00,
2013-07-13 06:51:00,71.1,0.0,30.26,NNE,24,3.0,7.4,0,0.00,,---,0.00,VWS V14.00,2013-07-13 10:51:00,
2013-07-13 06:52:00,71.3,0.0,30.26,NE,49,2.7,7.4,0,0.00,,---,0.00,VWS V14.00,2013-07-13 10:52:00,
2013-07-13 06:53:00,71.3,0.0,30.26,ENE,77,0.0,7.4,0,0.00,,---,0.00,VWS V14.00,2013-07-13 10:53:00,
2013-07-13 06:54:00,71.8,0.0,30.26,ENE,60,5.9,7.4,0,0.00,,---,0.00,VWS V14.00,2013-07-13 10:54:00,
2013-07-13 06:55:00,71.8,0.0,30.26,East,94,4.3,5.9,0,0.00,,---,0.00,VWS V14.00,2013-07-13 10:55:00,
2013-07-13 06:56:00,71.9,0.0,30.26,NE,49,0.0,5.9,0,0.00,,---,0.00,VWS V14.00,2013-07-13 10:56:00,
2013-07-13 06:57:00,71.5,0.0,30.26,ENE,76,0.0,5.9,0,0.00,,---,0.00,VWS V14.00,2013-07-13 10:57:00,
2013-07-13 06:58:00,71.5,0.0,30.26,ENE,76,0.0,5.9,0,0.00,,---,0.00,VWS V14.00,2013-07-13 10:58:00,
2013-07-13 06:59:00,71.7,0.0,30.26,North,359,4.5,5.9,0,0.00,,---,0.00,VWS V14.00,2013-07-13 10:59:00,
2013-07-13 07:00:00,71.8,0.0,30.26,North,359,4.5,5.2,0,0.00,,---,0.00,VWS V14.00,2013-07-13 11:00:00,
2013-07-13 07:01:00,71.7,0.0,30.26,North,11,0.0,5.2,0,0.00,,---,0.00,VWS V14.00,2013-07-13 11:01:00,
2013-07-13 07:02:00,71.4,0.0,30.26,North,11,0.0,5.2,0,0.00,,---,0.00,VWS V14.00,2013-07-13 11:02:00,
2013-07-13 07:03:00,71.2,0.0,30.26,NNE,31,3.4,5.2,0,0.00,,---,0.00,VWS V14.00,2013-07-13 11:03:00,
2013-07-13 07:04:00,71.4,0.0,30.26,NNE,27,4.2,5.2,0,0.00,,---,0.00,VWS V14.00,2013-07-13 11:04:00,
2013-07-13 07:05:00,71.3,0.0,30.26,NNE,18,3.5,5.2,0,0.00,,---,0.00,VWS V14.00,2013-07-13 11:05:00,
2013-07-13 07:06:00,71.4,0.0,30.26,NE,34,4.8,7.6,0,0.00,,---,0.00,VWS V14.00,2013-07-13 11:06:00,
2013-07-13 07:07:00,71.5,0.0,30.26,NE,39,6.2,7.6,0,0.00,,---,0.00,VWS V14.00,2013-07-13 11:07:00,
2013-07-13 07:08:00,71.5,0.0,30.26,NE,45,6.7,7.6,0,0.00,,---,0.00,VWS V14.00,2013-07-13 11:08:00,
2013-07-13 07:09:00,71.7,0.0,30.26,North,11,2.9,7.6,0,0.00,,---,0.00,VWS V14.00,2013-07-13 11:09:00,
2013-07-13 07:10:00,71.8,0.0,30.26,NE,35,7.4,8.0,0,0.00,,---,0.00,VWS V14.00,2013-07-13 11:10:00,
2013-07-13 07:11:00,72.0,0.0,30.26,ENE,60,7.0,8.0,0,0.00,,---,0.00,VWS V14.00,2013-07-13 11:11:00,
2013-07-13 07:12:00,72.1,0.0,30.26,ENE,76,5.8,8.0,0,0.00,,---,0.00,VWS V14.00,2013-07-13 11:12:00,
2013-07-13 07:13:00,72.1,0.0,30.27,NE,37,6.4,8.0,0,0.00,,---,0.00,VWS V14.00,2013-07-13 11:13:00,
2013-07-13 07:14:00,72.0,0.0,30.27,NE,41,4.5,8.0,0,0.00,,---,0.00,VWS V14.00,2013-07-13 11:14:00,
2013-07-13 07:15:00,72.0,0.0,30.27,ENE,70,4.7,8.2,0,0.00,,---,0.00,VWS V14.00,2013-07-13 11:15:00,
2013-07-13 07:16:00,72.2,0.0,30.26,NE,55,4.5,8.2,0,0.00,,---,0.00,VWS V14.00,2013-07-13 11:16:00,
2013-07-13 07:17:00,72.3,0.0,30.27,NE,46,6.7,8.2,0,0.00,,---,0.00,VWS V14.00,2013-07-13 11:17:00,
2013-07-13 07:18:00,72.5,0.0,30.27,North,359,4.6,8.2,0,0.00,,---,0.00,VWS V14.00,2013-07-13 11:18:00,
2013-07-13 07:19:00,72.3,0.0,30.27,NE,42,7.0,8.2,0,0.00,,---,0.00,VWS V14.00,2013-07-13 11:19:00,
2013-07-13 07:20:00,72.4,0.0,30.27,ENE,59,3.5,8.5,0,0.00,,---,0.00,VWS V14.00,2013-07-13 11:20:00,
2013-07-13 07:21:00,72.2,0.0,30.27,NE,37,5.4,8.5,0,0.00,,---,0.00,VWS V14.00,2013-07-13 11:21:00,
2013-07-13 07:22:00,72.2,0.0,30.27,NNW,339,3.5,8.5,0,0.00,,---,0.00,VWS V14.00,2013-07-13 11:22:00,
2013-07-13 07:23:00,71.9,0.0,30.27,NNE,30,5.1,8.5,0,0.00,,---,0.00,VWS V14.00,2013-07-13 11:23:00,
2013-07-13 07:24:00,71.8,0.0,30.27,NNE,17,4.7,8.5,0,0.00,,---,0.00,VWS V14.00,2013-07-13 11:24:00,
2013-07-13 07:25:00,71.6,0.0,30.27,NE,39,7.0,8.1,0,0.00,,---,0.00,VWS V14.00,2013-07-13 11:25:00,
2013-07-13 07:26:00,71.5,0.0,30.27,North,11,3.4,8.1,0,0.00,,---,0.00,VWS V14.00,2013-07-13 11:26:00,
2013-07-13 07:27:00,71.2,0.0,30.27,ENE,60,7.2,8.1,0,0.00,,---,0.00,VWS V14.00,2013-07-13 11:27:00,
2013-07-13 07:28:00,71.4,0.0,30.27,NNE,28,5.8,8.1,0,0.00,,---,0.00,VWS V14.00,2013-07-13 11:28:00,
2013-07-13 07:29:00,71.3,0.0,30.27,North,359,6.1,8.1,0,0.00,,---,0.00,VWS V14.00,2013-07-13 11:29:00,
2013-07-13 07:30:00,71.5,0.0,30.27,ENE,76,5.7,8.1,0,0.00,,---,0.00,VWS V14.00,2013-07-13 11:30:00,
2013-07-13 07:31:00,71.7,0.0,30.27,NNE,32,5.6,8.1,0,0.00,,---,0.00,VWS V14.00,2013-07-13 11:31:00,
2013-07-13 07:32:00,71.9,0.0,30.27,NNE,28,6.1,8.1,0,0.00,,---,0.00,VWS V14.00,2013-07-13 11:32:00,
2013-07-13 07:33:00,72.0,0.0,30.27,NE,44,6.6,8.1,0,0.00,,---,0.00,VWS V14.00,2013-07-13 11:33:00,
2013-07-13 07:34:00,72.0,0.0,30.27,NE,46,7.1,8.1,0,0.00,,---,0.00,VWS V14.00,2013-07-13 11:34:00,
2013-07-13 07:35:00,72.0,0.0,30.27,NE,44,5.2,9.1,0,0.00,,---,0.00,VWS V14.00,2013-07-13 11:35:00,
2013-07-13 07:36:00,72.0,0.0,30.27,NE,49,8.1,9.1,0,0.00,,---,0.00,VWS V14.00,2013-07-13 11:36:00,
2013-07-13 07:37:00,71.9,0.0,30.27,NE,52,6.3,9.1,0,0.00,,---,0.00,VWS V14.00,2013-07-13 11:37:00,
2013-07-13 07:38:00,71.9,0.0,30.27,NE,37,6.3,9.1,0,0.00,,---,0.00,VWS V14.00,2013-07-13 11:38:00,
2013-07-13 07:39:00,71.9,0.0,30.27,NE,45,6.0,9.1,0,0.00,,---,0.00,VWS V14.00,2013-07-13 11:39:00,
2013-07-13 07:40:00,71.8,0.0,30.27,NNE,25,7.5,9.8,0,0.00,,---,0.00,VWS V14.00,2013-07-13 11:40:00,
2013-07-13 07:41:00,71.8,0.0,30.27,NE,55,3.2,9.8,0,0.00,,---,0.00,VWS V14.00,2013-07-13 11:41:00,
2013-07-13 07:42:00,72.1,0.0,30.27,NE,51,4.6,9.8,0,0.00,,---,0.00,VWS V14.00,2013-07-13 11:42:00,
2013-07-13 07:43:00,72.5,0.0,30.27,NNE,28,3.2,9.8,0,0.00,,---,0.00,VWS V14.00,2013-07-13 11:43:00,
2013-07-13 07:44:00,72.8,0.0,30.27,North,359,3.2,9.8,0,0.00,,---,0.00,VWS V14.00,2013-07-13 11:44:00,
2013-07-13 07:45:00,73.1,0.0,30.27,NE,49,5.2,8.4,0,0.00,,---,0.00,VWS V14.00,2013-07-13 11:45:00,
2013-07-13 07:46:00,73.2,0.0,30.27,NNE,31,5.5,8.4,0,0.00,,---,0.00,VWS V14.00,2013-07-13 11:46:00,
2013-07-13 07:47:00,73.2,0.0,30.27,ENE,62,6.5,8.4,0,0.00,,---,0.00,VWS V14.00,2013-07-13 11:47:00,
2013-07-13 07:48:00,73.4,0.0,30.27,NE,51,5.3,8.4,0,0.00,,---,0.00,VWS V14.00,2013-07-13 11:48:00,
2013-07-13 07:49:00,73.8,0.0,30.27,NNE,30,4.9,8.4,0,0.00,,---,0.00,VWS V14.00,2013-07-13 11:49:00,
2013-07-13 07:50:00,73.6,0.0,30.27,NE,56,5.7,7.8,0,0.00,,---,0.00,VWS V14.00,2013-07-13 11:50:00,
2013-07-13 07:51:00,74.1,0.0,30.27,NNE,21,3.5,7.8,0,0.00,,---,0.00,VWS V14.00,2013-07-13 11:51:00,
2013-07-13 07:52:00,74.1,0.0,30.27,NE,49,4.4,7.8,0,0.00,,---,0.00,VWS V14.00,2013-07-13 11:52:00,
2013-07-13 07:53:00,74.4,0.0,30.28,NE,45,6.6,7.8,0,0.00,,---,0.00,VWS V14.00,2013-07-13 11:53:00,
2013-07-13 07:54:00,74.8,0.0,30.28,East,94,3.2,7.8,0,0.00,,---,0.00,VWS V14.00,2013-07-13 11:54:00,
2013-07-13 07:55:00,74.8,0.0,30.28,East,82,4.9,7.8,0,0.00,,---,0.00,VWS V14.00,2013-07-13 11:55:00,
2013-07-13 07:56:00,74.7,0.0,30.28,NNE,18,0.0,7.8,0,0.00,,---,0.00,VWS V14.00,2013-07-13 11:56:00,
2013-07-13 07:57:00,74.7,0.0,30.28,ENE,62,0.0,7.8,0,0.00,,---,0.00,VWS V14.00,2013-07-13 11:57:00,
2013-07-13 07:58:00,74.7,0.0,30.28,ESE,117,4.2,7.8,0,0.00,,---,0.00,VWS V14.00,2013-07-13 11:58:00,
2013-07-13 07:59:00,74.1,0.0,30.28,ENE,58,4.8,7.8,0,0.00,,---,0.00,VWS V14.00,2013-07-13 11:59:00,
2013-07-13 08:00:00,73.7,0.0,30.28,ENE,63,4.3,7.3,0,0.00,,---,0.00,VWS V14.00,2013-07-13 12:00:00,
2013-07-13 08:01:00,73.3,0.0,30.28,NE,35,0.0,7.3,0,0.00,,---,0.00,VWS V14.00,2013-07-13 12:01:00,
2013-07-13 08:02:00,72.7,0.0,30.28,NNE,31,2.9,7.3,0,0.00,,---,0.00,VWS V14.00,2013-07-13 12:02:00,
2013-07-13 08:03:00,72.3,0.0,30.28,NE,45,4.4,7.3,0,0.00,,---,0.00,VWS V14.00,2013-07-13 12:03:00,
2013-07-13 08:04:00,72.7,0.0,30.28,NE,42,0.0,7.3,0,0.00,,---,0.00,VWS V14.00,2013-07-13 12:04:00,
2013-07-13 08:05:00,73.1,0.0,30.28,NE,37,5.8,7.6,0,0.00,,---,0.00,VWS V14.00,2013-07-13 12:05:00,
2013-07-13 08:06:00,73.3,0.0,30.28,ENE,58,5.7,7.6,0,0.00,,---,0.00,VWS V14.00,2013-07-13 12:06:00,
2013-07-13 08:07:00,73.2,0.0,30.28,ENE,59,5.6,7.6,0,0.00,,---,0.00,VWS V14.00,2013-07-13 12:07:00,
2013-07-13 08:08:00,72.8,0.0,30.28,ENE,68,2.7,7.6,0,0.00,,---,0.00,VWS V14.00,2013-07-13 12:08:00,
2013-07-13 08:09:00,72.8,0.0,30.28,ENE,73,5.0,7.6,0,0.00,,---,0.00,VWS V14.00,2013-07-13 12:09:00,
2013-07-13 08:10:00,72.7,0.0,30.28,ESE,107,3.4,7.6,0,0.00,,---,0.00,VWS V14.00,2013-07-13 12:10:00,
2013-07-13 08:11:00,72.7,0.0,30.28,NE,56,0.0,6.8,0,0.00,,---,0.00,VWS V14.00,2013-07-13 12:11:00,
2013-07-13 08:12:00,72.8,0.0,30.28,NE,48,0.0,6.8,0,0.00,,---,0.00,VWS V14.00,2013-07-13 12:12:00,
2013-07-13 08:13:00,72.9,0.0,30.28,ENE,68,4.9,6.8,0,0.00,,---,0.00,VWS V14.00,2013-07-13 12:13:00,
2013-07-13 08:14:00,72.9,0.0,30.28,ESE,108,0.0,6.8,0,0.00,,---,0.00,VWS V14.00,2013-07-13 12:14:00,
2013-07-13 08:15:00,72.5,0.0,30.28,ENE,70,3.2,6.6,0,0.00,,---,0.00,VWS V14.00,2013-07-13 12:15:00,
2013-07-13 08:16:00,72.4,0.0,30.28,ESE,121,0.0,6.6,0,0.00,,---,0.00,VWS V14.00,2013-07-13 12:16:00,
2013-07-13 08:17:00,72.5,0.0,30.28,East,98,2.2,6.6,0,0.00,,---,0.00,VWS V14.00,2013-07-13 12:17:00,
2013-07-13 08:18:00,72.6,0.0,30.28,East,94,5.5,6.6,0,0.00,,---,0.00,VWS V14.00,2013-07-13 12:18:00,
2013-07-13 08:19:00,72.4,0.0,30.28,East,79,0.0,6.6,0,0.00,,---,0.00,VWS V14.00,2013-07-13 12:19:00,
2013-07-13 08:20:00,72.4,0.0,30.28,ENE,70,3.1,7.2,0,0.00,,---,0.00,VWS V14.00,2013-07-13 12:20:00,
2013-07-13 08:21:00,72.5,0.0,30.28,NE,48,5.5,7.2,0,0.00,,---,0.00,VWS V14.00,2013-07-13 12:21:00,
2013-07-13 08:22:00,72.3,0.0,30.28,NE,38,4.7,7.2,0,0.00,,---,0.00,VWS V14.00,2013-07-13 12:22:00,
2013-07-13 08:23:00,72.1,0.0,30.28,NE,45,3.4,7.2,0,0.00,,---,0.00,VWS V14.00,2013-07-13 12:23:00,
2013-07-13 08:24:00,72.1,0.0,30.28,NNE,17,2.7,7.2,0,0.00,,---,0.00,VWS V14.00,2013-07-13 12:24:00,
2013-07-13 08:25:00,72.1,0.0,30.28,NNE,17,0.0,6.3,0,0.00,,---,0.00,VWS V14.00,2013-07-13 12:25:00,
2013-07-13 08:26:00,72.1,0.0,30.28,NNE,17,0.0,6.3,0,0.00,,---,0.00,VWS V14.00,2013-07-13 12:26:00,
2013-07-13 08:27:00,72.1,0.0,30.28,East,82,5.0,6.3,0,0.00,,---,0.00,VWS V14.00,2013-07-13 12:27:00,
2013-07-13 08:28:00,72.2,0.0,30.28,ENE,70,4.6,6.3,0,0.00,,---,0.00,VWS V14.00,2013-07-13 12:28:00,
2013-07-13 08:29:00,71.9,0.0,30.28,NE,34,3.0,6.3,0,0.00,,---,0.00,VWS V14.00,2013-07-13 12:29:00,
2013-07-13 08:30:00,72.1,0.0,30.28,NE,49,5.3,7.3,0,0.00,,---,0.00,VWS V14.00,2013-07-13 12:30:00,
2013-07-13 08:31:00,72.0,0.0,30.28,ENE,60,5.6,7.3,0,0.00,,---,0.00,VWS V14.00,2013-07-13 12:31:00,
2013-07-13 08:32:00,71.8,0.0,30.28,ENE,73,4.3,7.3,0,0.00,,---,0.00,VWS V14.00,2013-07-13 12:32:00,
2013-07-13 08:33:00,71.7,0.0,30.28,ENE,73,0.0,7.3,0,0.00,,---,0.00,VWS V14.00,2013-07-13 12:33:00,
2013-07-13 08:34:00,72.0,0.0,30.28,East,101,3.3,7.3,0,0.00,,---,0.00,VWS V14.00,2013-07-13 12:34:00,
2013-07-13 08:35:00,72.2,0.0,30.28,NNE,30,0.0,7.3,0,0.00,,---,0.00,VWS V14.00,2013-07-13 12:35:00,
2013-07-13 08:36:00,72.2,0.0,30.28,NNE,20,4.3,7.3,0,0.00,,---,0.00,VWS V14.00,2013-07-13 12:36:00,
2013-07-13 08:37:00,72.4,0.0,30.28,ENE,66,5.0,7.3,0,0.00,,---,0.00,VWS V14.00,2013-07-13 12:37:00,
2013-07-13 08:38:00,72.3,0.0,30.28,ENE,73,4.2,7.3,0,0.00,,---,0.00,VWS V14.00,2013-07-13 12:38:00,
2013-07-13 08:39:00,72.3,0.0,30.28,NE,55,6.1,7.3,0,0.00,,---,0.00,VWS V14.00,2013-07-13 12:39:00,
2013-07-13 08:40:00,72.5,0.0,30.28,ESE,111,3.3,7.6,0,0.00,,---,0.00,VWS V14.00,2013-07-13 12:40:00,
2013-07-13 08:41:00,72.6,0.0,30.28,ESE,112,2.5,7.6,0,0.00,,---,0.00,VWS V14.00,2013-07-13 12:41:00,
2013-07-13 08:42:00,72.9,0.0,30.28,ENE,58,4.7,7.6,0,0.00,,---,0.00,VWS V14.00,2013-07-13 12:42:00,
2013-07-13 08:43:00,72.6,0.0,30.28,NE,52,6.8,7.6,0,0.00,,---,0.00,VWS V14.00,2013-07-13 12:43:00,
2013-07-13 08:44:00,72.6,0.0,30.28,East,90,5.1,7.6,0,0.00,,---,0.00,VWS V14.00,2013-07-13 12:44:00,
2013-07-13 08:45:00,72.6,0.0,30.28,NE,51,7.3,8.8,0,0.00,,---,0.00,VWS V14.00,2013-07-13 12:45:00,
2013-07-13 08:46:00,72.6,0.0,30.28,NE,34,6.7,8.8,0,0.00,,---,0.00,VWS V14.00,2013-07-13 12:46:00,
2013-07-13 08:47:00,72.5,0.0,30.28,NE,41,3.2,8.8,0,0.00,,---,0.00,VWS V14.00,2013-07-13 12:47:00,
2013-07-13 08:48:00,72.5,0.0,30.28,ENE,70,5.8,8.8,0,0.00,,---,0.00,VWS V14.00,2013-07-13 12:48:00,
2013-07-13 08:49:00,72.7,0.0,30.28,NE,52,7.0,8.8,0,0.00,,---,0.00,VWS V14.00,2013-07-13 12:49:00,
2013-07-13 08:50:00,72.6,0.0,30.28,ESE,114,0.0,8.0,0,0.00,,---,0.00,VWS V14.00,2013-07-13 12:50:00,
2013-07-13 08:51:00,72.6,0.0,30.28,NE,44,5.4,8.0,0,0.00,,---,0.00,VWS V14.00,2013-07-13 12:51:00,
2013-07-13 08:52:00,72.7,0.0,30.28,NE,52,7.3,8.0,0,0.00,,---,0.00,VWS V14.00,2013-07-13 12:52:00,
2013-07-13 08:53:00,72.8,0.0,30.28,NE,49,7.0,8.0,0,0.00,,---,0.00,VWS V14.00,2013-07-13 12:53:00,
2013-07-13 08:54:00,72.7,0.0,30.28,ENE,63,4.2,8.0,0,0.00,,---,0.00,VWS V14.00,2013-07-13 12:54:00,
2013-07-13 08:55:00,72.4,0.0,30.28,NE,44,6.1,7.8,0,0.00,,---,0.00,VWS V14.00,2013-07-13 12:55:00,
2013-07-13 08:56:00,72.2,0.0,30.28,East,79,4.7,7.8,0,0.00,,---,0.00,VWS V14.00,2013-07-13 12:56:00,
2013-07-13 08:57:00,72.5,0.0,30.28,East,84,4.8,7.8,0,0.00,,---,0.00,VWS V14.00,2013-07-13 12:57:00,
2013-07-13 08:58:00,72.8,0.0,30.28,East,82,7.8,7.8,0,0.00,,---,0.00,VWS V14.00,2013-07-13 12:58:00,
2013-07-13 08:59:00,72.4,0.0,30.28,ENE,75,3.4,7.8,0,0.00,,---,0.00,VWS V14.00,2013-07-13 12:59:00,
2013-07-13 09:00:00,71.8,0.0,30.28,East,89,3.4,7.9,0,0.00,,---,0.00,VWS V14.00,2013-07-13 13:00:00,
2013-07-13 09:01:00,71.7,0.0,30.28,NE,51,0.0,7.9,0,0.00,,---,0.00,VWS V14.00,2013-07-13 13:01:00,
2013-07-13 09:02:00,71.8,0.0,30.29,NE,48,6.3,7.9,0,0.00,,---,0.00,VWS V14.00,2013-07-13 13:02:00,
2013-07-13 09:03:00,71.9,0.0,30.29,North,6,5.9,7.9,0,0.00,,---,0.00,VWS V14.00,2013-07-13 13:03:00,
2013-07-13 09:04:00,71.8,0.0,30.29,NNE,22,5.6,7.9,0,0.00,,---,0.00,VWS V14.00,2013-07-13 13:04:00,
2013-07-13 09:05:00,71.7,0.0,30.29,NNE,27,6.8,8.0,0,0.00,,---,0.00,VWS V14.00,2013-07-13 13:05:00,
2013-07-13 09:06:00,71.7,0.0,30.29,NE,35,3.3,8.0,0,0.00,,---,0.00,VWS V14.00,2013-07-13 13:06:00,
2013-07-13 09:07:00,71.9,0.0,30.29,NE,39,5.0,8.0,0,0.00,,---,0.00,VWS V14.00,2013-07-13 13:07:00,
2013-07-13 09:08:00,71.8,0.0,30.29,NE,37,6.6,8.0,0,0.00,,---,0.00,VWS V14.00,2013-07-13 13:08:00,
2013-07-13 09:09:00,71.9,0.0,30.28,NE,46,6.4,8.0,0,0.00,,---,0.00,VWS V14.00,2013-07-13 13:09:00,
2013-07-13 09:10:00,71.9,0.0,30.28,NNE,31,7.3,8.0,0,0.00,,---,0.00,VWS V14.00,2013-07-13 13:10:00,
2013-07-13 09:11:00,71.9,0.0,30.28,North,7,4.2,8.1,0,0.00,,---,0.00,VWS V14.00,2013-07-13 13:11:00,
2013-07-13 09:12:00,71.9,0.0,30.28,NE,48,6.8,8.1,0,0.00,,---,0.00,VWS V14.00,2013-07-13 13:12:00,
2013-07-13 09:13:00,71.9,0.0,30.28,ENE,70,8.6,8.6,0,0.00,,---,0.00,VWS V14.00,2013-07-13 13:13:00,
2013-07-13 09:14:00,71.8,0.0,30.28,ENE,58,6.1,8.1,0,0.00,,---,0.00,VWS V14.00,2013-07-13 13:14:00,
2013-07-13 09:15:00,71.8,0.0,30.28,NNE,27,3.1,8.1,0,0.00,,---,0.00,VWS V14.00,2013-07-13 13:15:00,
2013-07-13 09:16:00,72.0,0.0,30.28,ENE,77,4.2,8.8,0,0.00,,---,0.00,VWS V14.00,2013-07-13 13:16:00,
2013-07-13 09:17:00,72.5,0.0,30.28,NE,55,6.5,8.8,0,0.00,,---,0.00,VWS V14.00,2013-07-13 13:17:00,
2013-07-13 09:18:00,72.5,0.0,30.28,NNE,31,4.3,8.8,0,0.00,,---,0.00,VWS V14.00,2013-07-13 13:18:00,
2013-07-13 09:19:00,72.7,0.0,30.28,NE,49,4.7,8.8,0,0.00,,---,0.00,VWS V14.00,2013-07-13 13:19:00,
2013-07-13 09:20:00,72.8,0.0,30.28,NE,48,6.2,7.6,0,0.00,,---,0.00,VWS V14.00,2013-07-13 13:20:00,
2013-07-13 09:21:00,72.4,0.0,30.29,ENE,66,3.4,7.6,0,0.00,,---,0.00,VWS V14.00,2013-07-13 13:21:00,
2013-07-13 09:22:00,72.6,0.0,30.29,ENE,62,5.7,7.6,0,0.00,,---,0.00,VWS V14.00,2013-07-13 13:22:00,
2013-07-13 09:23:00,72.6,0.0,30.29,North,3,3.5,7.6,0,0.00,,---,0.00,VWS V14.00,2013-07-13 13:23:00,
2013-07-13 09:24:00,72.6,0.0,30.29,North,359,2.9,7.6,0,0.00,,---,0.00,VWS V14.00,2013-07-13 13:24:00,
2013-07-13 09:25:00,73.3,0.0,30.29,NE,52,0.0,7.8,0,0.00,,---,0.00,VWS V14.00,2013-07-13 13:25:00,
2013-07-13 09:26:00,73.6,0.0,30.29,NE,52,0.0,7.8,0,0.00,,---,0.00,VWS V14.00,2013-07-13 13:26:00,
2013-07-13 09:27:00,74.4,0.0,30.29,ENE,76,6.3,7.8,0,0.00,,---,0.00,VWS V14.00,2013-07-13 13:27:00,
2013-07-13 09:28:00,74.8,0.0,30.29,ENE,68,0.0,7.8,0,0.00,,---,0.00,VWS V14.00,2013-07-13 13:28:00,
2013-07-13 09:29:00,75.0,0.0,30.29,ENE,63,6.2,7.8,0,0.00,,---,0.00,VWS V14.00,2013-07-13 13:29:00,
2013-07-13 09:30:00,75.0,0.0,30.29,ESE,103,4.8,7.5,0,0.00,,---,0.00,VWS V14.00,2013-07-13 13:30:00,
2013-07-13 09:31:00,75.0,0.0,30.29,NE,42,4.6,7.5,0,0.00,,---,0.00,VWS V14.00,2013-07-13 13:31:00,
2013-07-13 09:32:00,74.9,0.0,30.29,NNE,28,0.0,7.5,0,0.00,,---,0.00,VWS V14.00,2013-07-13 13:32:00,
2013-07-13 09:33:00,75.1,0.0,30.29,NE,41,4.7,7.5,0,0.00,,---,0.00,VWS V14.00,2013-07-13 13:33:00,
2013-07-13 09:34:00,75.4,0.0,30.29,NE,38,4.8,7.5,0,0.00,,---,0.00,VWS V14.00,2013-07-13 13:34:00,
2013-07-13 09:35:00,75.1,0.0,30.29,North,359,0.0,6.8,0,0.00,,---,0.00,VWS V14.00,2013-07-13 13:35:00,
2013-07-13 09:36:00,74.7,0.0,30.29,ENE,68,3.5,6.8,0,0.00,,---,0.00,VWS V14.00,2013-07-13 13:36:00,
2013-07-13 09:37:00,74.9,0.0,30.29,ENE,68,0.0,6.8,0,0.00,,---,0.00,VWS V14.00,2013-07-13 13:37:00,
2013-07-13 09:38:00,75.6,0.0,30.28,NE,41,7.0,7.0,0,0.00,,---,0.00,VWS V14.00,2013-07-13 13:38:00,
2013-07-13 09:39:00,76.1,0.0,30.28,ENE,69,5.1,6.8,0,0.00,,---,0.00,VWS V14.00,2013-07-13 13:39:00,
2013-07-13 09:40:00,76.4,0.0,30.28,NNE,22,0.0,7.5,0,0.00,,---,0.00,VWS V14.00,2013-07-13 13:40:00,
2013-07-13 09:41:00,76.8,0.0,30.28,NNE,22,0.0,7.5,0,0.00,,---,0.00,VWS V14.00,2013-07-13 13:41:00,
2013-07-13 09:42:00,76.5,0.0,30.28,ENE,60,5.4,7.5,0,0.00,,---,0.00,VWS V14.00,2013-07-13 13:42:00,
2013-07-13 09:43:00,76.1,0.0,30.28,NE,35,6.8,7.5,0,0.00,,---,0.00,VWS V14.00,2013-07-13 13:43:00,
2013-07-13 09:44:00,75.4,0.0,30.28,ENE,59,3.5,7.5,0,0.00,,---,0.00,VWS V14.00,2013-07-13 13:44:00,
2013-07-13 09:45:00,75.6,0.0,30.28,NE,55,6.9,8.0,0,0.00,,---,0.00,VWS V14.00,2013-07-13 13:45:00,
2013-07-13 09:46:00,75.9,0.0,30.28,East,94,4.1,8.0,0,0.00,,---,0.00,VWS V14.00,2013-07-13 13:46:00,
2013-07-13 09:47:00,75.6,0.0,30.28,ENE,72,4.3,8.0,0,0.00,,---,0.00,VWS V14.00,2013-07-13 13:47:00,
2013-07-13 09:48:00,75.1,0.0,30.28,East,100,5.5,8.0,0,0.00,,---,0.00,VWS V14.00,2013-07-13 13:48:00,
2013-07-13 09:49:00,75.2,0.0,30.28,ENE,59,4.7,8.0,0,0.00,,---,0.00,VWS V14.00,2013-07-13 13:49:00,
2013-07-13 09:50:00,74.4,0.0,30.28,ENE,68,0.0,7.4,0,0.00,,---,0.00,VWS V14.00,2013-07-13 13:50:00,
2013-07-13 09:51:00,74.7,0.0,30.29,ENE,73,6.5,7.4,0,0.00,,---,0.00,VWS V14.00,2013-07-13 13:51:00,
2013-07-13 09:52:00,75.0,0.0,30.29,NNE,17,4.8,7.4,0,0.00,,---,0.00,VWS V14.00,2013-07-13 13:52:00,
2013-07-13 09:53:00,75.0,0.0,30.29,NE,45,5.5,7.4,0,0.00,,---,0.00,VWS V14.00,2013-07-13 13:53:00,
2013-07-13 09:54:00,75.2,0.0,30.29,NNE,22,5.3,7.4,0,0.00,,---,0.00,VWS V14.00,2013-07-13 13:54:00,
2013-07-13 09:55:00,74.8,0.0,30.29,NNE,14,0.0,8.6,0,0.00,,---,0.00,VWS V14.00,2013-07-13 13:55:00,
2013-07-13 09:56:00,74.7,0.0,30.29,NNE,21,3.3,8.6,0,0.00,,---,0.00,VWS V14.00,2013-07-13 13:56:00,
2013-07-13 09:57:00,74.3,0.0,30.29,NE,49,0.0,8.6,0,0.00,,---,0.00,VWS V14.00,2013-07-13 13:57:00,
2013-07-13 09:58:00,74.0,0.0,30.29,NE,49,0.0,8.6,0,0.00,,---,0.00,VWS V14.00,2013-07-13 13:58:00,
2013-07-13 09:59:00,73.8,0.0,30.29,NE,49,0.0,8.6,0,0.00,,---,0.00,VWS V14.00,2013-07-13 13:59:00,
2013-07-13 10:00:00,73.7,0.0,30.29,NNE,32,6.3,6.4,0,0.00,,---,0.00,VWS V14.00,2013-07-13 14:00:00,
2013-07-13 10:01:00,73.7,0.0,30.29,NNE,15,2.7,6.4,0,0.00,,---,0.00,VWS V14.00,2013-07-13 14:01:00,
2013-07-13 10:02:00,73.6,0.0,30.29,East,79,3.2,6.4,0,0.00,,---,0.00,VWS V14.00,2013-07-13 14:02:00,
2013-07-13 10:03:00,73.9,0.0,30.29,NE,39,0.0,6.4,0,0.00,,---,0.00,VWS V14.00,2013-07-13 14:03:00,
2013-07-13 10:04:00,74.0,0.0,30.29,NE,39,0.0,6.4,0,0.00,,---,0.00,VWS V14.00,2013-07-13 14:04:00,
2013-07-13 10:05:00,74.0,0.0,30.30,NE,45,5.5,6.6,0,0.00,,---,0.00,VWS V14.00,2013-07-13 14:05:00,
2013-07-13 10:06:00,73.8,0.0,30.29,NNE,28,0.0,6.6,0,0.00,,---,0.00,VWS V14.00,2013-07-13 14:06:00,
2013-07-13 10:07:00,73.7,0.0,30.30,ENE,72,4.6,6.6,0,0.00,,---,0.00,VWS V14.00,2013-07-13 14:07:00,
2013-07-13 10:08:00,74.2,0.0,30.30,ENE,75,4.4,6.6,0,0.00,,---,0.00,VWS V14.00,2013-07-13 14:08:00,
2013-07-13 10:09:00,74.2,0.0,30.30,NE,46,3.2,6.6,0,0.00,,---,0.00,VWS V14.00,2013-07-13 14:09:00,
2013-07-13 10:10:00,74.0,0.0,30.30,NNE,27,2.3,6.2,0,0.00,,---,0.00,VWS V14.00,2013-07-13 14:10:00,
2013-07-13 10:11:00,74.1,0.0,30.30,NNE,31,0.0,6.2,0,0.00,,---,0.00,VWS V14.00,2013-07-13 14:11:00,
2013-07-13 10:12:00,74.0,0.0,30.30,NNE,31,0.0,6.2,0,0.00,,---,0.00,VWS V14.00,2013-07-13 14:12:00,
2013-07-13 10:13:00,74.4,0.0,30.30,East,100,3.2,6.2,0,0.00,,---,0.00,VWS V14.00,2013-07-13 14:13:00,
2013-07-13 10:14:00,74.2,0.0,30.30,NE,49,5.2,6.2,0,0.00,,---,0.00,VWS V14.00,2013-07-13 14:14:00,
2013-07-13 10:15:00,73.9,0.0,30.30,NE,38,4.4,6.2,0,0.00,,---,0.00,VWS V14.00,2013-07-13 14:15:00,
2013-07-13 10:16:00,73.8,0.0,30.30,ENE,77,7.3,7.3,0,0.00,,---,0.00,VWS V14.00,2013-07-13 14:16:00,
2013-07-13 10:17:00,73.6,0.0,30.30,NNE,27,5.0,6.0,0,0.00,,---,0.00,VWS V14.00,2013-07-13 14:17:00,
2013-07-13 10:18:00,73.7,0.0,30.30,ENE,66,5.8,6.0,0,0.00,,---,0.00,VWS V14.00,2013-07-13 14:18:00,
2013-07-13 10:19:00,73.5,0.0,30.30,NE,48,6.6,6.6,0,0.00,,---,0.00,VWS V14.00,2013-07-13 14:19:00,
2013-07-13 10:20:00,73.5,0.0,30.30,NE,53,6.8,6.8,0,0.00,,---,0.00,VWS V14.00,2013-07-13 14:20:00,
2013-07-13 10:21:00,73.5,0.0,30.30,NE,44,6.3,8.1,0,0.00,,---,0.00,VWS V14.00,2013-07-13 14:21:00,
2013-07-13 10:22:00,73.7,0.0,30.30,NE,35,6.9,8.1,0,0.00,,---,0.00,VWS V14.00,2013-07-13 14:22:00,
2013-07-13 10:23:00,73.8,0.0,30.30,North,4,4.5,8.1,0,0.00,,---,0.00,VWS V14.00,2013-07-13 14:23:00,
2013-07-13 10:24:00,73.6,0.0,30.30,NE,34,6.5,8.1,0,0.00,,---,0.00,VWS V14.00,2013-07-13 14:24:00,
2013-07-13 10:25:00,73.4,0.0,30.30,NE,44,7.6,7.9,0,0.00,,---,0.00,VWS V14.00,2013-07-13 14:25:00,
2013-07-13 10:26:00,73.2,0.0,30.30,NE,46,6.4,7.9,0,0.00,,---,0.00,VWS V14.00,2013-07-13 14:26:00,
2013-07-13 10:27:00,73.0,0.0,30.30,ENE,62,6.6,7.9,0,0.00,,---,0.00,VWS V14.00,2013-07-13 14:27:00,
2013-07-13 10:28:00,73.0,0.0,30.30,East,94,5.0,7.9,0,0.00,,---,0.00,VWS V14.00,2013-07-13 14:28:00,
2013-07-13 10:29:00,72.9,0.0,30.30,NE,42,0.0,7.9,0,0.00,,---,0.00,VWS V14.00,2013-07-13 14:29:00,
2013-07-13 10:30:00,73.1,0.0,30.30,NE,38,7.2,8.2,0,0.00,,---,0.00,VWS V14.00,2013-07-13 14:30:00,
2013-07-13 10:31:00,73.1,0.0,30.30,NNE,13,5.4,8.2,0,0.00,,---,0.00,VWS V14.00,2013-07-13 14:31:00,
2013-07-13 10:32:00,73.1,0.0,30.30,North,359,0.0,8.2,0,0.00,,---,0.00,VWS V14.00,2013-07-13 14:32:00,
2013-07-13 10:33:00,72.7,0.0,30.30,NE,39,0.0,8.2,0,0.00,,---,0.00,VWS V14.00,2013-07-13 14:33:00,
2013-07-13 10:34:00,73.0,0.0,30.30,NNE,17,0.0,8.2,0,0.00,,---,0.00,VWS V14.00,2013-07-13 14:34:00,
2013-07-13 10:35:00,73.6,0.0,30.30,East,91,3.4,7.3,0,0.00,,---,0.00,VWS V14.00,2013-07-13 14:35:00,
2013-07-13 10:36:00,73.6,0.0,30.30,NE,35,6.2,7.3,0,0.00,,---,0.00,VWS V14.00,2013-07-13 14:36:00,
2013-07-13 10:37:00,73.7,0.0,30.30,NE,55,5.0,7.3,0,0.00,,---,0.00,VWS V14.00,2013-07-13 14:37:00,
2013-07-13 10:38:00,74.1,0.0,30.30,NE,39,3.5,7.3,0,0.00,,---,0.00,VWS V14.00,2013-07-13 14:38:00,
2013-07-13 10:39:00,73.9,0.0,30.30,NNE,31,4.3,7.3,0,0.00,,---,0.00,VWS V14.00,2013-07-13 14:39:00,
2013-07-13 10:40:00,73.7,0.0,30.30,NNE,31,0.0,8.0,0,0.00,,---,0.00,VWS V14.00,2013-07-13 14:40:00,
2013-07-13 10:41:00,73.5,0.0,30.30,NNE,31,0.0,8.0,0,0.00,,---,0.00,VWS V14.00,2013-07-13 14:41:00,
2013-07-13 10:42:00,73.2,0.0,30.30,NNE,25,5.2,8.0,0,0.00,,---,0.00,VWS V14.00,2013-07-13 14:42:00,
2013-07-13 10:43:00,73.4,0.0,30.30,NE,51,6.1,8.0,0,0.00,,---,0.00,VWS V14.00,2013-07-13 14:43:00,
2013-07-13 10:44:00,74.2,0.0,30.30,ENE,66,5.8,8.0,0,0.00,,---,0.00,VWS V14.00,2013-07-13 14:44:00,
2013-07-13 10:45:00,74.1,0.0,30.30,NE,52,2.1,7.3,0,0.00,,---,0.00,VWS V14.00,2013-07-13 14:45:00,
2013-07-13 10:46:00,74.0,0.0,30.30,ENE,65,5.0,7.3,0,0.00,,---,0.00,VWS V14.00,2013-07-13 14:46:00,
2013-07-13 10:47:00,74.2,0.0,30.30,NE,45,4.2,7.3,0,0.00,,---,0.00,VWS V14.00,2013-07-13 14:47:00,
2013-07-13 10:48:00,74.7,0.0,30.30,NNE,27,6.0,7.3,0,0.00,,---,0.00,VWS V14.00,2013-07-13 14:48:00,
2013-07-13 10:49:00,74.6,0.0,30.30,NNE,20,4.4,7.3,0,0.00,,---,0.00,VWS V14.00,2013-07-13 14:49:00,
2013-07-13 10:50:00,74.3,0.0,30.30,ENE,70,6.5,7.8,0,0.00,,---,0.00,VWS V14.00,2013-07-13 14:50:00,
2013-07-13 10:51:00,74.8,0.0,30.30,NE,35,7.3,7.8,0,0.00,,---,0.00,VWS V14.00,2013-07-13 14:51:00,
2013-07-13 10:52:00,75.3,0.0,30.30,NE,55,4.5,7.8,0,0.00,,---,0.00,VWS V14.00,2013-07-13 14:52:00,
2013-07-13 10:53:00,75.8,0.0,30.30,East,89,3.3,7.8,0,0.00,,---,0.00,VWS V14.00,2013-07-13 14:53:00,
2013-07-13 10:54:00,76.2,0.0,30.30,ENE,70,5.7,7.8,0,0.00,,---,0.00,VWS V14.00,2013-07-13 14:54:00,
2013-07-13 10:55:00,76.2,0.0,30.30,NE,51,5.0,8.9,0,0.00,,---,0.00,VWS V14.00,2013-07-13 14:55:00,
2013-07-13 10:56:00,76.1,0.0,30.30,East,79,4.5,8.9,0,0.00,,---,0.00,VWS V14.00,2013-07-13 14:56:00,
2013-07-13 10:57:00,76.4,0.0,30.30,NE,38,7.5,8.9,0,0.00,,---,0.00,VWS V14.00,2013-07-13 14:57:00,
2013-07-13 10:58:00,76.1,0.0,30.30,ENE,69,4.1,8.9,0,0.00,,---,0.00,VWS V14.00,2013-07-13 14:58:00,
2013-07-13 10:59:00,75.9,0.0,30.30,East,80,3.1,8.9,0,0.00,,---,0.00,VWS V14.00,2013-07-13 14:59:00,
2013-07-13 11:00:00,75.7,0.0,30.30,East,91,5.7,8.3,0,0.00,,---,0.00,VWS V14.00,2013-07-13 15:00:00,
2013-07-13 11:01:00,75.2,0.0,30.30,NNE,31,5.7,8.3,0,0.00,,---,0.00,VWS V14.00,2013-07-13 15:01:00,
2013-07-13 11:02:00,75.5,0.0,30.30,ENE,62,5.8,8.3,0,0.00,,---,0.00,VWS V14.00,2013-07-13 15:02:00,
2013-07-13 11:03:00,75.6,0.0,30.30,ENE,66,0.0,8.3,0,0.00,,---,0.00,VWS V14.00,2013-07-13 15:03:00,
2013-07-13 11:04:00,75.2,0.0,30.30,ENE,59,3.4,8.3,0,0.00,,---,0.00,VWS V14.00,2013-07-13 15:04:00,
2013-07-13 11:05:00,75.2,0.0,30.30,NE,48,5.2,7.0,0,0.00,,---,0.00,VWS V14.00,2013-07-13 15:05:00,
2013-07-13 11:06:00,75.6,0.0,30.29,SE,127,2.7,7.0,0,0.00,,---,0.00,VWS V14.00,2013-07-13 15:06:00,
2013-07-13 11:07:00,75.6,0.0,30.30,ENE,66,3.4,7.0,0,0.00,,---,0.00,VWS V14.00,2013-07-13 15:07:00,
2013-07-13 11:08:00,75.9,0.0,30.29,ENE,66,7.2,7.2,0,0.00,,---,0.00,VWS V14.00,2013-07-13 15:08:00,
2013-07-13 11:09:00,75.5,0.0,30.29,NE,41,6.5,7.0,0,0.00,,---,0.00,VWS V14.00,2013-07-13 15:09:00,
2013-07-13 11:10:00,75.4,0.0,30.30,ENE,59,6.7,7.7,0,0.00,,---,0.00,VWS V14.00,2013-07-13 15:10:00,
2013-07-13 11:11:00,75.1,0.0,30.29,East,82,2.7,7.7,0,0.00,,---,0.00,VWS V14.00,2013-07-13 15:11:00,
2013-07-13 11:12:00,75.3,0.0,30.29,NE,53,0.0,7.7,0,0.00,,---,0.00,VWS V14.00,2013-07-13 15:12:00,
2013-07-13 11:13:00,75.8,0.0,30.30,NE,39,6.0,7.7,0,0.00,,---,0.00,VWS V14.00,2013-07-13 15:13:00,
2013-07-13 11:14:00,75.3,0.0,30.30,NE,37,4.2,7.7,0,0.00,,---,0.00,VWS V14.00,2013-07-13 15:14:00,
2013-07-13 11:15:00,75.3,0.0,30.30,NE,45,7.0,7.7,0,0.00,,---,0.00,VWS V14.00,2013-07-13 15:15:00,
2013-07-13 11:16:00,74.9,0.0,30.30,NE,44,3.0,7.7,0,0.00,,---,0.00,VWS V14.00,2013-07-13 15:16:00,
2013-07-13 11:17:00,74.8,0.0,30.30,NE,45,0.0,7.7,0,0.00,,---,0.00,VWS V14.00,2013-07-13 15:17:00,
2013-07-13 11:18:00,74.9,0.0,30.30,ENE,59,4.7,7.7,0,0.00,,---,0.00,VWS V14.00,2013-07-13 15:18:00,
2013-07-13 11:19:00,75.0,0.0,30.30,NE,56,5.1,7.7,0,0.00,,---,0.00,VWS V14.00,2013-07-13 15:19:00,
2013-07-13 11:20:00,74.8,0.0,30.30,ENE,66,3.5,7.7,0,0.00,,---,0.00,VWS V14.00,2013-07-13 15:20:00,
2013-07-13 11:21:00,74.4,0.0,30.29,ENE,69,2.6,7.8,0,0.00,,---,0.00,VWS V14.00,2013-07-13 15:21:00,
2013-07-13 11:22:00,74.4,0.0,30.30,NE,44,4.3,7.8,0,0.00,,---,0.00,VWS V14.00,2013-07-13 15:22:00,
2013-07-13 11:23:00,73.9,0.0,30.29,East,97,4.7,7.8,0,0.00,,---,0.00,VWS V14.00,2013-07-13 15:23:00,
2013-07-13 11:24:00,74.4,0.0,30.30,East,93,3.5,7.8,0,0.00,,---,0.00,VWS V14.00,2013-07-13 15:24:00,
2013-07-13 11:25:00,74.3,0.0,30.29,ENE,72,5.3,7.3,0,0.00,,---,0.00,VWS V14.00,2013-07-13 15:25:00,
2013-07-13 11:26:00,74.2,0.0,30.30,ENE,73,5.2,7.3,0,0.00,,---,0.00,VWS V14.00,2013-07-13 15:26:00,
2013-07-13 11:27:00,73.9,0.0,30.30,NE,51,6.8,7.3,0,0.00,,---,0.00,VWS V14.00,2013-07-13 15:27:00,
2013-07-13 11:28:00,74.0,0.0,30.30,ENE,59,5.2,7.3,0,0.00,,---,0.00,VWS V14.00,2013-07-13 15:28:00,
2013-07-13 11:29:00,74.3,0.0,30.29,NE,53,7.5,7.5,0,0.00,,---,0.00,VWS V14.00,2013-07-13 15:29:00,
2013-07-13 11:30:00,74.3,0.0,30.29,ENE,72,6.6,8.2,0,0.00,,---,0.00,VWS V14.00,2013-07-13 15:30:00,
2013-07-13 11:31:00,74.0,0.0,30.29,ESE,112,6.0,8.2,0,0.00,,---,0.00,VWS V14.00,2013-07-13 15:31:00,
2013-07-13 11:32:00,74.3,0.0,30.29,East,79,6.3,8.2,0,0.00,,---,0.00,VWS V14.00,2013-07-13 15:32:00,
2013-07-13 11:33:00,74.8,0.0,30.29,ENE,70,5.8,8.2,0,0.00,,---,0.00,VWS V14.00,2013-07-13 15:33:00,
2013-07-13 11:34:00,74.5,0.0,30.29,East,82,4.9,8.2,0,0.00,,---,0.00,VWS V14.00,2013-07-13 15:34:00,
2013-07-13 11:35:00,74.6,0.0,30.29,NE,38,0.0,8.0,0,0.00,,---,0.00,VWS V14.00,2013-07-13 15:35:00,
2013-07-13 11:36:00,74.6,0.0,30.29,NNE,31,0.0,8.0,0,0.00,,---,0.00,VWS V14.00,2013-07-13 15:36:00,
2013-07-13 11:37:00,74.7,0.0,30.29,NNE,31,4.7,8.0,0,0.00,,---,0.00,VWS V14.00,2013-07-13 15:37:00,
2013-07-13 11:38:00,74.6,0.0,30.29,NE,45,3.5,8.0,0,0.00,,---,0.00,VWS V14.00,2013-07-13 15:38:00,
2013-07-13 11:39:00,74.8,0.0,30.29,NNE,31,3.4,8.0,0,0.00,,---,0.00,VWS V14.00,2013-07-13 15:39:00,
2013-07-13 11:40:00,75.2,0.0,30.29,ENE,63,0.0,6.6,0,0.00,,---,0.00,VWS V14.00,2013-07-13 15:40:00,
2013-07-13 11:41:00,75.1,0.0,30.29,ENE,63,0.0,6.6,0,0.00,,---,0.00,VWS V14.00,2013-07-13 15:41:00,
2013-07-13 11:42:00,75.3,0.0,30.29,ENE,65,5.8,6.6,0,0.00,,---,0.00,VWS V14.00,2013-07-13 15:42:00,
2013-07-13 11:43:00,74.8,0.0,30.29,NE,34,6.9,6.9,0,0.00,,---,0.00,VWS V14.00,2013-07-13 15:43:00,
2013-07-13 11:44:00,74.7,0.0,30.29,ENE,70,0.0,6.6,0,0.00,,---,0.00,VWS V14.00,2013-07-13 15:44:00,
2013-07-13 11:45:00,74.9,0.0,30.29,NE,53,3.4,7.8,0,0.00,,---,0.00,VWS V14.00,2013-07-13 15:45:00,
2013-07-13 11:46:00,75.2,0.0,30.29,NNE,13,4.9,7.8,0,0.00,,---,0.00,VWS V14.00,2013-07-13 15:46:00,
2013-07-13 11:47:00,75.3,0.0,30.29,NNE,31,3.2,7.8,0,0.00,,---,0.00,VWS V14.00,2013-07-13 15:47:00,
2013-07-13 11:48:00,75.2,0.0,30.29,NE,37,0.0,7.8,0,0.00,,---,0.00,VWS V14.00,2013-07-13 15:48:00,
2013-07-13 11:49:00,75.4,0.0,30.29,NE,37,4.5,7.8,0,0.00,,---,0.00,VWS V14.00,2013-07-13 15:49:00,
2013-07-13 11:50:00,75.3,0.0,30.29,East,83,0.0,6.2,0,0.00,,---,0.00,VWS V14.00,2013-07-13 15:50:00,
2013-07-13 11:51:00,75.3,0.0,30.29,ENE,58,6.4,6.4,0,0.00,,---,0.00,VWS V14.00,2013-07-13 15:51:00,
2013-07-13 11:52:00,75.1,0.0,30.29,NNE,28,2.7,6.2,0,0.00,,---,0.00,VWS V14.00,2013-07-13 15:52:00,
2013-07-13 11:53:00,75.4,0.0,30.29,ENE,62,5.2,6.2,0,0.00,,---,0.00,VWS V14.00,2013-07-13 15:53:00,
2013-07-13 11:54:00,75.4,0.0,30.29,NE,46,5.0,6.2,0,0.00,,---,0.00,VWS V14.00,2013-07-13 15:54:00,
2013-07-13 11:55:00,75.8,0.0,30.29,NE,51,5.0,7.5,0,0.00,,---,0.00,VWS V14.00,2013-07-13 15:55:00,
2013-07-13 11:56:00,76.1,0.0,30.29,NE,34,5.1,7.5,0,0.00,,---,0.00,VWS V14.00,2013-07-13 15:56:00,
2013-07-13 11:57:00,76.4,0.0,30.29,East,98,0.0,7.5,0,0.00,,---,0.00,VWS V14.00,2013-07-13 15:57:00,
2013-07-13 11:58:00,76.7,0.0,30.29,East,79,5.2,7.5,0,0.00,,---,0.00,VWS V14.00,2013-07-13 15:58:00,
2013-07-13 11:59:00,76.4,0.0,30.29,ENE,73,3.2,7.5,0,0.00,,---,0.00,VWS V14.00,2013-07-13 15:59:00,
2013-07-13 12:00:00,76.6,0.0,30.29,ENE,70,4.5,7.1,0,0.00,,---,0.00,VWS V14.00,2013-07-13 16:00:00,
2013-07-13 12:01:00,76.4,0.0,30.29,East,101,0.0,7.1,0,0.00,,---,0.00,VWS V14.00,2013-07-13 16:01:00,
2013-07-13 12:02:00,76.2,0.0,30.29,ENE,66,4.7,7.1,0,0.00,,---,0.00,VWS V14.00,2013-07-13 16:02:00,
2013-07-13 12:03:00,75.7,0.0,30.29,ENE,62,5.2,7.1,0,0.00,,---,0.00,VWS V14.00,2013-07-13 16:03:00,
2013-07-13 12:04:00,75.6,0.0,30.29,NE,37,0.0,7.1,0,0.00,,---,0.00,VWS V14.00,2013-07-13 16:04:00,
2013-07-13 12:05:00,76.1,0.0,30.29,ESE,103,0.0,6.5,0,0.00,,---,0.00,VWS V14.00,2013-07-13 16:05:00,
2013-07-13 12:06:00,76.3,0.0,30.29,East,93,0.0,6.5,0,0.00,,---,0.00,VWS V14.00,2013-07-13 16:06:00,
2013-07-13 12:07:00,76.5,0.0,30.29,East,80,2.9,6.5,0,0.00,,---,0.00,VWS V14.00,2013-07-13 16:07:00,
2013-07-13 12:08:00,76.7,0.0,30.29,NNE,25,6.4,6.5,0,0.00,,---,0.00,VWS V14.00,2013-07-13 16:08:00,
2013-07-13 12:09:00,76.5,0.0,30.29,East,87,0.0,6.5,0,0.00,,---,0.00,VWS V14.00,2013-07-13 16:09:00,
2013-07-13 12:10:00,76.1,0.0,30.29,ENE,77,0.0,7.7,0,0.00,,---,0.00,VWS V14.00,2013-07-13 16:10:00,
2013-07-13 12:11:00,76.1,0.0,30.29,SE,131,4.6,7.7,0,0.00,,---,0.00,VWS V14.00,2013-07-13 16:11:00,
2013-07-13 12:12:00,76.3,0.0,30.29,NNE,25,0.0,7.7,0,0.00,,---,0.00,VWS V14.00,2013-07-13 16:12:00,
2013-07-13 12:13:00,75.4,0.0,30.29,ENE,58,7.0,7.7,0,0.00,,---,0.00,VWS V14.00,2013-07-13 16:13:00,
2013-07-13 12:14:00,75.6,0.0,30.29,ENE,77,6.4,7.7,0,0.00,,---,0.00,VWS V14.00,2013-07-13 16:14:00,
2013-07-13 12:15:00,75.4,0.0,30.29,NE,56,3.0,8.5,0,0.00,,---,0.00,VWS V14.00,2013-07-13 16:15:00,
2013-07-13 12:16:00,75.8,0.0,30.29,East,93,5.2,8.5,0,0.00,,---,0.00,VWS V14.00,2013-07-13 16:16:00,
2013-07-13 12:17:00,76.0,0.0,30.29,NE,45,4.6,8.5,0,0.00,,---,0.00,VWS V14.00,2013-07-13 16:17:00,
2013-07-13 12:18:00,76.5,0.0,30.29,NE,46,4.3,8.5,0,0.00,,---,0.00,VWS V14.00,2013-07-13 16:18:00,
2013-07-13 12:19:00,76.3,0.0,30.29,NE,39,4.7,8.5,0,0.00,,---,0.00,VWS V14.00,2013-07-13 16:19:00,
2013-07-13 12:20:00,76.4,0.0,30.29,East,83,0.0,8.5,0,0.00,,---,0.00,VWS V14.00,2013-07-13 16:20:00,
2013-07-13 12:21:00,76.9,0.0,30.29,ENE,59,5.8,6.0,0,0.00,,---,0.00,VWS V14.00,2013-07-13 16:21:00,
2013-07-13 12:22:00,77.3,0.0,30.29,ENE,68,6.0,6.0,0,0.00,,---,0.00,VWS V14.00,2013-07-13 16:22:00,
2013-07-13 12:23:00,77.1,0.0,30.29,NE,37,4.2,6.0,0,0.00,,---,0.00,VWS V14.00,2013-07-13 16:23:00,
2013-07-13 12:24:00,76.9,0.0,30.29,East,97,5.5,6.0,0,0.00,,---,0.00,VWS V14.00,2013-07-13 16:24:00,
2013-07-13 12:25:00,76.8,0.0,30.29,East,100,0.0,6.0,0,0.00,,---,0.00,VWS V14.00,2013-07-13 16:25:00,
2013-07-13 12:26:00,76.9,0.0,30.29,East,100,0.0,7.3,0,0.00,,---,0.00,VWS V14.00,2013-07-13 16:26:00,
2013-07-13 12:27:00,77.2,0.0,30.29,ENE,66,4.9,7.3,0,0.00,,---,0.00,VWS V14.00,2013-07-13 16:27:00,
2013-07-13 12:28:00,77.1,0.0,30.29,NE,49,5.3,7.3,0,0.00,,---,0.00,VWS V14.00,2013-07-13 16:28:00,
2013-07-13 12:29:00,77.9,0.0,30.29,East,87,5.0,7.3,0,0.00,,---,0.00,VWS V14.00,2013-07-13 16:29:00,
2013-07-13 12:30:00,78.2,0.0,30.29,East,98,0.0,7.0,0,0.00,,---,0.00,VWS V14.00,2013-07-13 16:30:00,
2013-07-13 12:31:00,78.4,0.0,30.29,ENE,59,0.0,7.0,0,0.00,,---,0.00,VWS V14.00,2013-07-13 16:31:00,
2013-07-13 12:32:00,78.7,0.0,30.29,ENE,59,0.0,7.0,0,0.00,,---,0.00,VWS V14.00,2013-07-13 16:32:00,
2013-07-13 12:33:00,78.5,0.0,30.29,ENE,60,5.4,7.0,0,0.00,,---,0.00,VWS V14.00,2013-07-13 16:33:00,
2013-07-13 12:34:00,77.4,0.0,30.29,East,94,5.1,7.0,0,0.00,,---,0.00,VWS V14.00,2013-07-13 16:34:00,
2013-07-13 12:35:00,77.4,0.0,30.29,NE,37,4.3,7.0,0,0.00,,---,0.00,VWS V14.00,2013-07-13 16:35:00,
2013-07-13 12:36:00,77.4,0.0,30.29,NE,39,2.4,7.0,0,0.00,,---,0.00,VWS V14.00,2013-07-13 16:36:00,
2013-07-13 12:37:00,77.7,0.0,30.29,NE,53,5.3,7.0,0,0.00,,---,0.00,VWS V14.00,2013-07-13 16:37:00,
2013-07-13 12:38:00,77.8,0.0,30.29,NE,41,4.3,7.0,0,0.00,,---,0.00,VWS V14.00,2013-07-13 16:38:00,
2013-07-13 12:39:00,78.0,0.0,30.29,SSE,148,5.0,7.0,0,0.00,,---,0.00,VWS V14.00,2013-07-13 16:39:00,
2013-07-13 12:40:00,77.7,0.0,30.29,NE,45,3.5,6.5,0,0.00,,---,0.00,VWS V14.00,2013-07-13 16:40:00,
2013-07-13 12:41:00,78.2,0.0,30.29,SSE,165,2.5,6.5,0,0.00,,---,0.00,VWS V14.00,2013-07-13 16:41:00,
2013-07-13 12:42:00,78.2,0.0,30.29,East,79,0.0,6.5,0,0.00,,---,0.00,VWS V14.00,2013-07-13 16:42:00,
2013-07-13 12:43:00,78.5,0.0,30.29,East,79,0.0,6.5,0,0.00,,---,0.00,VWS V14.00,2013-07-13 16:43:00,
2013-07-13 12:44:00,79.0,0.0,30.29,ENE,68,2.1,6.5,0,0.00,,---,0.00,VWS V14.00,2013-07-13 16:44:00,
2013-07-13 12:45:00,79.1,0.0,30.29,NE,46,5.5,6.8,0,0.00,,---,0.00,VWS V14.00,2013-07-13 16:45:00,
2013-07-13 12:46:00,79.1,0.0,30.29,NE,42,4.6,6.8,0,0.00,,---,0.00,VWS V14.00,2013-07-13 16:46:00,
2013-07-13 12:47:00,79.2,0.0,30.29,SE,124,3.0,6.8,0,0.00,,---,0.00,VWS V14.00,2013-07-13 16:47:00,
2013-07-13 12:48:00,79.3,0.0,30.29,ESE,114,6.3,6.8,0,0.00,,---,0.00,VWS V14.00,2013-07-13 16:48:00,
2013-07-13 12:49:00,77.9,0.0,30.29,ENE,75,5.0,6.8,0,0.00,,---,0.00,VWS V14.00,2013-07-13 16:49:00,
2013-07-13 12:50:00,78.1,0.0,30.29,ESE,104,5.2,8.0,0,0.00,,---,0.00,VWS V14.00,2013-07-13 16:50:00,
2013-07-13 12:51:00,77.7,0.0,30.29,ENE,60,2.7,8.0,0,0.00,,---,0.00,VWS V14.00,2013-07-13 16:51:00,
2013-07-13 12:52:00,78.0,0.0,30.29,NNE,28,4.7,8.0,0,0.00,,---,0.00,VWS V14.00,2013-07-13 16:52:00,
2013-07-13 12:53:00,78.2,0.0,30.29,East,87,5.2,8.0,0,0.00,,---,0.00,VWS V14.00,2013-07-13 16:53:00,
2013-07-13 12:54:00,78.4,0.0,30.29,NNE,31,2.7,8.0,0,0.00,,---,0.00,VWS V14.00,2013-07-13 16:54:00,
2013-07-13 12:55:00,78.4,0.0,30.29,East,86,5.5,8.1,0,0.00,,---,0.00,VWS V14.00,2013-07-13 16:55:00,
2013-07-13 12:56:00,77.9,0.0,30.29,SE,138,0.0,8.1,0,0.00,,---,0.00,VWS V14.00,2013-07-13 16:56:00,
2013-07-13 12:57:00,78.3,0.0,30.29,ESE,108,1.4,8.1,0,0.00,,---,0.00,VWS V14.00,2013-07-13 16:57:00,
2013-07-13 12:58:00,79.1,0.0,30.29,ENE,59,3.4,8.1,0,0.00,,---,0.00,VWS V14.00,2013-07-13 16:58:00,
2013-07-13 12:59:00,79.4,0.0,30.28,ENE,68,4.5,8.1,0,0.00,,---,0.00,VWS V14.00,2013-07-13 16:59:00,
2013-07-13 13:00:00,79.3,0.0,30.28,ENE,72,4.2,7.9,0,0.00,,---,0.00,VWS V14.00,2013-07-13 17:00:00,
2013-07-13 13:01:00,79.7,0.0,30.28,NE,55,4.5,7.9,0,0.00,,---,0.00,VWS V14.00,2013-07-13 17:01:00,
2013-07-13 13:02:00,79.7,0.0,30.28,ENE,75,4.5,7.9,0,0.00,,---,0.00,VWS V14.00,2013-07-13 17:02:00,
2013-07-13 13:03:00,79.4,0.0,30.28,ESE,112,0.0,7.9,0,0.00,,---,0.00,VWS V14.00,2013-07-13 17:03:00,
2013-07-13 13:04:00,79.8,0.0,30.28,ESE,105,3.5,7.9,0,0.00,,---,0.00,VWS V14.00,2013-07-13 17:04:00,
2013-07-13 13:05:00,79.8,0.0,30.28,ENE,77,4.2,8.3,0,0.00,,---,0.00,VWS V14.00,2013-07-13 17:05:00,
2013-07-13 13:06:00,79.8,0.0,30.29,East,80,4.9,8.3,0,0.00,,---,0.00,VWS V14.00,2013-07-13 17:06:00,
2013-07-13 13:07:00,80.1,0.0,30.28,East,79,6.2,8.3,0,0.00,,---,0.00,VWS V14.00,2013-07-13 17:07:00,
2013-07-13 13:08:00,79.5,0.0,30.28,NE,38,4.3,8.3,0,0.00,,---,0.00,VWS V14.00,2013-07-13 17:08:00,
2013-07-13 13:09:00,79.7,0.0,30.28,ESE,115,3.2,8.3,0,0.00,,---,0.00,VWS V14.00,2013-07-13 17:09:00,
2013-07-13 13:10:00,79.9,0.0,30.28,ESE,117,3.5,6.6,0,0.00,,---,0.00,VWS V14.00,2013-07-13 17:10:00,
2013-07-13 13:11:00,79.7,0.0,30.28,NE,39,0.0,6.6,0,0.00,,---,0.00,VWS V14.00,2013-07-13 17:11:00,
2013-07-13 13:12:00,79.2,0.0,30.28,South,170,3.2,6.6,0,0.00,,---,0.00,VWS V14.00,2013-07-13 17:12:00,
2013-07-13 13:13:00,79.5,0.0,30.28,ESE,120,3.0,6.6,0,0.00,,---,0.00,VWS V14.00,2013-07-13 17:13:00,
2013-07-13 13:14:00,79.2,0.0,30.28,ESE,112,0.0,6.6,0,0.00,,---,0.00,VWS V14.00,2013-07-13 17:14:00,
2013-07-13 13:15:00,77.3,0.0,30.28,SE,135,0.0,7.0,0,0.00,,---,0.00,VWS V14.00,2013-07-13 17:15:00,
2013-07-13 13:16:00,76.8,0.0,30.29,ENE,73,0.0,7.0,0,0.00,,---,0.00,VWS V14.00,2013-07-13 17:16:00,
2013-07-13 13:17:00,77.1,0.0,30.29,ENE,72,3.3,7.0,0,0.00,,---,0.00,VWS V14.00,2013-07-13 17:17:00,
2013-07-13 13:18:00,77.2,0.0,30.29,ESE,117,0.0,7.0,0,0.00,,---,0.00,VWS V14.00,2013-07-13 17:18:00,
2013-07-13 13:19:00,77.0,0.0,30.29,East,89,4.5,7.0,0,0.00,,---,0.00,VWS V14.00,2013-07-13 17:19:00,
2013-07-13 13:20:00,76.8,0.0,30.29,East,94,0.0,7.7,0,0.00,,---,0.00,VWS V14.00,2013-07-13 17:20:00,
2013-07-13 13:21:00,77.1,0.0,30.29,ENE,62,0.0,7.7,0,0.00,,---,0.00,VWS V14.00,2013-07-13 17:21:00,
2013-07-13 13:22:00,77.8,0.0,30.28,East,97,0.0,7.7,0,0.00,,---,0.00,VWS V14.00,2013-07-13 17:22:00,
2013-07-13 13:23:00,78.0,0.0,30.28,East,86,4.1,7.7,0,0.00,,---,0.00,VWS V14.00,2013-07-13 17:23:00,
2013-07-13 13:24:00,78.0,0.0,30.29,ESE,104,3.4,7.7,0,0.00,,---,0.00,VWS V14.00,2013-07-13 17:24:00,
2013-07-13 13:25:00,78.4,0.0,30.29,East,82,2.6,7.7,0,0.00,,---,0.00,VWS V14.00,2013-07-13 17:25:00,
2013-07-13 13:26:00,77.7,0.0,30.29,SE,139,5.6,7.4,0,0.00,,---,0.00,VWS V14.00,2013-07-13 17:26:00,
2013-07-13 13:27:00,77.1,0.0,30.29,East,91,0.0,7.4,0,0.00,,---,0.00,VWS V14.00,2013-07-13 17:27:00,
2013-07-13 13:28:00,77.8,0.0,30.29,East,91,0.0,7.4,0,0.00,,---,0.00,VWS V14.00,2013-07-13 17:28:00,
2013-07-13 13:29:00,77.9,0.0,30.29,SSE,153,0.0,7.4,0,0.00,,---,0.00,VWS V14.00,2013-07-13 17:29:00,
2013-07-13 13:30:00,78.2,0.0,30.29,SSE,153,4.5,7.4,0,0.00,,---,0.00,VWS V14.00,2013-07-13 17:30:00,
2013-07-13 13:31:00,78.4,0.0,30.29,North,8,0.0,6.9,0,0.00,,---,0.00,VWS V14.00,2013-07-13 17:31:00,
2013-07-13 13:32:00,78.0,0.0,30.29,NE,44,3.5,6.9,0,0.00,,---,0.00,VWS V14.00,2013-07-13 17:32:00,
2013-07-13 13:33:00,77.9,0.0,30.29,NE,44,0.0,6.9,0,0.00,,---,0.00,VWS V14.00,2013-07-13 17:33:00,
2013-07-13 13:34:00,77.0,0.0,30.29,ENE,76,0.0,6.9,0,0.00,,---,0.00,VWS V14.00,2013-07-13 17:34:00,
2013-07-13 13:35:00,76.2,0.0,30.29,East,93,0.0,7.8,0,0.00,,---,0.00,VWS V14.00,2013-07-13 17:35:00,
2013-07-13 13:36:00,75.7,0.0,30.29,ESE,114,0.0,7.8,0,0.00,,---,0.00,VWS V14.00,2013-07-13 17:36:00,
2013-07-13 13:37:00,76.5,0.0,30.29,East,83,5.2,7.8,0,0.00,,---,0.00,VWS V14.00,2013-07-13 17:37:00,
2013-07-13 13:38:00,77.1,0.0,30.29,ENE,76,0.0,7.8,0,0.00,,---,0.00,VWS V14.00,2013-07-13 17:38:00,
2013-07-13 13:39:00,77.4,0.0,30.29,East,96,4.3,7.8,0,0.00,,---,0.00,VWS V14.00,2013-07-13 17:39:00,
2013-07-13 13:40:00,77.5,0.0,30.29,ENE,70,0.0,6.8,0,0.00,,---,0.00,VWS V14.00,2013-07-13 17:40:00,
2013-07-13 13:41:00,78.3,0.0,30.29,ENE,70,0.0,6.8,0,0.00,,---,0.00,VWS V14.00,2013-07-13 17:41:00,
2013-07-13 13:42:00,77.3,0.0,30.29,East,94,3.1,6.8,0,0.00,,---,0.00,VWS V14.00,2013-07-13 17:42:00,
2013-07-13 13:43:00,77.7,0.0,30.29,SE,131,4.7,6.8,0,0.00,,---,0.00,VWS V14.00,2013-07-13 17:43:00,
2013-07-13 13:44:00,78.2,0.0,30.29,SE,143,0.0,6.8,0,0.00,,---,0.00,VWS V14.00,2013-07-13 17:44:00,
2013-07-13 13:45:00,78.4,0.0,30.29,SE,143,0.0,5.3,0,0.00,,---,0.00,VWS V14.00,2013-07-13 17:45:00,
2013-07-13 13:46:00,76.8,0.0,30.29,South,184,5.2,5.3,0,0.00,,---,0.00,VWS V14.00,2013-07-13 17:46:00,
2013-07-13 13:47:00,76.0,0.0,30.29,SE,138,0.0,5.3,0,0.00,,---,0.00,VWS V14.00,2013-07-13 17:47:00,
2013-07-13 13:48:00,76.2,0.0,30.29,SE,131,6.0,6.0,0,0.00,,---,0.00,VWS V14.00,2013-07-13 17:48:00,
2013-07-13 13:49:00,76.4,0.0,30.29,SE,134,4.5,5.3,0,0.00,,---,0.00,VWS V14.00,2013-07-13 17:49:00,
2013-07-13 13:50:00,77.1,0.0,30.29,SSE,153,0.0,8.1,0,0.00,,---,0.00,VWS V14.00,2013-07-13 17:50:00,
2013-07-13 13:51:00,76.1,0.0,30.29,SSE,152,5.4,8.1,0,0.00,,---,0.00,VWS V14.00,2013-07-13 17:51:00,
2013-07-13 13:52:00,76.0,0.0,30.29,ENE,65,3.0,8.1,0,0.00,,---,0.00,VWS V14.00,2013-07-13 17:52:00,
2013-07-13 13:53:00,76.2,0.0,30.29,SE,124,0.0,8.1,0,0.00,,---,0.00,VWS V14.00,2013-07-13 17:53:00,
2013-07-13 13:54:00,76.7,0.0,30.29,SE,125,5.3,8.1,0,0.00,,---,0.00,VWS V14.00,2013-07-13 17:54:00,
2013-07-13 13:55:00,77.1,0.0,30.29,ESE,114,0.0,6.3,0,0.00,,---,0.00,VWS V14.00,2013-07-13 17:55:00,
2013-07-13 13:56:00,76.5,0.0,30.29,South,179,0.0,6.3,0,0.00,,---,0.00,VWS V14.00,2013-07-13 17:56:00,
2013-07-13 13:57:00,75.8,0.0,30.29,East,96,1.9,6.3,0,0.00,,---,0.00,VWS V14.00,2013-07-13 17:57:00,
2013-07-13 13:58:00,76.1,0.0,30.29,South,169,3.4,6.3,0,0.00,,---,0.00,VWS V14.00,2013-07-13 17:58:00,
2013-07-13 13:59:00,77.0,0.0,30.29,ESE,118,2.3,6.3,0,0.00,,---,0.00,VWS V14.00,2013-07-13 17:59:00,
2013-07-13 14:00:00,77.3,0.0,30.29,ESE,112,3.0,7.5,0,0.00,,---,0.00,VWS V14.00,2013-07-13 18:00:00,
2013-07-13 14:01:00,77.3,0.0,30.29,ESE,114,6.6,7.5,0,0.00,,---,0.00,VWS V14.00,2013-07-13 18:01:00,
2013-07-13 14:02:00,77.3,0.0,30.29,SSE,155,0.0,7.5,0,0.00,,---,0.00,VWS V14.00,2013-07-13 18:02:00,
2013-07-13 14:03:00,77.0,0.0,30.29,East,80,0.0,7.5,0,0.00,,---,0.00,VWS V14.00,2013-07-13 18:03:00,
2013-07-13 14:04:00,77.1,0.0,30.29,ESE,120,5.3,7.5,0,0.00,,---,0.00,VWS V14.00,2013-07-13 18:04:00,
2013-07-13 14:05:00,77.7,0.0,30.29,SE,145,4.8,9.1,0,0.00,,---,0.00,VWS V14.00,2013-07-13 18:05:00,
2013-07-13 14:06:00,77.8,0.0,30.29,ENE,58,4.4,9.1,0,0.00,,---,0.00,VWS V14.00,2013-07-13 18:06:00,
2013-07-13 14:07:00,77.7,0.0,30.29,ESE,120,5.0,9.1,0,0.00,,---,0.00,VWS V14.00,2013-07-13 18:07:00,
2013-07-13 14:08:00,78.2,0.0,30.29,SSE,155,0.0,9.1,0,0.00,,---,0.00,VWS V14.00,2013-07-13 18:08:00,
2013-07-13 14:09:00,78.3,0.0,30.29,SE,128,0.0,9.1,0,0.00,,---,0.00,VWS V14.00,2013-07-13 18:09:00,
2013-07-13 14:10:00,78.4,0.0,30.29,SE,141,0.0,7.3,0,0.00,,---,0.00,VWS V14.00,2013-07-13 18:10:00,
2013-07-13 14:11:00,78.2,0.0,30.29,East,79,2.7,7.3,0,0.00,,---,0.00,VWS V14.00,2013-07-13 18:11:00,
2013-07-13 14:12:00,78.3,0.0,30.29,East,86,5.9,7.3,0,0.00,,---,0.00,VWS V14.00,2013-07-13 18:12:00,
2013-07-13 14:13:00,77.3,0.0,30.29,SE,134,2.2,7.3,0,0.00,,---,0.00,VWS V14.00,2013-07-13 18:13:00,
2013-07-13 14:14:00,77.2,0.0,30.29,SSE,160,2.9,7.3,0,0.00,,---,0.00,VWS V14.00,2013-07-13 18:14:00,
2013-07-13 14:15:00,77.8,0.0,30.28,East,97,4.4,6.6,0,0.00,,---,0.00,VWS V14.00,2013-07-13 18:15:00,
2013-07-13 14:16:00,77.7,0.0,30.29,SE,129,8.9,8.9,0,0.00,,---,0.00,VWS V14.00,2013-07-13 18:16:00,
2013-07-13 14:17:00,78.0,0.0,30.29,ENE,70,0.0,6.6,0,0.00,,---,0.00,VWS V14.00,2013-07-13 18:17:00,
2013-07-13 14:18:00,77.7,0.0,30.28,ENE,70,0.0,6.6,0,0.00,,---,0.00,VWS V14.00,2013-07-13 18:18:00,
2013-07-13 14:19:00,76.7,0.0,30.28,ESE,107,3.2,6.6,0,0.00,,---,0.00,VWS V14.00,2013-07-13 18:19:00,
2013-07-13 14:20:00,76.8,0.0,30.28,SE,128,3.1,8.9,0,0.00,,---,0.00,VWS V14.00,2013-07-13 18:20:00,
2013-07-13 14:21:00,75.6,0.0,30.28,East,86,4.3,8.9,0,0.00,,---,0.00,VWS V14.00,2013-07-13 18:21:00,
2013-07-13 14:22:00,74.4,0.0,30.28,SE,134,2.9,8.9,0,0.00,,---,0.00,VWS V14.00,2013-07-13 18:22:00,
2013-07-13 14:23:00,74.3,0.0,30.28,NE,56,3.4,8.9,0,0.00,,---,0.00,VWS V14.00,2013-07-13 18:23:00,
2013-07-13 14:24:00,74.8,0.0,30.28,ENE,70,0.0,8.9,0,0.00,,---,0.00,VWS V14.00,2013-07-13 18:24:00,
2013-07-13 14:25:00,74.7,0.0,30.28,East,79,0.0,8.4,0,0.00,,---,0.00,VWS V14.00,2013-07-13 18:25:00,
2013-07-13 14:26:00,74.4,0.0,30.28,ESE,103,4.3,8.4,0,0.00,,---,0.00,VWS V14.00,2013-07-13 18:26:00,
2013-07-13 14:27:00,73.9,0.0,30.28,ESE,107,6.3,8.4,0,0.00,,---,0.00,VWS V14.00,2013-07-13 18:27:00,
2013-07-13 14:28:00,74.3,0.0,30.28,ESE,111,0.0,8.4,0,0.00,,---,0.00,VWS V14.00,2013-07-13 18:28:00,
2013-07-13 14:29:00,74.5,0.0,30.28,SSE,163,4.4,8.4,0,0.00,,---,0.00,VWS V14.00,2013-07-13 18:29:00,
2013-07-13 14:30:00,74.9,0.0,30.28,ESE,117,0.0,8.4,0,0.00,,---,0.00,VWS V14.00,2013-07-13 18:30:00,
2013-07-13 14:31:00,75.1,0.0,30.28,ESE,108,4.3,7.5,0,0.00,,---,0.00,VWS V14.00,2013-07-13 18:31:00,
2013-07-13 14:32:00,74.6,0.0,30.28,ENE,73,0.0,7.5,0,0.00,,---,0.00,VWS V14.00,2013-07-13 18:32:00,
2013-07-13 14:33:00,74.7,0.0,30.28,East,80,0.0,7.5,0,0.00,,---,0.00,VWS V14.00,2013-07-13 18:33:00,
2013-07-13 14:34:00,74.7,0.0,30.28,SE,129,2.5,7.5,0,0.00,,---,0.00,VWS V14.00,2013-07-13 18:34:00,
2013-07-13 14:35:00,75.3,0.0,30.28,East,87,5.7,7.6,0,0.00,,---,0.00,VWS V14.00,2013-07-13 18:35:00,
2013-07-13 14:36:00,75.7,0.0,30.28,ESE,105,3.3,7.6,0,0.00,,---,0.00,VWS V14.00,2013-07-13 18:36:00,
2013-07-13 14:37:00,74.9,0.0,30.28,East,94,3.4,7.6,0,0.00,,---,0.00,VWS V14.00,2013-07-13 18:37:00,
2013-07-13 14:38:00,74.0,0.0,30.28,East,93,6.2,7.6,0,0.00,,---,0.00,VWS V14.00,2013-07-13 18:38:00,
2013-07-13 14:39:00,73.8,0.0,30.28,ESE,104,7.4,7.6,0,0.00,,---,0.00,VWS V14.00,2013-07-13 18:39:00,
2013-07-13 14:40:00,73.7,0.0,30.28,ESE,107,0.0,8.2,0,0.00,,---,0.00,VWS V14.00,2013-07-13 18:40:00,
2013-07-13 14:41:00,73.6,0.0,30.28,SE,125,4.7,8.2,0,0.00,,---,0.00,VWS V14.00,2013-07-13 18:41:00,
2013-07-13 14:42:00,73.5,0.0,30.28,East,100,5.0,8.2,0,0.00,,---,0.00,VWS V14.00,2013-07-13 18:42:00,
2013-07-13 14:43:00,73.2,0.0,30.28,ENE,68,6.8,8.2,0,0.00,,---,0.00,VWS V14.00,2013-07-13 18:43:00,
2013-07-13 14:44:00,73.1,0.0,30.28,South,183,3.1,8.2,0,0.00,,---,0.00,VWS V14.00,2013-07-13 18:44:00,
2013-07-13 14:45:00,73.3,0.0,30.28,SE,141,3.0,8.1,0,0.00,,---,0.00,VWS V14.00,2013-07-13 18:45:00,
2013-07-13 14:46:00,73.5,0.0,30.28,SE,143,4.2,8.1,0,0.00,,---,0.00,VWS V14.00,2013-07-13 18:46:00,
2013-07-13 14:47:00,74.0,0.0,30.28,East,91,0.0,8.1,0,0.00,,---,0.00,VWS V14.00,2013-07-13 18:47:00,
2013-07-13 14:48:00,73.9,0.0,30.28,East,82,3.0,8.1,0,0.00,,---,0.00,VWS V14.00,2013-07-13 18:48:00,
2013-07-13 14:49:00,73.9,0.0,30.28,ESE,121,0.0,8.1,0,0.00,,---,0.00,VWS V14.00,2013-07-13 18:49:00,
2013-07-13 14:50:00,73.9,0.0,30.28,ENE,76,8.5,8.5,0,0.00,,---,0.00,VWS V14.00,2013-07-13 18:50:00,
2013-07-13 14:51:00,73.7,0.0,30.28,NE,41,4.2,7.8,0,0.00,,---,0.00,VWS V14.00,2013-07-13 18:51:00,
2013-07-13 14:52:00,73.9,0.0,30.28,SE,124,4.8,7.8,0,0.00,,---,0.00,VWS V14.00,2013-07-13 18:52:00,
2013-07-13 14:53:00,73.8,0.0,30.28,SE,125,5.3,7.8,0,0.00,,---,0.00,VWS V14.00,2013-07-13 18:53:00,
2013-07-13 14:54:00,73.8,0.0,30.28,ESE,103,0.0,7.8,0,0.00,,---,0.00,VWS V14.00,2013-07-13 18:54:00,
2013-07-13 14:55:00,73.9,0.0,30.28,East,90,5.9,8.6,0,0.00,,---,0.00,VWS V14.00,2013-07-13 18:55:00,
2013-07-13 14:56:00,73.9,0.0,30.28,East,98,0.0,8.6,0,0.00,,---,0.00,VWS V14.00,2013-07-13 18:56:00,
2013-07-13 14:57:00,73.3,0.0,30.28,East,86,7.3,8.6,0,0.00,,---,0.00,VWS V14.00,2013-07-13 18:57:00,
2013-07-13 14:58:00,73.2,0.0,30.28,SSE,152,2.2,8.6,0,0.00,,---,0.00,VWS V14.00,2013-07-13 18:58:00,
2013-07-13 14:59:00,74.1,0.0,30.28,East,93,4.2,8.6,0,0.00,,---,0.00,VWS V14.00,2013-07-13 18:59:00,
2013-07-13 15:00:00,75.0,0.0,30.28,East,93,0.0,8.3,0,0.00,,---,0.00,VWS V14.00,2013-07-13 19:00:00,
2013-07-13 15:01:00,75.5,0.0,30.28,SE,135,4.9,8.3,0,0.00,,---,0.00,VWS V14.00,2013-07-13 19:01:00,
2013-07-13 15:02:00,75.7,0.0,30.28,East,98,0.0,8.3,0,0.00,,---,0.00,VWS V14.00,2013-07-13 19:02:00,
2013-07-13 15:03:00,75.0,0.0,30.28,ESE,117,3.4,8.3,0,0.00,,---,0.00,VWS V14.00,2013-07-13 19:03:00,
2013-07-13 15:04:00,75.2,0.0,30.28,ENE,76,6.1,8.3,0,0.00,,---,0.00,VWS V14.00,2013-07-13 19:04:00,
2013-07-13 15:05:00,74.6,0.0,30.28,East,80,6.4,7.9,0,0.00,,---,0.00,VWS V14.00,2013-07-13 19:05:00,
2013-07-13 15:06:00,74.3,0.0,30.28,ESE,114,3.5,7.9,0,0.00,,---,0.00,VWS V14.00,2013-07-13 19:06:00,
2013-07-13 15:07:00,73.8,0.0,30.28,East,86,3.5,7.9,0,0.00,,---,0.00,VWS V14.00,2013-07-13 19:07:00,
2013-07-13 15:08:00,73.5,0.0,30.28,East,101,0.0,7.9,0,0.00,,---,0.00,VWS V14.00,2013-07-13 19:08:00,
2013-07-13 15:09:00,73.9,0.0,30.28,ESE,122,3.3,7.9,0,0.00,,---,0.00,VWS V14.00,2013-07-13 19:09:00,
2013-07-13 15:10:00,74.5,0.0,30.28,East,79,3.4,8.0,0,0.00,,---,0.00,VWS V14.00,2013-07-13 19:10:00,
2013-07-13 15:11:00,74.9,0.0,30.28,East,79,0.0,8.0,0,0.00,,---,0.00,VWS V14.00,2013-07-13 19:11:00,
2013-07-13 15:12:00,75.2,0.0,30.28,ENE,75,4.3,8.0,0,0.00,,---,0.00,VWS V14.00,2013-07-13 19:12:00,
2013-07-13 15:13:00,75.7,0.0,30.28,SE,141,3.2,8.0,0,0.00,,---,0.00,VWS V14.00,2013-07-13 19:13:00,
2013-07-13 15:14:00,75.5,0.0,30.27,East,90,4.3,8.0,0,0.00,,---,0.00,VWS V14.00,2013-07-13 19:14:00,
2013-07-13 15:15:00,75.7,0.0,30.28,East,89,7.0,7.3,0,0.00,,---,0.00,VWS V14.00,2013-07-13 19:15:00,
2013-07-13 15:16:00,74.7,0.0,30.27,ENE,72,2.5,7.3,0,0.00,,---,0.00,VWS V14.00,2013-07-13 19:16:00,
2013-07-13 15:17:00,74.1,0.0,30.27,East,93,3.3,7.3,0,0.00,,---,0.00,VWS V14.00,2013-07-13 19:17:00,
2013-07-13 15:18:00,74.3,0.0,30.27,East,82,3.2,7.3,0,0.00,,---,0.00,VWS V14.00,2013-07-13 19:18:00,
2013-07-13 15:19:00,74.8,0.0,30.27,SE,128,0.0,7.3,0,0.00,,---,0.00,VWS V14.00,2013-07-13 19:19:00,
2013-07-13 15:20:00,74.9,0.0,30.27,ESE,117,2.8,7.6,0,0.00,,---,0.00,VWS V14.00,2013-07-13 19:20:00,
2013-07-13 15:21:00,75.1,0.0,30.27,NE,45,6.6,7.6,0,0.00,,---,0.00,VWS V14.00,2013-07-13 19:21:00,
2013-07-13 15:22:00,75.0,0.0,30.27,ESE,103,4.2,7.6,0,0.00,,---,0.00,VWS V14.00,2013-07-13 19:22:00,
2013-07-13 15:23:00,74.7,0.0,30.27,NE,37,1.6,7.6,0,0.00,,---,0.00,VWS V14.00,2013-07-13 19:23:00,
2013-07-13 15:24:00,74.9,0.0,30.27,ENE,70,0.0,7.6,0,0.00,,---,0.00,VWS V14.00,2013-07-13 19:24:00,
2013-07-13 15:25:00,75.1,0.0,30.27,NE,34,3.5,7.2,0,0.00,,---,0.00,VWS V14.00,2013-07-13 19:25:00,
2013-07-13 15:26:00,75.4,0.0,30.27,NE,34,0.0,7.2,0,0.00,,---,0.00,VWS V14.00,2013-07-13 19:26:00,
2013-07-13 15:27:00,75.4,0.0,30.27,ESE,122,0.0,7.2,0,0.00,,---,0.00,VWS V14.00,2013-07-13 19:27:00,
2013-07-13 15:28:00,75.7,0.0,30.27,ENE,63,0.0,7.2,0,0.00,,---,0.00,VWS V14.00,2013-07-13 19:28:00,
2013-07-13 15:29:00,75.4,0.0,30.28,SE,138,1.7,7.2,0,0.00,,---,0.00,VWS V14.00,2013-07-13 19:29:00,
2013-07-13 15:30:00,75.3,0.0,30.28,ENE,58,3.4,5.5,0,0.00,,---,0.00,VWS V14.00,2013-07-13 19:30:00,
2013-07-13 15:31:00,75.2,0.0,30.28,ENE,66,0.0,5.5,0,0.00,,---,0.00,VWS V14.00,2013-07-13 19:31:00,
2013-07-13 15:32:00,75.3,0.0,30.28,NE,55,0.0,5.5,0,0.00,,---,0.00,VWS V14.00,2013-07-13 19:32:00,
2013-07-13 15:33:00,75.3,0.0,30.28,NE,35,0.0,5.5,0,0.00,,---,0.00,VWS V14.00,2013-07-13 19:33:00,
2013-07-13 15:34:00,75.3,0.0,30.28,NE,35,0.0,5.5,0,0.00,,---,0.00,VWS V14.00,2013-07-13 19:34:00,
2013-07-13 15:35:00,75.5,0.0,30.27,NE,35,0.0,5.5,0,0.00,,---,0.00,VWS V14.00,2013-07-13 19:35:00,
2013-07-13 15:36:00,75.5,0.0,30.28,ESE,117,6.9,6.9,0,0.00,,---,0.00,VWS V14.00,2013-07-13 19:36:00,
2013-07-13 15:37:00,75.3,0.0,30.27,East,86,3.4,5.7,0,0.00,,---,0.00,VWS V14.00,2013-07-13 19:37:00,
2013-07-13 15:38:00,75.4,0.0,30.27,ESE,105,2.4,5.7,0,0.00,,---,0.00,VWS V14.00,2013-07-13 19:38:00,
2013-07-13 15:39:00,74.8,0.0,30.27,ESE,111,4.5,5.7,0,0.00,,---,0.00,VWS V14.00,2013-07-13 19:39:00,
2013-07-13 15:40:00,74.3,0.0,30.27,East,82,0.0,7.3,0,0.00,,---,0.00,VWS V14.00,2013-07-13 19:40:00,
2013-07-13 15:41:00,74.6,0.0,30.28,East,100,0.0,7.3,0,0.00,,---,0.00,VWS V14.00,2013-07-13 19:41:00,
2013-07-13 15:42:00,74.7,0.0,30.28,ESE,110,5.1,7.3,0,0.00,,---,0.00,VWS V14.00,2013-07-13 19:42:00,
2013-07-13 15:43:00,74.2,0.0,30.27,ENE,65,3.4,7.3,0,0.00,,---,0.00,VWS V14.00,2013-07-13 19:43:00,
2013-07-13 15:44:00,74.4,0.0,30.27,East,98,6.1,7.3,0,0.00,,---,0.00,VWS V14.00,2013-07-13 19:44:00,
2013-07-13 15:45:00,74.7,0.0,30.27,ENE,59,3.4,7.8,0,0.00,,---,0.00,VWS V14.00,2013-07-13 19:45:00,
2013-07-13 15:46:00,75.0,0.0,30.28,NE,41,0.0,7.8,0,0.00,,---,0.00,VWS V14.00,2013-07-13 19:46:00,
2013-07-13 15:47:00,75.0,0.0,30.28,NE,41,0.0,7.8,0,0.00,,---,0.00,VWS V14.00,2013-07-13 19:47:00,
2013-07-13 15:48:00,75.0,0.0,30.28,NNE,25,5.3,7.8,0,0.00,,---,0.00,VWS V14.00,2013-07-13 19:48:00,
2013-07-13 15:49:00,74.9,0.0,30.28,ENE,58,1.2,7.8,0,0.00,,---,0.00,VWS V14.00,2013-07-13 19:49:00,
2013-07-13 15:50:00,74.7,0.0,30.28,East,79,0.0,6.7,0,0.00,,---,0.00,VWS V14.00,2013-07-13 19:50:00,
2013-07-13 15:51:00,74.3,0.0,30.28,NE,45,5.5,6.7,0,0.00,,---,0.00,VWS V14.00,2013-07-13 19:51:00,
2013-07-13 15:52:00,74.0,0.0,30.28,ENE,72,0.0,6.7,0,0.00,,---,0.00,VWS V14.00,2013-07-13 19:52:00,
2013-07-13 15:53:00,74.1,0.0,30.28,ESE,120,3.4,6.7,0,0.00,,---,0.00,VWS V14.00,2013-07-13 19:53:00,
2013-07-13 15:54:00,74.3,0.0,30.28,ESE,120,0.0,6.7,0,0.00,,---,0.00,VWS V14.00,2013-07-13 19:54:00,
2013-07-13 15:55:00,74.6,0.0,30.28,SSE,152,6.3,8.4,0,0.00,,---,0.00,VWS V14.00,2013-07-13 19:55:00,
2013-07-13 15:56:00,74.2,0.0,30.28,SE,124,0.0,8.4,0,0.00,,---,0.00,VWS V14.00,2013-07-13 19:56:00,
2013-07-13 15:57:00,74.0,0.0,30.28,NE,44,3.4,8.4,0,0.00,,---,0.00,VWS V14.00,2013-07-13 19:57:00,
2013-07-13 15:58:00,74.3,0.0,30.28,SE,141,4.8,8.4,0,0.00,,---,0.00,VWS V14.00,2013-07-13 19:58:00,
2013-07-13 15:59:00,74.7,0.0,30.28,SE,131,3.2,8.4,0,0.00,,---,0.00,VWS V14.00,2013-07-13 19:59:00,
2013-07-13 16:00:00,74.4,0.0,30.28,South,174,0.0,7.0,0,0.00,,---,0.00,VWS V14.00,2013-07-13 20:00:00,
2013-07-13 16:01:00,73.1,0.0,30.28,East,87,0.0,7.0,0,0.00,,---,0.00,VWS V14.00,2013-07-13 20:01:00,
2013-07-13 16:02:00,72.8,0.0,30.28,East,80,4.2,7.0,0,0.00,,---,0.00,VWS V14.00,2013-07-13 20:02:00,
2013-07-13 16:03:00,72.6,0.0,30.27,East,96,0.0,7.0,0,0.00,,---,0.00,VWS V14.00,2013-07-13 20:03:00,
2013-07-13 16:04:00,72.9,0.0,30.28,ESE,114,0.0,7.0,0,0.00,,---,0.00,VWS V14.00,2013-07-13 20:04:00,
2013-07-13 16:05:00,72.7,0.0,30.28,ESE,114,0.0,8.8,0,0.00,,---,0.00,VWS V14.00,2013-07-13 20:05:00,
2013-07-13 16:06:00,72.8,0.0,30.27,ENE,70,4.5,8.8,0,0.00,,---,0.00,VWS V14.00,2013-07-13 20:06:00,
2013-07-13 16:07:00,72.6,0.0,30.28,SE,136,3.4,8.8,0,0.00,,---,0.00,VWS V14.00,2013-07-13 20:07:00,
2013-07-13 16:08:00,72.7,0.0,30.28,SE,136,0.0,8.8,0,0.00,,---,0.00,VWS V14.00,2013-07-13 20:08:00,
2013-07-13 16:09:00,72.4,0.0,30.27,East,90,0.0,8.8,0,0.00,,---,0.00,VWS V14.00,2013-07-13 20:09:00,
2013-07-13 16:10:00,72.6,0.0,30.27,South,176,0.0,7.1,0,0.00,,---,0.00,VWS V14.00,2013-07-13 20:10:00,
2013-07-13 16:11:00,72.6,0.0,30.27,SE,139,2.9,7.1,0,0.00,,---,0.00,VWS V14.00,2013-07-13 20:11:00,
2013-07-13 16:12:00,72.7,0.0,30.27,East,96,4.6,7.1,0,0.00,,---,0.00,VWS V14.00,2013-07-13 20:12:00,
2013-07-13 16:13:00,72.8,0.0,30.27,SE,128,0.0,7.1,0,0.00,,---,0.00,VWS V14.00,2013-07-13 20:13:00,
2013-07-13 16:14:00,72.6,0.0,30.27,SE,127,0.0,7.1,0,0.00,,---,0.00,VWS V14.00,2013-07-13 20:14:00,
2013-07-13 16:15:00,72.7,0.0,30.27,SE,136,6.1,6.6,0,0.00,,---,0.00,VWS V14.00,2013-07-13 20:15:00,
2013-07-13 16:16:00,72.8,0.0,30.27,SE,124,4.8,6.6,0,0.00,,---,0.00,VWS V14.00,2013-07-13 20:16:00,
2013-07-13 16:17:00,72.8,0.0,30.27,ENE,77,5.3,6.6,0,0.00,,---,0.00,VWS V14.00,2013-07-13 20:17:00,
2013-07-13 16:18:00,72.7,0.0,30.27,ESE,104,0.0,6.6,0,0.00,,---,0.00,VWS V14.00,2013-07-13 20:18:00,
2013-07-13 16:19:00,72.9,0.0,30.27,East,80,3.3,6.6,0,0.00,,---,0.00,VWS V14.00,2013-07-13 20:19:00,
2013-07-13 16:20:00,73.1,0.0,30.27,East,89,0.0,6.6,0,0.00,,---,0.00,VWS V14.00,2013-07-13 20:20:00,
2013-07-13 16:21:00,72.9,0.0,30.27,SE,125,2.7,6.6,0,0.00,,---,0.00,VWS V14.00,2013-07-13 20:21:00,
2013-07-13 16:22:00,73.1,0.0,30.27,ESE,104,2.8,6.6,0,0.00,,---,0.00,VWS V14.00,2013-07-13 20:22:00,
2013-07-13 16:23:00,73.0,0.0,30.27,ESE,103,4.3,6.6,0,0.00,,---,0.00,VWS V14.00,2013-07-13 20:23:00,
2013-07-13 16:24:00,73.1,0.0,30.27,East,86,5.2,6.6,0,0.00,,---,0.00,VWS V14.00,2013-07-13 20:24:00,
2013-07-13 16:25:00,73.2,0.0,30.27,SE,129,7.8,8.0,0,0.00,,---,0.00,VWS V14.00,2013-07-13 20:25:00,
2013-07-13 16:26:00,73.4,0.0,30.27,SE,135,7.0,8.0,0,0.00,,---,0.00,VWS V14.00,2013-07-13 20:26:00,
2013-07-13 16:27:00,73.5,0.0,30.27,SSW,207,3.2,8.0,0,0.00,,---,0.00,VWS V14.00,2013-07-13 20:27:00,
2013-07-13 16:28:00,73.5,0.0,30.27,East,100,6.2,8.0,0,0.00,,---,0.00,VWS V14.00,2013-07-13 20:28:00,
2013-07-13 16:29:00,73.5,0.0,30.27,ESE,103,0.0,8.0,0,0.00,,---,0.00,VWS V14.00,2013-07-13 20:29:00,
2013-07-13 16:30:00,73.4,0.0,30.27,East,90,2.9,9.3,0,0.00,,---,0.00,VWS V14.00,2013-07-13 20:30:00,
2013-07-13 16:31:00,73.4,0.0,30.27,East,80,2.8,9.3,0,0.00,,---,0.00,VWS V14.00,2013-07-13 20:31:00,
2013-07-13 16:32:00,73.2,0.0,30.27,ESE,120,5.0,9.3,0,0.00,,---,0.00,VWS V14.00,2013-07-13 20:32:00,
2013-07-13 16:33:00,73.3,0.0,30.27,SE,143,5.5,9.3,0,0.00,,---,0.00,VWS V14.00,2013-07-13 20:33:00,
2013-07-13 16:34:00,72.9,0.0,30.27,SE,129,4.7,9.3,0,0.00,,---,0.00,VWS V14.00,2013-07-13 20:34:00,
2013-07-13 16:35:00,72.4,0.0,30.27,SE,146,4.5,9.3,0,0.00,,---,0.00,VWS V14.00,2013-07-13 20:35:00,
2013-07-13 16:36:00,72.7,0.0,30.27,SSE,153,4.5,8.6,0,0.00,,---,0.00,VWS V14.00,2013-07-13 20:36:00,
2013-07-13 16:37:00,72.6,0.0,30.27,SSE,149,3.0,8.6,0,0.00,,---,0.00,VWS V14.00,2013-07-13 20:37:00,
2013-07-13 16:38:00,72.5,0.0,30.27,SE,141,2.6,8.6,0,0.00,,---,0.00,VWS V14.00,2013-07-13 20:38:00,
2013-07-13 16:39:00,72.5,0.0,30.27,SE,139,3.4,8.6,0,0.00,,---,0.00,VWS V14.00,2013-07-13 20:39:00,
2013-07-13 16:40:00,72.5,0.0,30.27,SSE,162,3.5,8.6,0,0.00,,---,0.00,VWS V14.00,2013-07-13 20:40:00,
2013-07-13 16:41:00,72.5,0.0,30.27,SE,139,5.3,6.6,0,0.00,,---,0.00,VWS V14.00,2013-07-13 20:41:00,
2013-07-13 16:42:00,72.4,0.0,30.26,SE,136,5.3,6.6,0,0.00,,---,0.00,VWS V14.00,2013-07-13 20:42:00,
2013-07-13 16:43:00,72.5,0.0,30.27,East,83,6.2,6.6,0,0.00,,---,0.00,VWS V14.00,2013-07-13 20:43:00,
2013-07-13 16:44:00,72.4,0.0,30.27,ESE,107,4.7,6.6,0,0.00,,---,0.00,VWS V14.00,2013-07-13 20:44:00,
2013-07-13 16:45:00,72.4,0.0,30.27,SSE,163,3.4,8.8,0,0.00,,---,0.00,VWS V14.00,2013-07-13 20:45:00,
2013-07-13 16:46:00,72.4,0.0,30.27,SE,141,6.5,8.8,0,0.00,,---,0.00,VWS V14.00,2013-07-13 20:46:00,
2013-07-13 16:47:00,72.6,0.0,30.26,ESE,118,5.3,8.8,0,0.00,,---,0.00,VWS V14.00,2013-07-13 20:47:00,
2013-07-13 16:48:00,72.6,0.0,30.27,ESE,105,9.1,9.1,0,0.00,,---,0.00,VWS V14.00,2013-07-13 20:48:00,
2013-07-13 16:49:00,72.5,0.0,30.27,SE,128,9.2,9.2,0,0.00,,---,0.00,VWS V14.00,2013-07-13 20:49:00,
2013-07-13 16:50:00,72.4,0.0,30.27,East,84,3.2,10.4,0,0.00,,---,0.00,VWS V14.00,2013-07-13 20:50:00,
2013-07-13 16:51:00,72.1,0.0,30.27,SE,135,3.3,10.4,0,0.00,,---,0.00,VWS V14.00,2013-07-13 20:51:00,
2013-07-13 16:52:00,72.0,0.0,30.27,SSE,155,3.5,10.4,0,0.00,,---,0.00,VWS V14.00,2013-07-13 20:52:00,
2013-07-13 16:53:00,72.1,0.0,30.27,ESE,114,7.3,10.4,0,0.00,,---,0.00,VWS V14.00,2013-07-13 20:53:00,
2013-07-13 16:54:00,72.3,0.0,30.27,ENE,58,5.0,10.4,0,0.00,,---,0.00,VWS V14.00,2013-07-13 20:54:00,
2013-07-13 16:55:00,72.2,0.0,30.27,SSE,152,6.3,8.7,0,0.00,,---,0.00,VWS V14.00,2013-07-13 20:55:00,
2013-07-13 16:56:00,72.0,0.0,30.26,SE,129,6.3,8.7,0,0.00,,---,0.00,VWS V14.00,2013-07-13 20:56:00,
2013-07-13 16:57:00,71.7,0.0,30.26,SE,129,3.0,8.7,0,0.00,,---,0.00,VWS V14.00,2013-07-13 20:57:00,
2013-07-13 16:58:00,71.6,0.0,30.26,ESE,104,0.0,8.7,0,0.00,,---,0.00,VWS V14.00,2013-07-13 20:58:00,
2013-07-13 16:59:00,71.8,0.0,30.27,SSE,159,3.0,8.7,0,0.00,,---,0.00,VWS V14.00,2013-07-13 20:59:00,
2013-07-13 17:00:00,71.6,0.0,30.27,SSE,165,3.4,9.0,0,0.00,,---,0.00,VWS V14.00,2013-07-13 21:00:00,
2013-07-13 17:01:00,71.5,0.0,30.27,ENE,70,3.3,9.0,0,0.00,,---,0.00,VWS V14.00,2013-07-13 21:01:00,
2013-07-13 17:02:00,71.5,0.0,30.27,SE,132,3.4,9.0,0,0.00,,---,0.00,VWS V14.00,2013-07-13 21:02:00,
2013-07-13 17:03:00,71.5,0.0,30.27,SE,131,4.7,9.0,0,0.00,,---,0.00,VWS V14.00,2013-07-13 21:03:00,
2013-07-13 17:04:00,71.7,0.0,30.27,SE,125,2.7,9.0,0,0.00,,---,0.00,VWS V14.00,2013-07-13 21:04:00,
2013-07-13 17:05:00,71.6,0.0,30.27,SSE,162,6.0,6.7,0,0.00,,---,0.00,VWS V14.00,2013-07-13 21:05:00,
2013-07-13 17:06:00,71.5,0.0,30.27,SSE,166,5.5,6.7,0,0.00,,---,0.00,VWS V14.00,2013-07-13 21:06:00,
2013-07-13 17:07:00,71.5,0.0,30.27,East,80,2.6,6.7,0,0.00,,---,0.00,VWS V14.00,2013-07-13 21:07:00,
2013-07-13 17:08:00,71.5,0.0,30.27,SE,136,3.3,6.7,0,0.00,,---,0.00,VWS V14.00,2013-07-13 21:08:00,
2013-07-13 17:09:00,71.5,0.0,30.27,East,100,4.7,6.7,0,0.00,,---,0.00,VWS V14.00,2013-07-13 21:09:00,
2013-07-13 17:10:00,71.4,0.0,30.27,ESE,104,0.0,7.5,0,0.00,,---,0.00,VWS V14.00,2013-07-13 21:10:00,
2013-07-13 17:11:00,71.5,0.0,30.27,SSE,148,5.2,7.5,0,0.00,,---,0.00,VWS V14.00,2013-07-13 21:11:00,
2013-07-13 17:12:00,71.5,0.0,30.27,SSE,149,5.1,7.5,0,0.00,,---,0.00,VWS V14.00,2013-07-13 21:12:00,
2013-07-13 17:13:00,71.5,0.0,30.27,SE,139,3.2,7.5,0,0.00,,---,0.00,VWS V14.00,2013-07-13 21:13:00,
2013-07-13 17:14:00,71.4,0.0,30.27,South,176,3.3,7.5,0,0.00,,---,0.00,VWS V14.00,2013-07-13 21:14:00,
2013-07-13 17:15:00,71.3,0.0,30.27,East,94,0.0,7.1,0,0.00,,---,0.00,VWS V14.00,2013-07-13 21:15:00,
2013-07-13 17:16:00,71.0,0.0,30.27,SE,135,4.2,7.1,0,0.00,,---,0.00,VWS V14.00,2013-07-13 21:16:00,
2013-07-13 17:17:00,71.0,0.0,30.27,ESE,110,0.0,7.1,0,0.00,,---,0.00,VWS V14.00,2013-07-13 21:17:00,
2013-07-13 17:18:00,71.5,0.0,30.27,SSE,149,2.4,7.1,0,0.00,,---,0.00,VWS V14.00,2013-07-13 21:18:00,
2013-07-13 17:19:00,71.2,0.0,30.27,SE,143,4.4,7.1,0,0.00,,---,0.00,VWS V14.00,2013-07-13 21:19:00,
2013-07-13 17:20:00,71.0,0.0,30.27,ESE,110,2.9,5.8,0,0.00,,---,0.00,VWS V14.00,2013-07-13 21:20:00,
2013-07-13 17:21:00,71.0,0.0,30.27,ENE,68,0.0,5.8,0,0.00,,---,0.00,VWS V14.00,2013-07-13 21:21:00,
2013-07-13 17:22:00,71.0,0.0,30.27,SE,134,3.2,5.8,0,0.00,,---,0.00,VWS V14.00,2013-07-13 21:22:00,
2013-07-13 17:23:00,71.0,0.0,30.27,ENE,70,0.0,5.8,0,0.00,,---,0.00,VWS V14.00,2013-07-13 21:23:00,
2013-07-13 17:24:00,71.2,0.0,30.27,SE,143,2.9,5.8,0,0.00,,---,0.00,VWS V14.00,2013-07-13 21:24:00,
2013-07-13 17:25:00,71.2,0.0,30.27,East,101,1.6,6.3,0,0.00,,---,0.00,VWS V14.00,2013-07-13 21:25:00,
2013-07-13 17:26:00,71.2,0.0,30.27,East,101,0.0,6.3,0,0.00,,---,0.00,VWS V14.00,2013-07-13 21:26:00,
2013-07-13 17:27:00,71.1,0.0,30.27,East,101,0.0,6.3,0,0.00,,---,0.00,VWS V14.00,2013-07-13 21:27:00,
2013-07-13 17:28:00,71.1,0.0,30.27,SE,128,3.2,6.3,0,0.00,,---,0.00,VWS V14.00,2013-07-13 21:28:00,
2013-07-13 17:29:00,71.3,0.0,30.27,NE,44,0.0,6.3,0,0.00,,---,0.00,VWS V14.00,2013-07-13 21:29:00,
2013-07-13 17:30:00,70.9,0.0,30.27,SE,143,2.9,5.8,0,0.00,,---,0.00,VWS V14.00,2013-07-13 21:30:00,
2013-07-13 17:31:00,71.2,0.0,30.27,SE,128,3.0,5.8,0,0.00,,---,0.00,VWS V14.00,2013-07-13 21:31:00,
2013-07-13 17:32:00,71.4,0.0,30.27,ESE,111,3.4,5.8,0,0.00,,---,0.00,VWS V14.00,2013-07-13 21:32:00,
2013-07-13 17:33:00,71.5,0.0,30.27,ESE,118,0.0,5.8,0,0.00,,---,0.00,VWS V14.00,2013-07-13 21:33:00,
2013-07-13 17:34:00,71.3,0.0,30.27,ESE,118,0.0,5.8,0,0.00,,---,0.00,VWS V14.00,2013-07-13 21:34:00,
2013-07-13 17:35:00,71.3,0.0,30.27,ESE,118,0.0,5.9,0,0.00,,---,0.00,VWS V14.00,2013-07-13 21:35:00,
2013-07-13 17:36:00,71.0,0.0,30.27,East,101,0.0,5.9,0,0.00,,---,0.00,VWS V14.00,2013-07-13 21:36:00,
2013-07-13 17:37:00,70.9,0.0,30.27,East,101,0.0,5.9,0,0.00,,---,0.00,VWS V14.00,2013-07-13 21:37:00,
2013-07-13 17:38:00,70.9,0.0,30.27,East,101,0.0,5.9,0,0.00,,---,0.00,VWS V14.00,2013-07-13 21:38:00,
2013-07-13 17:39:00,70.8,0.0,30.27,East,101,0.0,5.9,0,0.00,,---,0.00,VWS V14.00,2013-07-13 21:39:00,
2013-07-13 17:40:00,70.7,0.0,30.27,SE,132,4.7,5.9,0,0.00,,---,0.00,VWS V14.00,2013-07-13 21:40:00,
2013-07-13 17:41:00,70.5,0.0,30.27,East,82,2.9,5.0,0,0.00,,---,0.00,VWS V14.00,2013-07-13 21:41:00,
2013-07-13 17:42:00,70.5,0.0,30.27,ESE,118,0.0,5.0,0,0.00,,---,0.00,VWS V14.00,2013-07-13 21:42:00,
2013-07-13 17:43:00,70.7,0.0,30.27,ESE,118,0.0,5.0,0,0.00,,---,0.00,VWS V14.00,2013-07-13 21:43:00,
2013-07-13 17:44:00,70.6,0.0,30.27,ESE,118,0.0,5.0,0,0.00,,---,0.00,VWS V14.00,2013-07-13 21:44:00,
2013-07-13 17:45:00,70.5,0.0,30.27,ESE,118,0.0,5.0,0,0.00,,---,0.00,VWS V14.00,2013-07-13 21:45:00,
2013-07-13 17:46:00,70.6,0.0,30.27,ESE,118,0.0,5.6,0,0.00,,---,0.00,VWS V14.00,2013-07-13 21:46:00,
2013-07-13 17:47:00,70.7,0.0,30.27,SE,142,2.6,5.6,0,0.00,,---,0.00,VWS V14.00,2013-07-13 21:47:00,
2013-07-13 17:48:00,70.7,0.0,30.27,SSE,153,4.8,5.6,0,0.00,,---,0.00,VWS V14.00,2013-07-13 21:48:00,
2013-07-13 17:49:00,70.6,0.0,30.27,SSE,152,3.3,5.6,0,0.00,,---,0.00,VWS V14.00,2013-07-13 21:49:00,
2013-07-13 17:50:00,70.6,0.0,30.27,SE,141,0.0,5.8,0,0.00,,---,0.00,VWS V14.00,2013-07-13 21:50:00,
2013-07-13 17:51:00,70.5,0.0,30.27,SE,141,0.0,5.8,0,0.00,,---,0.00,VWS V14.00,2013-07-13 21:51:00,
2013-07-13 17:52:00,70.5,0.0,30.27,SE,141,0.0,5.8,0,0.00,,---,0.00,VWS V14.00,2013-07-13 21:52:00,
2013-07-13 17:53:00,70.5,0.0,30.27,SE,141,0.0,5.8,0,0.00,,---,0.00,VWS V14.00,2013-07-13 21:53:00,
2013-07-13 17:54:00,70.5,0.0,30.27,SE,141,0.0,5.8,0,0.00,,---,0.00,VWS V14.00,2013-07-13 21:54:00,
2013-07-13 17:55:00,70.4,0.0,30.27,SE,141,0.0,0.0,0,0.00,,---,0.00,VWS V14.00,2013-07-13 21:55:00,
2013-07-13 17:56:00,70.5,0.0,30.27,SE,141,0.0,0.0,0,0.00,,---,0.00,VWS V14.00,2013-07-13 21:56:00,
2013-07-13 17:57:00,70.4,0.0,30.27,SE,141,0.0,0.0,0,0.00,,---,0.00,VWS V14.00,2013-07-13 21:57:00,
2013-07-13 17:58:00,70.4,0.0,30.27,SE,141,0.0,0.0,0,0.00,,---,0.00,VWS V14.00,2013-07-13 21:58:00,
2013-07-13 17:59:00,70.1,0.0,30.27,SSE,162,4.4,0.0,0,0.00,,---,0.00,VWS V14.00,2013-07-13 21:59:00,
2013-07-13 18:00:00,69.7,0.0,30.27,SSE,166,5.5,6.3,0,0.00,,---,0.00,VWS V14.00,2013-07-13 22:00:00,
2013-07-13 18:01:00,69.5,0.0,30.27,SSE,159,5.2,6.3,0,0.00,,---,0.00,VWS V14.00,2013-07-13 22:01:00,
2013-07-13 18:02:00,69.4,0.0,30.28,SE,132,2.7,6.3,0,0.00,,---,0.00,VWS V14.00,2013-07-13 22:02:00,
2013-07-13 18:03:00,69.4,0.0,30.27,SSE,156,0.0,6.3,0,0.00,,---,0.00,VWS V14.00,2013-07-13 22:03:00,
2013-07-13 18:04:00,69.4,0.0,30.27,SSE,148,2.9,6.3,0,0.00,,---,0.00,VWS V14.00,2013-07-13 22:04:00,
2013-07-13 18:05:00,69.5,0.0,30.28,South,172,5.0,6.0,0,0.00,,---,0.00,VWS V14.00,2013-07-13 22:05:00,
2013-07-13 18:06:00,69.4,0.0,30.28,SSE,166,4.3,6.0,0,0.00,,---,0.00,VWS V14.00,2013-07-13 22:06:00,
2013-07-13 18:07:00,69.5,0.0,30.28,South,186,5.9,6.0,0,0.00,,---,0.00,VWS V14.00,2013-07-13 22:07:00,
2013-07-13 18:08:00,69.2,0.0,30.28,SSE,152,4.5,6.0,0,0.00,,---,0.00,VWS V14.00,2013-07-13 22:08:00,
2013-07-13 18:09:00,69.5,0.0,30.28,South,179,0.0,6.0,0,0.00,,---,0.00,VWS V14.00,2013-07-13 22:09:00,
2013-07-13 18:10:00,69.4,0.0,30.28,South,179,0.0,7.0,0,0.00,,---,0.00,VWS V14.00,2013-07-13 22:10:00,
2013-07-13 18:11:00,69.5,0.0,30.28,South,188,0.0,7.0,0,0.00,,---,0.00,VWS V14.00,2013-07-13 22:11:00,
2013-07-13 18:12:00,69.4,0.0,30.28,South,169,3.2,7.0,0,0.00,,---,0.00,VWS V14.00,2013-07-13 22:12:00,
2013-07-13 18:13:00,69.4,0.0,30.28,ESE,122,2.3,7.0,0,0.00,,---,0.00,VWS V14.00,2013-07-13 22:13:00,
2013-07-13 18:14:00,69.7,0.0,30.28,SSE,153,3.2,7.0,0,0.00,,---,0.00,VWS V14.00,2013-07-13 22:14:00,
2013-07-13 18:15:00,69.9,0.0,30.28,SE,124,3.4,6.2,0,0.00,,---,0.00,VWS V14.00,2013-07-13 22:15:00,
2013-07-13 18:16:00,70.1,0.0,30.28,SE,143,0.0,6.2,0,0.00,,---,0.00,VWS V14.00,2013-07-13 22:16:00,
2013-07-13 18:17:00,70.1,0.0,30.28,SE,143,0.0,6.2,0,0.00,,---,0.00,VWS V14.00,2013-07-13 22:17:00,
2013-07-13 18:18:00,70.3,0.0,30.28,SE,143,0.0,6.2,0,0.00,,---,0.00,VWS V14.00,2013-07-13 22:18:00,
2013-07-13 18:19:00,70.1,0.0,30.28,SE,143,0.0,6.2,0,0.00,,---,0.00,VWS V14.00,2013-07-13 22:19:00,
2013-07-13 18:20:00,69.5,0.0,30.28,SE,143,0.0,3.4,0,0.00,,---,0.00,VWS V14.00,2013-07-13 22:20:00,
2013-07-13 18:21:00,69.5,0.0,30.28,SE,143,0.0,3.4,0,0.00,,---,0.00,VWS V14.00,2013-07-13 22:21:00,
2013-07-13 18:22:00,69.3,0.0,30.28,SE,143,0.0,3.4,0,0.00,,---,0.00,VWS V14.00,2013-07-13 22:22:00,
2013-07-13 18:23:00,69.5,0.0,30.28,SE,143,0.0,3.4,0,0.00,,---,0.00,VWS V14.00,2013-07-13 22:23:00,
2013-07-13 18:24:00,69.5,0.0,30.28,SE,143,0.0,3.4,0,0.00,,---,0.00,VWS V14.00,2013-07-13 22:24:00,
2013-07-13 18:25:00,69.4,0.0,30.28,SE,143,0.0,0.0,0,0.00,,---,0.00,VWS V14.00,2013-07-13 22:25:00,
2013-07-13 18:26:00,69.5,0.0,30.28,SE,143,0.0,0.0,0,0.00,,---,0.00,VWS V14.00,2013-07-13 22:26:00,
2013-07-13 18:27:00,69.4,0.0,30.28,South,170,4.9,0.0,0,0.00,,---,0.00,VWS V14.00,2013-07-13 22:27:00,
2013-07-13 18:28:00,69.2,0.0,30.28,SSE,167,5.3,0.0,0,0.00,,---,0.00,VWS V14.00,2013-07-13 22:28:00,
2013-07-13 18:29:00,69.1,0.0,30.28,SSE,162,6.6,0.0,0,0.00,,---,0.00,VWS V14.00,2013-07-13 22:29:00,
2013-07-13 18:30:00,68.8,0.0,30.28,SSE,155,5.1,7.3,0,0.00,,---,0.00,VWS V14.00,2013-07-13 22:30:00,
2013-07-13 18:31:00,69.0,0.0,30.28,South,169,4.3,7.3,0,0.00,,---,0.00,VWS V14.00,2013-07-13 22:31:00,
2013-07-13 18:32:00,69.1,0.0,30.28,South,177,2.9,7.3,0,0.00,,---,0.00,VWS V14.00,2013-07-13 22:32:00,
2013-07-13 18:33:00,69.1,0.0,30.28,SE,128,3.4,7.3,0,0.00,,---,0.00,VWS V14.00,2013-07-13 22:33:00,
2013-07-13 18:34:00,69.0,0.0,30.28,South,181,4.5,7.3,0,0.00,,---,0.00,VWS V14.00,2013-07-13 22:34:00,
2013-07-13 18:35:00,69.0,0.0,30.28,South,172,4.8,7.0,0,0.00,,---,0.00,VWS V14.00,2013-07-13 22:35:00,
2013-07-13 18:36:00,68.9,0.0,30.28,South,176,3.4,7.0,0,0.00,,---,0.00,VWS V14.00,2013-07-13 22:36:00,
2013-07-13 18:37:00,68.7,0.0,30.28,South,172,5.4,7.0,0,0.00,,---,0.00,VWS V14.00,2013-07-13 22:37:00,
2013-07-13 18:38:00,68.7,0.0,30.28,SSE,166,4.7,7.0,0,0.00,,---,0.00,VWS V14.00,2013-07-13 22:38:00,
2013-07-13 18:39:00,68.8,0.0,30.28,SSE,158,4.4,7.0,0,0.00,,---,0.00,VWS V14.00,2013-07-13 22:39:00,
2013-07-13 18:40:00,68.7,0.0,30.28,SSE,165,6.1,7.0,0,0.00,,---,0.00,VWS V14.00,2013-07-13 22:40:00,
2013-07-13 18:41:00,68.7,0.0,30.28,South,180,5.2,7.0,0,0.00,,---,0.00,VWS V14.00,2013-07-13 22:41:00,
2013-07-13 18:42:00,68.8,0.0,30.28,South,169,3.5,7.0,0,0.00,,---,0.00,VWS V14.00,2013-07-13 22:42:00,
2013-07-13 18:43:00,68.7,0.0,30.28,SSW,200,3.2,7.0,0,0.00,,---,0.00,VWS V14.00,2013-07-13 22:43:00,
2013-07-13 18:44:00,68.6,0.0,30.28,SSE,163,6.3,7.0,0,0.00,,---,0.00,VWS V14.00,2013-07-13 22:44:00,
2013-07-13 18:45:00,68.4,0.0,30.28,SSE,165,5.8,7.0,0,0.00,,---,0.00,VWS V14.00,2013-07-13 22:45:00,
2013-07-13 18:46:00,68.5,0.0,30.28,South,177,4.5,7.4,0,0.00,,---,0.00,VWS V14.00,2013-07-13 22:46:00,
2013-07-13 18:47:00,68.7,0.0,30.28,South,190,1.1,7.4,0,0.00,,---,0.00,VWS V14.00,2013-07-13 22:47:00,
2013-07-13 18:48:00,68.9,0.0,30.28,South,181,0.0,7.4,0,0.00,,---,0.00,VWS V14.00,2013-07-13 22:48:00,
2013-07-13 18:49:00,68.8,0.0,30.28,South,187,2.9,7.4,0,0.00,,---,0.00,VWS V14.00,2013-07-13 22:49:00,
2013-07-13 18:50:00,68.8,0.0,30.27,SSE,163,3.5,7.1,0,0.00,,---,0.00,VWS V14.00,2013-07-13 22:50:00,
2013-07-13 18:51:00,68.9,0.0,30.27,South,176,0.0,7.1,0,0.00,,---,0.00,VWS V14.00,2013-07-13 22:51:00,
2013-07-13 18:52:00,69.0,0.0,30.27,SSE,150,3.4,7.1,0,0.00,,---,0.00,VWS V14.00,2013-07-13 22:52:00,
2013-07-13 18:53:00,68.7,0.0,30.27,South,177,3.4,7.1,0,0.00,,---,0.00,VWS V14.00,2013-07-13 22:53:00,
2013-07-13 18:54:00,68.6,0.0,30.27,South,179,5.6,7.1,0,0.00,,---,0.00,VWS V14.00,2013-07-13 22:54:00,
2013-07-13 18:55:00,68.4,0.0,30.27,South,181,3.3,7.3,0,0.00,,---,0.00,VWS V14.00,2013-07-13 22:55:00,
2013-07-13 18:56:00,68.6,0.0,30.28,SSE,167,3.4,7.3,0,0.00,,---,0.00,VWS V14.00,2013-07-13 22:56:00,
2013-07-13 18:57:00,68.6,0.0,30.28,South,169,2.8,7.3,0,0.00,,---,0.00,VWS V14.00,2013-07-13 22:57:00,
2013-07-13 18:58:00,68.7,0.0,30.28,SSE,152,0.0,7.3,0,0.00,,---,0.00,VWS V14.00,2013-07-13 22:58:00,
2013-07-13 18:59:00,69.0,0.0,30.27,SSE,166,3.2,7.3,0,0.00,,---,0.00,VWS V14.00,2013-07-13 22:59:00,
2013-07-13 19:00:00,69.0,0.0,30.27,SSE,158,4.3,6.8,0,0.00,,---,0.00,VWS V14.00,2013-07-13 23:00:00,
2013-07-13 19:01:00,68.8,0.0,30.27,SSE,163,0.0,6.8,0,0.00,,---,0.00,VWS V14.00,2013-07-13 23:01:00,
2013-07-13 19:02:00,68.7,0.0,30.27,SSE,162,0.0,6.8,0,0.00,,---,0.00,VWS V14.00,2013-07-13 23:02:00,
2013-07-13 19:03:00,68.8,0.0,30.28,South,170,2.9,6.8,0,0.00,,---,0.00,VWS V14.00,2013-07-13 23:03:00,
2013-07-13 19:04:00,68.6,0.0,30.28,SE,128,3.4,6.8,0,0.00,,---,0.00,VWS V14.00,2013-07-13 23:04:00,
2013-07-13 19:05:00,68.5,0.0,30.28,SSE,160,0.0,5.3,0,0.00,,---,0.00,VWS V14.00,2013-07-13 23:05:00,
2013-07-13 19:06:00,68.6,0.0,30.28,SSE,160,0.0,5.3,0,0.00,,---,0.00,VWS V14.00,2013-07-13 23:06:00,
2013-07-13 19:07:00,68.9,0.0,30.28,SSE,160,0.0,5.3,0,0.00,,---,0.00,VWS V14.00,2013-07-13 23:07:00,
2013-07-13 19:08:00,69.0,0.0,30.28,SSE,160,0.0,5.3,0,0.00,,---,0.00,VWS V14.00,2013-07-13 23:08:00,
2013-07-13 19:09:00,68.7,0.0,30.28,SSE,160,0.0,5.3,0,0.00,,---,0.00,VWS V14.00,2013-07-13 23:09:00,
2013-07-13 19:10:00,68.5,0.0,30.28,SSE,158,4.7,5.2,0,0.00,,---,0.00,VWS V14.00,2013-07-13 23:10:00,
2013-07-13 19:11:00,68.5,0.0,30.28,South,180,3.0,5.2,0,0.00,,---,0.00,VWS V14.00,2013-07-13 23:11:00,
2013-07-13 19:12:00,68.5,0.0,30.28,South,180,0.0,5.2,0,0.00,,---,0.00,VWS V14.00,2013-07-13 23:12:00,
2013-07-13 19:13:00,68.6,0.0,30.28,South,180,0.0,5.2,0,0.00,,---,0.00,VWS V14.00,2013-07-13 23:13:00,
2013-07-13 19:14:00,68.8,0.0,30.28,SSW,195,2.2,5.2,0,0.00,,---,0.00,VWS V14.00,2013-07-13 23:14:00,
2013-07-13 19:15:00,68.7,0.0,30.28,SSE,158,0.0,5.5,0,0.00,,---,0.00,VWS V14.00,2013-07-13 23:15:00,
2013-07-13 19:16:00,68.6,0.0,30.28,SSE,158,0.0,5.5,0,0.00,,---,0.00,VWS V14.00,2013-07-13 23:16:00,
2013-07-13 19:17:00,68.5,0.0,30.28,SSW,193,4.3,5.5,0,0.00,,---,0.00,VWS V14.00,2013-07-13 23:17:00,
2013-07-13 19:18:00,68.5,0.0,30.28,SSE,159,0.0,5.5,0,0.00,,---,0.00,VWS V14.00,2013-07-13 23:18:00,
2013-07-13 19:19:00,68.5,0.0,30.28,SE,141,2.5,5.5,0,0.00,,---,0.00,VWS V14.00,2013-07-13 23:19:00,
2013-07-13 19:20:00,68.6,0.0,30.28,SE,141,0.0,4.5,0,0.00,,---,0.00,VWS V14.00,2013-07-13 23:20:00,
2013-07-13 19:21:00,68.6,0.0,30.28,South,169,3.0,4.5,0,0.00,,---,0.00,VWS V14.00,2013-07-13 23:21:00,
2013-07-13 19:22:00,68.5,0.0,30.28,South,174,2.6,4.5,0,0.00,,---,0.00,VWS V14.00,2013-07-13 23:22:00,
2013-07-13 19:23:00,68.4,0.0,30.28,SSW,211,0.0,4.5,0,0.00,,---,0.00,VWS V14.00,2013-07-13 23:23:00,
2013-07-13 19:24:00,68.3,0.0,30.28,SSW,211,0.0,4.5,0,0.00,,---,0.00,VWS V14.00,2013-07-13 23:24:00,
2013-07-13 19:25:00,68.4,0.0,30.28,SSW,211,0.0,4.7,0,0.00,,---,0.00,VWS V14.00,2013-07-13 23:25:00,
2013-07-13 19:26:00,68.4,0.0,30.28,SSW,211,0.0,4.7,0,0.00,,---,0.00,VWS V14.00,2013-07-13 23:26:00,
2013-07-13 19:27:00,68.4,0.0,30.28,SSW,202,3.3,4.7,0,0.00,,---,0.00,VWS V14.00,2013-07-13 23:27:00,
2013-07-13 19:28:00,68.5,0.0,30.28,South,172,0.0,4.7,0,0.00,,---,0.00,VWS V14.00,2013-07-13 23:28:00,
2013-07-13 19:29:00,68.4,0.0,30.28,South,172,0.0,4.7,0,0.00,,---,0.00,VWS V14.00,2013-07-13 23:29:00,
2013-07-13 19:30:00,68.5,0.0,30.28,South,172,0.0,3.4,0,0.00,,---,0.00,VWS V14.00,2013-07-13 23:30:00,
2013-07-13 19:31:00,68.6,0.0,30.28,South,179,3.0,3.4,0,0.00,,---,0.00,VWS V14.00,2013-07-13 23:31:00,
2013-07-13 19:32:00,68.6,0.0,30.28,SSE,155,0.0,3.4,0,0.00,,---,0.00,VWS V14.00,2013-07-13 23:32:00,
2013-07-13 19:33:00,68.5,0.0,30.28,SSE,163,2.7,3.4,0,0.00,,---,0.00,VWS V14.00,2013-07-13 23:33:00,
2013-07-13 19:34:00,68.7,0.0,30.28,South,188,0.0,3.4,0,0.00,,---,0.00,VWS V14.00,2013-07-13 23:34:00,
2013-07-13 19:35:00,68.7,0.0,30.28,South,188,0.0,5.1,0,0.00,,---,0.00,VWS V14.00,2013-07-13 23:35:00,
2013-07-13 19:36:00,68.6,0.0,30.28,South,181,0.0,5.1,0,0.00,,---,0.00,VWS V14.00,2013-07-13 23:36:00,
2013-07-13 19:37:00,68.6,0.0,30.28,SSE,156,3.4,5.1,0,0.00,,---,0.00,VWS V14.00,2013-07-13 23:37:00,
2013-07-13 19:38:00,68.5,0.0,30.28,South,184,3.2,5.1,0,0.00,,---,0.00,VWS V14.00,2013-07-13 23:38:00,
2013-07-13 19:39:00,68.5,0.0,30.28,South,172,1.5,5.1,0,0.00,,---,0.00,VWS V14.00,2013-07-13 23:39:00,
2013-07-13 19:40:00,68.6,0.0,30.28,South,172,3.3,4.2,0,0.00,,---,0.00,VWS V14.00,2013-07-13 23:40:00,
2013-07-13 19:41:00,68.7,0.0,30.28,South,180,0.0,4.2,0,0.00,,---,0.00,VWS V14.00,2013-07-13 23:41:00,
2013-07-13 19:42:00,68.8,0.0,30.28,South,180,0.0,4.2,0,0.00,,---,0.00,VWS V14.00,2013-07-13 23:42:00,
2013-07-13 19:43:00,68.8,0.0,30.28,South,188,3.2,4.2,0,0.00,,---,0.00,VWS V14.00,2013-07-13 23:43:00,
2013-07-13 19:44:00,68.7,0.0,30.28,South,180,4.3,4.3,0,0.00,,---,0.00,VWS V14.00,2013-07-13 23:44:00,
2013-07-13 19:45:00,68.7,0.0,30.27,SSW,193,3.0,5.3,0,0.00,,---,0.00,VWS V14.00,2013-07-13 23:45:00,
2013-07-13 19:46:00,68.7,0.0,30.28,SSW,200,4.3,5.3,0,0.00,,---,0.00,VWS V14.00,2013-07-13 23:46:00,
2013-07-13 19:47:00,68.7,0.0,30.28,SSW,194,3.2,5.3,0,0.00,,---,0.00,VWS V14.00,2013-07-13 23:47:00,
2013-07-13 19:48:00,68.8,0.0,30.27,SSW,208,0.0,5.3,0,0.00,,---,0.00,VWS V14.00,2013-07-13 23:48:00,
2013-07-13 19:49:00,68.8,0.0,30.27,South,188,3.2,5.3,0,0.00,,---,0.00,VWS V14.00,2013-07-13 23:49:00,
2013-07-13 19:50:00,68.7,0.0,30.27,South,173,0.0,5.3,0,0.00,,---,0.00,VWS V14.00,2013-07-13 23:50:00,
2013-07-13 19:51:00,68.8,0.0,30.27,SSW,201,2.4,5.0,0,0.00,,---,0.00,VWS V14.00,2013-07-13 23:51:00,
2013-07-13 19:52:00,68.8,0.0,30.27,SSW,201,0.0,5.0,0,0.00,,---,0.00,VWS V14.00,2013-07-13 23:52:00,
2013-07-13 19:53:00,68.9,0.0,30.27,SSW,201,3.4,5.0,0,0.00,,---,0.00,VWS V14.00,2013-07-13 23:53:00,
2013-07-13 19:54:00,69.0,0.0,30.27,South,172,4.3,5.0,0,0.00,,---,0.00,VWS V14.00,2013-07-13 23:54:00,
2013-07-13 19:55:00,69.0,0.0,30.27,SSW,208,0.0,4.7,0,0.00,,---,0.00,VWS V14.00,2013-07-13 23:55:00,
2013-07-13 19:56:00,69.1,0.0,30.27,SSE,167,0.0,4.7,0,0.00,,---,0.00,VWS V14.00,2013-07-13 23:56:00,
2013-07-13 19:57:00,69.1,0.0,30.27,SSW,205,0.0,4.7,0,0.00,,---,0.00,VWS V14.00,2013-07-13 23:57:00,
2013-07-13 19:58:00,69.1,0.0,30.27,SSW,205,0.0,4.7,0,0.00,,---,0.00,VWS V14.00,2013-07-13 23:58:00,
2013-07-13 19:59:00,69.2,0.0,30.27,SSW,205,0.0,4.7,0,0.00,,---,0.00,VWS V14.00,2013-07-13 23:59:00,
2013-07-13 20:00:00,69.2,0.0,30.27,SSW,205,0.0,4.3,0,0.00,,---,0.00,VWS V14.00,2013-07-14 00:00:00,
2013-07-13 20:01:00,69.2,0.0,30.27,SSW,205,0.0,4.3,0,0.00,,---,0.00,VWS V14.00,2013-07-14 00:01:00,
2013-07-13 20:02:00,69.2,0.0,30.27,SSW,205,0.0,4.3,0,0.00,,---,0.00,VWS V14.00,2013-07-14 00:02:00,
2013-07-13 20:03:00,69.2,0.0,30.27,SSW,205,0.0,4.3,0,0.00,,---,0.00,VWS V14.00,2013-07-14 00:03:00,
2013-07-13 20:04:00,69.2,0.0,30.27,SSW,205,0.0,4.3,0,0.00,,---,0.00,VWS V14.00,2013-07-14 00:04:00,
2013-07-13 20:05:00,69.2,0.0,30.27,SSW,205,0.0,0.0,0,0.00,,---,0.00,VWS V14.00,2013-07-14 00:05:00,
2013-07-13 20:06:00,69.1,0.0,30.27,SSW,205,0.0,0.0,0,0.00,,---,0.00,VWS V14.00,2013-07-14 00:06:00,
2013-07-13 20:07:00,69.1,0.0,30.27,SSW,205,0.0,0.0,0,0.00,,---,0.00,VWS V14.00,2013-07-14 00:07:00,
2013-07-13 20:08:00,69.1,0.0,30.26,SSW,205,0.0,0.0,0,0.00,,---,0.00,VWS V14.00,2013-07-14 00:08:00,
2013-07-13 20:09:00,69.2,0.0,30.27,SSW,205,0.0,0.0,0,0.00,,---,0.00,VWS V14.00,2013-07-14 00:09:00,
2013-07-13 20:10:00,69.1,0.0,30.26,SSW,205,0.0,0.0,0,0.00,,---,0.00,VWS V14.00,2013-07-14 00:10:00,
2013-07-13 20:11:00,69.0,0.0,30.26,SSW,205,0.0,0.0,0,0.00,,---,0.00,VWS V14.00,2013-07-14 00:11:00,
2013-07-13 20:12:00,69.0,0.0,30.26,SSW,205,0.0,0.0,0,0.00,,---,0.00,VWS V14.00,2013-07-14 00:12:00,
2013-07-13 20:13:00,69.0,0.0,30.26,SSW,205,0.0,0.0,0,0.00,,---,0.00,VWS V14.00,2013-07-14 00:13:00,
2013-07-13 20:14:00,69.0,0.0,30.26,SSW,205,0.0,0.0,0,0.00,,---,0.00,VWS V14.00,2013-07-14 00:14:00,
2013-07-13 20:15:00,69.0,0.0,30.26,SSW,205,0.0,0.0,0,0.00,,---,0.00,VWS V14.00,2013-07-14 00:15:00,
2013-07-13 20:16:00,69.1,0.0,30.26,SSW,205,0.0,0.0,0,0.00,,---,0.00,VWS V14.00,2013-07-14 00:16:00,
2013-07-13 20:17:00,69.1,0.0,30.26,SSW,205,0.0,0.0,0,0.00,,---,0.00,VWS V14.00,2013-07-14 00:17:00,
2013-07-13 20:18:00,69.1,0.0,30.26,SSW,205,0.0,0.0,0,0.00,,---,0.00,VWS V14.00,2013-07-14 00:18:00,
2013-07-13 20:19:00,69.1,0.0,30.26,SSW,205,0.0,0.0,0,0.00,,---,0.00,VWS V14.00,2013-07-14 00:19:00,
2013-07-13 20:20:00,69.2,0.0,30.26,SSW,205,0.0,0.0,0,0.00,,---,0.00,VWS V14.00,2013-07-14 00:20:00,
2013-07-13 20:21:00,69.2,0.0,30.26,SSW,205,0.0,0.0,0,0.00,,---,0.00,VWS V14.00,2013-07-14 00:21:00,
2013-07-13 20:22:00,69.2,0.0,30.27,SSW,205,0.0,0.0,0,0.00,,---,0.00,VWS V14.00,2013-07-14 00:22:00,
2013-07-13 20:23:00,69.1,0.0,30.27,SSW,205,0.0,0.0,0,0.00,,---,0.00,VWS V14.00,2013-07-14 00:23:00,
2013-07-13 20:24:00,69.1,0.0,30.27,SSW,205,0.0,0.0,0,0.00,,---,0.00,VWS V14.00,2013-07-14 00:24:00,
2013-07-13 20:25:00,69.0,0.0,30.27,SSW,205,0.0,0.0,0,0.00,,---,0.00,VWS V14.00,2013-07-14 00:25:00,
2013-07-13 20:26:00,69.0,0.0,30.27,SSW,205,0.0,0.0,0,0.00,,---,0.00,VWS V14.00,2013-07-14 00:26:00,
2013-07-13 20:27:00,69.1,0.0,30.27,SSW,205,0.0,0.0,0,0.00,,---,0.00,VWS V14.00,2013-07-14 00:27:00,
2013-07-13 20:28:00,69.1,0.0,30.27,SSW,205,0.0,0.0,0,0.00,,---,0.00,VWS V14.00,2013-07-14 00:28:00,
2013-07-13 20:29:00,69.2,0.0,30.27,SSW,205,0.0,0.0,0,0.00,,---,0.00,VWS V14.00,2013-07-14 00:29:00,
2013-07-13 20:30:00,69.2,0.0,30.27,SSW,205,0.0,0.0,0,0.00,,---,0.00,VWS V14.00,2013-07-14 00:30:00,
2013-07-13 20:31:00,69.2,0.0,30.27,SSW,205,0.0,0.0,0,0.00,,---,0.00,VWS V14.00,2013-07-14 00:31:00,
2013-07-13 20:32:00,69.3,0.0,30.27,SSW,205,0.0,0.0,0,0.00,,---,0.00,VWS V14.00,2013-07-14 00:32:00,
2013-07-13 20:33:00,69.2,0.0,30.27,SSW,205,0.0,0.0,0,0.00,,---,0.00,VWS V14.00,2013-07-14 00:33:00,
2013-07-13 20:34:00,69.2,0.0,30.27,SSW,205,0.0,0.0,0,0.00,,---,0.00,VWS V14.00,2013-07-14 00:34:00,
2013-07-13 20:35:00,69.3,0.0,30.27,SSW,205,0.0,0.0,0,0.00,,---,0.00,VWS V14.00,2013-07-14 00:35:00,
2013-07-13 20:36:00,69.2,0.0,30.27,WSW,243,4.3,0.0,0,0.00,,---,0.00,VWS V14.00,2013-07-14 00:36:00,
2013-07-13 20:37:00,69.2,0.0,30.27,SW,226,5.4,0.0,0,0.00,,---,0.00,VWS V14.00,2013-07-14 00:37:00,
2013-07-13 20:38:00,69.1,0.0,30.27,SW,224,2.2,0.0,0,0.00,,---,0.00,VWS V14.00,2013-07-14 00:38:00,
2013-07-13 20:39:00,69.2,0.0,30.27,SW,231,0.0,0.0,0,0.00,,---,0.00,VWS V14.00,2013-07-14 00:39:00,
2013-07-13 20:40:00,69.2,0.0,30.27,SW,231,0.0,5.8,0,0.00,,---,0.00,VWS V14.00,2013-07-14 00:40:00,
2013-07-13 20:41:00,69.1,0.0,30.27,SW,231,0.0,5.8,0,0.00,,---,0.00,VWS V14.00,2013-07-14 00:41:00,
2013-07-13 20:42:00,69.0,0.0,30.27,SW,231,0.0,5.8,0,0.00,,---,0.00,VWS V14.00,2013-07-14 00:42:00,
2013-07-13 20:43:00,69.1,0.0,30.27,SW,231,0.0,5.8,0,0.00,,---,0.00,VWS V14.00,2013-07-14 00:43:00,
2013-07-13 20:44:00,69.1,0.0,30.27,SW,231,0.0,5.8,0,0.00,,---,0.00,VWS V14.00,2013-07-14 00:44:00,
2013-07-13 20:45:00,69.1,0.0,30.27,SW,231,0.0,0.0,0,0.00,,---,0.00,VWS V14.00,2013-07-14 00:45:00,
2013-07-13 20:46:00,69.1,0.0,30.27,SW,231,0.0,0.0,0,0.00,,---,0.00,VWS V14.00,2013-07-14 00:46:00,
2013-07-13 20:47:00,69.1,0.0,30.27,SW,231,0.0,0.0,0,0.00,,---,0.00,VWS V14.00,2013-07-14 00:47:00,
2013-07-13 20:48:00,69.1,0.0,30.27,SW,231,0.0,0.0,0,0.00,,---,0.00,VWS V14.00,2013-07-14 00:48:00,
2013-07-13 20:49:00,69.0,0.0,30.27,SW,231,0.0,0.0,0,0.00,,---,0.00,VWS V14.00,2013-07-14 00:49:00,
2013-07-13 20:50:00,68.9,0.0,30.27,SW,231,0.0,0.0,0,0.00,,---,0.00,VWS V14.00,2013-07-14 00:50:00,
2013-07-13 20:51:00,69.0,0.0,30.27,SW,231,0.0,0.0,0,0.00,,---,0.00,VWS V14.00,2013-07-14 00:51:00,
2013-07-13 20:52:00,69.0,0.0,30.27,SW,231,0.0,0.0,0,0.00,,---,0.00,VWS V14.00,2013-07-14 00:52:00,
2013-07-13 20:53:00,68.9,0.0,30.27,SW,231,0.0,0.0,0,0.00,,---,0.00,VWS V14.00,2013-07-14 00:53:00,
2013-07-13 20:54:00,68.9,0.0,30.27,SW,215,4.5,0.0,0,0.00,,---,0.00,VWS V14.00,2013-07-14 00:54:00,
2013-07-13 20:55:00,68.8,0.0,30.27,SW,214,0.0,0.0,0,0.00,,---,0.00,VWS V14.00,2013-07-14 00:55:00,
2013-07-13 20:56:00,69.0,0.0,30.27,SW,214,0.0,5.4,0,0.00,,---,0.00,VWS V14.00,2013-07-14 00:56:00,
2013-07-13 20:57:00,68.9,0.0,30.27,SW,214,0.0,5.4,0,0.00,,---,0.00,VWS V14.00,2013-07-14 00:57:00,
2013-07-13 20:58:00,68.9,0.0,30.27,SW,226,2.9,5.4,0,0.00,,---,0.00,VWS V14.00,2013-07-14 00:58:00,
2013-07-13 20:59:00,68.9,0.0,30.27,WSW,238,0.0,5.4,0,0.00,,---,0.00,VWS V14.00,2013-07-14 00:59:00,
2013-07-13 21:00:00,68.9,0.0,30.27,WSW,238,0.0,4.2,0,0.00,,---,0.00,VWS V14.00,2013-07-14 01:00:00,
2013-07-13 21:01:00,68.9,0.0,30.27,WSW,238,0.0,4.2,0,0.00,,---,0.00,VWS V14.00,2013-07-14 01:01:00,
2013-07-13 21:02:00,69.0,0.0,30.27,WSW,238,0.0,4.2,0,0.00,,---,0.00,VWS V14.00,2013-07-14 01:02:00,
2013-07-13 21:03:00,69.0,0.0,30.27,WSW,238,0.0,4.2,0,0.00,,---,0.00,VWS V14.00,2013-07-14 01:03:00,
2013-07-13 21:04:00,69.0,0.0,30.27,SSW,194,0.0,4.2,0,0.00,,---,0.00,VWS V14.00,2013-07-14 01:04:00,
2013-07-13 21:05:00,69.0,0.0,30.27,SSW,194,0.0,2.3,0,0.00,,---,0.00,VWS V14.00,2013-07-14 01:05:00,
2013-07-13 21:06:00,69.0,0.0,30.27,SSW,194,0.0,2.3,0,0.00,,---,0.00,VWS V14.00,2013-07-14 01:06:00,
2013-07-13 21:07:00,69.1,0.0,30.27,SSW,194,0.0,2.3,0,0.00,,---,0.00,VWS V14.00,2013-07-14 01:07:00,
2013-07-13 21:08:00,69.0,0.0,30.27,SSW,194,0.0,2.3,0,0.00,,---,0.00,VWS V14.00,2013-07-14 01:08:00,
2013-07-13 21:09:00,69.0,0.0,30.27,SSW,194,0.0,2.3,0,0.00,,---,0.00,VWS V14.00,2013-07-14 01:09:00,
2013-07-13 21:10:00,69.0,0.0,30.26,SSW,194,0.0,0.0,0,0.00,,---,0.00,VWS V14.00,2013-07-14 01:10:00,
2013-07-13 21:11:00,69.0,0.0,30.27,SSW,194,0.0,0.0,0,0.00,,---,0.00,VWS V14.00,2013-07-14 01:11:00,
2013-07-13 21:12:00,69.1,0.0,30.27,SSW,194,0.0,0.0,0,0.00,,---,0.00,VWS V14.00,2013-07-14 01:12:00,
2013-07-13 21:13:00,69.2,0.0,30.27,SSW,194,0.0,0.0,0,0.00,,---,0.00,VWS V14.00,2013-07-14 01:13:00,
2013-07-13 21:14:00,69.1,0.0,30.26,SSW,194,0.0,0.0,0,0.00,,---,0.00,VWS V14.00,2013-07-14 01:14:00,
2013-07-13 21:15:00,69.1,0.0,30.27,SSW,194,0.0,0.0,0,0.00,,---,0.00,VWS V14.00,2013-07-14 01:15:00,
2013-07-13 21:16:00,69.2,0.0,30.26,SSW,194,0.0,0.0,0,0.00,,---,0.00,VWS V14.00,2013-07-14 01:16:00,
2013-07-13 21:17:00,69.2,0.0,30.26,SSW,194,0.0,0.0,0,0.00,,---,0.00,VWS V14.00,2013-07-14 01:17:00,
2013-07-13 21:18:00,69.2,0.0,30.26,SSW,194,0.0,0.0,0,0.00,,---,0.00,VWS V14.00,2013-07-14 01:18:00,
2013-07-13 21:19:00,69.3,0.0,30.26,SSW,194,0.0,0.0,0,0.00,,---,0.00,VWS V14.00,2013-07-14 01:19:00,
2013-07-13 21:20:00,69.3,0.0,30.26,SSW,194,0.0,0.0,0,0.00,,---,0.00,VWS V14.00,2013-07-14 01:20:00,
2013-07-13 21:21:00,69.2,0.0,30.26,SSW,194,0.0,0.0,0,0.00,,---,0.00,VWS V14.00,2013-07-14 01:21:00,
2013-07-13 21:22:00,69.3,0.0,30.26,SSW,194,0.0,0.0,0,0.00,,---,0.00,VWS V14.00,2013-07-14 01:22:00,
2013-07-13 21:23:00,69.3,0.0,30.26,SSW,194,0.0,0.0,0,0.00,,---,0.00,VWS V14.00,2013-07-14 01:23:00,
2013-07-13 21:24:00,69.4,0.0,30.26,SSW,194,0.0,0.0,0,0.00,,---,0.00,VWS V14.00,2013-07-14 01:24:00,
2013-07-13 21:25:00,69.3,0.0,30.26,SSW,194,0.0,0.0,0,0.00,,---,0.00,VWS V14.00,2013-07-14 01:25:00,
2013-07-13 21:26:00,69.3,0.0,30.26,SSW,194,0.0,0.0,0,0.00,,---,0.00,VWS V14.00,2013-07-14 01:26:00,
2013-07-13 21:27:00,69.3,0.0,30.26,SSW,194,0.0,0.0,0,0.00,,---,0.00,VWS V14.00,2013-07-14 01:27:00,
2013-07-13 21:28:00,69.3,0.0,30.26,SSW,194,0.0,0.0,0,0.00,,---,0.00,VWS V14.00,2013-07-14 01:28:00,
2013-07-13 21:29:00,69.3,0.0,30.26,SSW,194,0.0,0.0,0,0.00,,---,0.00,VWS V14.00,2013-07-14 01:29:00,
2013-07-13 21:30:00,69.4,0.0,30.26,SSW,194,0.0,0.0,0,0.00,,---,0.00,VWS V14.00,2013-07-14 01:30:00,
2013-07-13 21:31:00,69.4,0.0,30.26,SSW,194,0.0,0.0,0,0.00,,---,0.00,VWS V14.00,2013-07-14 01:31:00,
2013-07-13 21:32:00,69.4,0.0,30.26,SSW,194,0.0,0.0,0,0.00,,---,0.00,VWS V14.00,2013-07-14 01:32:00,
2013-07-13 21:33:00,69.5,0.0,30.26,SSW,194,0.0,0.0,0,0.00,,---,0.00,VWS V14.00,2013-07-14 01:33:00,
2013-07-13 21:34:00,69.5,0.0,30.26,SSW,194,0.0,0.0,0,0.00,,---,0.00,VWS V14.00,2013-07-14 01:34:00,
2013-07-13 21:35:00,69.4,0.0,30.26,SSW,194,0.0,0.0,0,0.00,,---,0.00,VWS V14.00,2013-07-14 01:35:00,
2013-07-13 21:36:00,69.4,0.0,30.26,SSW,194,0.0,0.0,0,0.00,,---,0.00,VWS V14.00,2013-07-14 01:36:00,
2013-07-13 21:37:00,69.4,0.0,30.26,SSW,194,0.0,0.0,0,0.00,,---,0.00,VWS V14.00,2013-07-14 01:37:00,
2013-07-13 21:38:00,69.4,0.0,30.26,SSW,194,0.0,0.0,0,0.00,,---,0.00,VWS V14.00,2013-07-14 01:38:00,
2013-07-13 21:39:00,69.4,0.0,30.26,SSW,194,0.0,0.0,0,0.00,,---,0.00,VWS V14.00,2013-07-14 01:39:00,
2013-07-13 21:40:00,69.3,0.0,30.26,SSW,194,0.0,0.0,0,0.00,,---,0.00,VWS V14.00,2013-07-14 01:40:00,
2013-07-13 21:41:00,69.3,0.0,30.26,SSW,194,0.0,0.0,0,0.00,,---,0.00,VWS V14.00,2013-07-14 01:41:00,
2013-07-13 21:42:00,69.3,0.0,30.26,SSW,194,0.0,0.0,0,0.00,,---,0.00,VWS V14.00,2013-07-14 01:42:00,
2013-07-13 21:43:00,69.3,0.0,30.26,SSW,194,0.0,0.0,0,0.00,,---,0.00,VWS V14.00,2013-07-14 01:43:00,
2013-07-13 21:44:00,69.3,0.0,30.26,SSW,194,0.0,0.0,0,0.00,,---,0.00,VWS V14.00,2013-07-14 01:44:00,
2013-07-13 21:45:00,69.3,0.0,30.26,SSW,194,0.0,0.0,0,0.00,,---,0.00,VWS V14.00,2013-07-14 01:45:00,
2013-07-13 21:46:00,69.3,0.0,30.26,SSW,194,0.0,0.0,0,0.00,,---,0.00,VWS V14.00,2013-07-14 01:46:00,
2013-07-13 21:47:00,69.2,0.0,30.26,SSW,194,0.0,0.0,0,0.00,,---,0.00,VWS V14.00,2013-07-14 01:47:00,
2013-07-13 21:48:00,69.2,0.0,30.26,SSW,194,0.0,0.0,0,0.00,,---,0.00,VWS V14.00,2013-07-14 01:48:00,
2013-07-13 21:49:00,69.2,0.0,30.26,SSW,194,0.0,0.0,0,0.00,,---,0.00,VWS V14.00,2013-07-14 01:49:00,
2013-07-13 21:50:00,69.2,0.0,30.26,SSW,194,0.0,0.0,0,0.00,,---,0.00,VWS V14.00,2013-07-14 01:50:00,
2013-07-13 21:51:00,69.2,0.0,30.26,SSW,194,0.0,0.0,0,0.00,,---,0.00,VWS V14.00,2013-07-14 01:51:00,
2013-07-13 21:52:00,69.2,0.0,30.26,SSW,194,0.0,0.0,0,0.00,,---,0.00,VWS V14.00,2013-07-14 01:52:00,
2013-07-13 21:53:00,69.1,0.0,30.26,SSW,194,0.0,0.0,0,0.00,,---,0.00,VWS V14.00,2013-07-14 01:53:00,
2013-07-13 21:54:00,69.2,0.0,30.26,SSW,194,0.0,0.0,0,0.00,,---,0.00,VWS V14.00,2013-07-14 01:54:00,
2013-07-13 21:55:00,69.2,0.0,30.26,SSW,194,0.0,0.0,0,0.00,,---,0.00,VWS V14.00,2013-07-14 01:55:00,
2013-07-13 21:56:00,69.1,0.0,30.26,SSW,194,0.0,0.0,0,0.00,,---,0.00,VWS V14.00,2013-07-14 01:56:00,
2013-07-13 21:57:00,69.2,0.0,30.26,SSW,194,0.0,0.0,0,0.00,,---,0.00,VWS V14.00,2013-07-14 01:57:00,
2013-07-13 21:58:00,69.1,0.0,30.26,SSW,194,0.0,0.0,0,0.00,,---,0.00,VWS V14.00,2013-07-14 01:58:00,
2013-07-13 21:59:00,69.1,0.0,30.26,SSW,194,0.0,0.0,0,0.00,,---,0.00,VWS V14.00,2013-07-14 01:59:00,
2013-07-13 22:00:00,69.1,0.0,30.26,SSW,194,0.0,0.0,0,0.00,,---,0.00,VWS V14.00,2013-07-14 02:00:00,
2013-07-13 22:01:00,69.1,0.0,30.26,SSW,194,0.0,0.0,0,0.00,,---,0.00,VWS V14.00,2013-07-14 02:01:00,
2013-07-13 22:02:00,69.1,0.0,30.26,SSW,194,0.0,0.0,0,0.00,,---,0.00,VWS V14.00,2013-07-14 02:02:00,
2013-07-13 22:03:00,69.2,0.0,30.26,SSW,194,0.0,0.0,0,0.00,,---,0.00,VWS V14.00,2013-07-14 02:03:00,
2013-07-13 22:04:00,69.2,0.0,30.26,SSW,194,0.0,0.0,0,0.00,,---,0.00,VWS V14.00,2013-07-14 02:04:00,
2013-07-13 22:05:00,69.2,0.0,30.26,SSW,194,0.0,0.0,0,0.00,,---,0.00,VWS V14.00,2013-07-14 02:05:00,
2013-07-13 22:06:00,69.3,0.0,30.26,SSW,194,0.0,0.0,0,0.00,,---,0.00,VWS V14.00,2013-07-14 02:06:00,
2013-07-13 22:07:00,69.3,0.0,30.26,SSW,194,0.0,0.0,0,0.00,,---,0.00,VWS V14.00,2013-07-14 02:07:00,
2013-07-13 22:08:00,69.3,0.0,30.26,SSW,194,0.0,0.0,0,0.00,,---,0.00,VWS V14.00,2013-07-14 02:08:00,
2013-07-13 22:09:00,69.3,0.0,30.26,SSW,194,0.0,0.0,0,0.00,,---,0.00,VWS V14.00,2013-07-14 02:09:00,
2013-07-13 22:10:00,69.5,0.0,30.26,SSW,194,0.0,0.0,0,0.00,,---,0.00,VWS V14.00,2013-07-14 02:10:00,
2013-07-13 22:11:00,69.4,0.0,30.26,SSW,194,0.0,0.0,0,0.00,,---,0.00,VWS V14.00,2013-07-14 02:11:00,
2013-07-13 22:12:00,69.5,0.0,30.26,SSW,194,0.0,0.0,0,0.00,,---,0.00,VWS V14.00,2013-07-14 02:12:00,
2013-07-13 22:13:00,69.6,0.0,30.26,SSW,194,0.0,0.0,0,0.00,,---,0.00,VWS V14.00,2013-07-14 02:13:00,
2013-07-13 22:14:00,69.6,0.0,30.26,SSW,194,0.0,0.0,0,0.00,,---,0.00,VWS V14.00,2013-07-14 02:14:00,
2013-07-13 22:15:00,69.6,0.0,30.26,SSW,194,0.0,0.0,0,0.00,,---,0.00,VWS V14.00,2013-07-14 02:15:00,
2013-07-13 22:16:00,69.6,0.0,30.26,SSW,194,0.0,0.0,0,0.00,,---,0.00,VWS V14.00,2013-07-14 02:16:00,
2013-07-13 22:17:00,69.6,0.0,30.26,SSW,194,0.0,0.0,0,0.00,,---,0.00,VWS V14.00,2013-07-14 02:17:00,
2013-07-13 22:18:00,69.7,0.0,30.26,SSW,194,0.0,0.0,0,0.00,,---,0.00,VWS V14.00,2013-07-14 02:18:00,
2013-07-13 22:19:00,69.7,0.0,30.26,SSW,194,0.0,0.0,0,0.00,,---,0.00,VWS V14.00,2013-07-14 02:19:00,
2013-07-13 22:20:00,69.7,0.0,30.26,SSW,194,0.0,0.0,0,0.00,,---,0.00,VWS V14.00,2013-07-14 02:20:00,
2013-07-13 22:21:00,69.6,0.0,30.26,SSW,194,0.0,0.0,0,0.00,,---,0.00,VWS V14.00,2013-07-14 02:21:00,
2013-07-13 22:22:00,69.6,0.0,30.26,SSW,194,0.0,0.0,0,0.00,,---,0.00,VWS V14.00,2013-07-14 02:22:00,
2013-07-13 22:23:00,69.6,0.0,30.26,SSW,194,0.0,0.0,0,0.00,,---,0.00,VWS V14.00,2013-07-14 02:23:00,
2013-07-13 22:24:00,69.5,0.0,30.26,SSW,194,0.0,0.0,0,0.00,,---,0.00,VWS V14.00,2013-07-14 02:24:00,
2013-07-13 22:25:00,69.5,0.0,30.26,SSW,194,0.0,0.0,0,0.00,,---,0.00,VWS V14.00,2013-07-14 02:25:00,
2013-07-13 22:26:00,69.5,0.0,30.26,SSW,194,0.0,0.0,0,0.00,,---,0.00,VWS V14.00,2013-07-14 02:26:00,
2013-07-13 22:27:00,69.5,0.0,30.26,SSW,194,0.0,0.0,0,0.00,,---,0.00,VWS V14.00,2013-07-14 02:27:00,
2013-07-13 22:28:00,69.5,0.0,30.26,SSW,194,0.0,0.0,0,0.00,,---,0.00,VWS V14.00,2013-07-14 02:28:00,
2013-07-13 22:29:00,69.5,0.0,30.26,SSW,194,0.0,0.0,0,0.00,,---,0.00,VWS V14.00,2013-07-14 02:29:00,
2013-07-13 22:30:00,69.6,0.0,30.26,SSW,194,0.0,0.0,0,0.00,,---,0.00,VWS V14.00,2013-07-14 02:30:00,
2013-07-13 22:31:00,69.6,0.0,30.26,SSW,194,0.0,0.0,0,0.00,,---,0.00,VWS V14.00,2013-07-14 02:31:00,
2013-07-13 22:32:00,69.7,0.0,30.26,SSW,194,0.0,0.0,0,0.00,,---,0.00,VWS V14.00,2013-07-14 02:32:00,
2013-07-13 22:33:00,69.7,0.0,30.26,SSW,194,0.0,0.0,0,0.00,,---,0.00,VWS V14.00,2013-07-14 02:33:00,
2013-07-13 22:34:00,69.7,0.0,30.26,SSW,194,0.0,0.0,0,0.00,,---,0.00,VWS V14.00,2013-07-14 02:34:00,
2013-07-13 22:35:00,69.7,0.0,30.26,SSW,194,0.0,0.0,0,0.00,,---,0.00,VWS V14.00,2013-07-14 02:35:00,
2013-07-13 22:36:00,69.8,0.0,30.26,SSW,194,0.0,0.0,0,0.00,,---,0.00,VWS V14.00,2013-07-14 02:36:00,
2013-07-13 22:37:00,69.7,0.0,30.26,SSW,194,0.0,0.0,0,0.00,,---,0.00,VWS V14.00,2013-07-14 02:37:00,
2013-07-13 22:38:00,69.7,0.0,30.26,SSW,194,0.0,0.0,0,0.00,,---,0.00,VWS V14.00,2013-07-14 02:38:00,
2013-07-13 22:39:00,69.7,0.0,30.26,SSW,194,0.0,0.0,0,0.00,,---,0.00,VWS V14.00,2013-07-14 02:39:00,
2013-07-13 22:40:00,69.7,0.0,30.26,SSW,194,0.0,0.0,0,0.00,,---,0.00,VWS V14.00,2013-07-14 02:40:00,
2013-07-13 22:41:00,69.7,0.0,30.26,SSW,194,0.0,0.0,0,0.00,,---,0.00,VWS V14.00,2013-07-14 02:41:00,
2013-07-13 22:42:00,69.7,0.0,30.26,SSW,194,0.0,0.0,0,0.00,,---,0.00,VWS V14.00,2013-07-14 02:42:00,
2013-07-13 22:43:00,69.7,0.0,30.27,SSW,194,0.0,0.0,0,0.00,,---,0.00,VWS V14.00,2013-07-14 02:43:00,
2013-07-13 22:44:00,69.7,0.0,30.27,SSW,194,0.0,0.0,0,0.00,,---,0.00,VWS V14.00,2013-07-14 02:44:00,
2013-07-13 22:45:00,69.6,0.0,30.27,SSW,194,0.0,0.0,0,0.00,,---,0.00,VWS V14.00,2013-07-14 02:45:00,
2013-07-13 22:46:00,69.6,0.0,30.27,SSW,194,0.0,0.0,0,0.00,,---,0.00,VWS V14.00,2013-07-14 02:46:00,
2013-07-13 22:47:00,69.5,0.0,30.27,SSW,194,0.0,0.0,0,0.00,,---,0.00,VWS V14.00,2013-07-14 02:47:00,
2013-07-13 22:48:00,69.5,0.0,30.27,SSW,194,0.0,0.0,0,0.00,,---,0.00,VWS V14.00,2013-07-14 02:48:00,
2013-07-13 22:49:00,69.4,0.0,30.27,SSW,194,0.0,0.0,0,0.00,,---,0.00,VWS V14.00,2013-07-14 02:49:00,
2013-07-13 22:50:00,69.5,0.0,30.27,SSW,194,0.0,0.0,0,0.00,,---,0.00,VWS V14.00,2013-07-14 02:50:00,
2013-07-13 22:51:00,69.5,0.0,30.27,SSW,194,0.0,0.0,0,0.00,,---,0.00,VWS V14.00,2013-07-14 02:51:00,
2013-07-13 22:52:00,69.5,0.0,30.27,SSW,194,0.0,0.0,0,0.00,,---,0.00,VWS V14.00,2013-07-14 02:52:00,
2013-07-13 22:53:00,69.4,0.0,30.27,SSW,194,0.0,0.0,0,0.00,,---,0.00,VWS V14.00,2013-07-14 02:53:00,
2013-07-13 22:54:00,69.5,0.0,30.27,SSW,194,0.0,0.0,0,0.00,,---,0.00,VWS V14.00,2013-07-14 02:54:00,
2013-07-13 22:55:00,69.5,0.0,30.27,SSW,194,0.0,0.0,0,0.00,,---,0.00,VWS V14.00,2013-07-14 02:55:00,
2013-07-13 22:56:00,69.4,0.0,30.27,SSW,194,0.0,0.0,0,0.00,,---,0.00,VWS V14.00,2013-07-14 02:56:00,
2013-07-13 22:57:00,69.4,0.0,30.27,SSW,194,0.0,0.0,0,0.00,,---,0.00,VWS V14.00,2013-07-14 02:57:00,
2013-07-13 22:58:00,69.4,0.0,30.27,SSW,194,0.0,0.0,0,0.00,,---,0.00,VWS V14.00,2013-07-14 02:58:00,
2013-07-13 22:59:00,69.4,0.0,30.27,SSW,194,0.0,0.0,0,0.00,,---,0.00,VWS V14.00,2013-07-14 02:59:00,
2013-07-13 23:00:00,69.5,0.0,30.27,SSW,194,0.0,0.0,0,0.00,,---,0.00,VWS V14.00,2013-07-14 03:00:00,
2013-07-13 23:01:00,69.5,0.0,30.27,SSW,194,0.0,0.0,0,0.00,,---,0.00,VWS V14.00,2013-07-14 03:01:00,
2013-07-13 23:02:00,69.5,0.0,30.27,SSW,194,0.0,0.0,0,0.00,,---,0.00,VWS V14.00,2013-07-14 03:02:00,
2013-07-13 23:03:00,69.4,0.0,30.27,SSW,194,0.0,0.0,0,0.00,,---,0.00,VWS V14.00,2013-07-14 03:03:00,
2013-07-13 23:04:00,69.4,0.0,30.27,SSW,194,0.0,0.0,0,0.00,,---,0.00,VWS V14.00,2013-07-14 03:04:00,
2013-07-13 23:05:00,69.5,0.0,30.27,SSW,194,0.0,0.0,0,0.00,,---,0.00,VWS V14.00,2013-07-14 03:05:00,
2013-07-13 23:06:00,69.5,0.0,30.27,SSW,194,0.0,0.0,0,0.00,,---,0.00,VWS V14.00,2013-07-14 03:06:00,
2013-07-13 23:07:00,69.4,0.0,30.27,SSW,194,0.0,0.0,0,0.00,,---,0.00,VWS V14.00,2013-07-14 03:07:00,
2013-07-13 23:08:00,69.4,0.0,30.27,SSW,194,0.0,0.0,0,0.00,,---,0.00,VWS V14.00,2013-07-14 03:08:00,
2013-07-13 23:09:00,69.5,0.0,30.27,SSW,194,0.0,0.0,0,0.00,,---,0.00,VWS V14.00,2013-07-14 03:09:00,
2013-07-13 23:10:00,69.4,0.0,30.27,SSW,194,0.0,0.0,0,0.00,,---,0.00,VWS V14.00,2013-07-14 03:10:00,
2013-07-13 23:11:00,69.3,0.0,30.27,SSW,194,0.0,0.0,0,0.00,,---,0.00,VWS V14.00,2013-07-14 03:11:00,
2013-07-13 23:12:00,69.3,0.0,30.27,SSW,194,0.0,0.0,0,0.00,,---,0.00,VWS V14.00,2013-07-14 03:12:00,
2013-07-13 23:13:00,69.2,0.0,30.27,SSW,194,0.0,0.0,0,0.00,,---,0.00,VWS V14.00,2013-07-14 03:13:00,
2013-07-13 23:14:00,69.2,0.0,30.27,SSW,194,0.0,0.0,0,0.00,,---,0.00,VWS V14.00,2013-07-14 03:14:00,